Provisional Data: West Branch Susquehanna River near Milton, PA


Please select a monitoring station.
Please select start date.
Please select start date.

Toggle Unit: C/F Toggle Unit: C/F
Sample Time Temperature (C) Temperature (F) Specific Conductivity (mS/cm) pH   Turbidity (NTU+) DO (mg/L)
5/4/2021 12:00:00 AM 14.58 58.244 117 7.31 4.05 10.58
5/4/2021 12:15:00 AM 14.58 58.244 117 7.31 4.45 10.57
5/4/2021 12:30:00 AM 14.59 58.262 117 7.31 5.18 10.56
5/4/2021 12:45:00 AM 14.58 58.244 117 7.3 4.46 10.56
5/4/2021 1:00:00 AM 14.57 58.226 117 7.31 4.62 10.55
5/4/2021 1:15:00 AM 14.57 58.226 118 7.3 3.99 10.54
5/4/2021 1:30:00 AM 14.8 58.64 129 7.33 3.22 10.6
5/4/2021 1:45:00 AM 14.65 58.37 125 7.25 2.73 10.61
5/4/2021 2:00:00 AM 14.55 58.19 118 7.29 3.74 10.51
5/4/2021 2:15:00 AM 14.54 58.172 118 7.29 3.45 10.5
5/4/2021 2:30:00 AM 14.53 58.154 118 7.29 3.6 10.49
5/4/2021 2:45:00 AM 14.53 58.154 118 7.29 3.92 10.47
5/4/2021 3:00:00 AM 14.52 58.136 118 7.28 3.94 10.47
5/4/2021 3:15:00 AM 14.51 58.118 118 7.29 4.07 10.45
5/4/2021 3:30:00 AM 14.5 58.1 119 7.28 3.95 10.43
5/4/2021 3:45:00 AM 14.49 58.082 119 7.28 3.97 10.42
5/4/2021 4:00:00 AM 14.49 58.082 119 7.28 4.06 10.41
5/4/2021 4:15:00 AM 14.48 58.064 119 7.28 4.14 10.39
5/4/2021 4:30:00 AM 14.47 58.046 119 7.27 4.02 10.38
5/4/2021 4:45:00 AM 14.46 58.028 120 7.27 3.95 10.36
5/4/2021 5:00:00 AM 14.45 58.01 120 7.27 3.66 10.35
5/4/2021 5:15:00 AM 14.44 57.992 120 7.26 3.07 10.33
5/4/2021 5:30:00 AM 14.43 57.974 120 7.26 3.62 10.31
5/4/2021 5:45:00 AM 14.43 57.974 120 7.25 3.52 10.31
5/4/2021 6:00:00 AM 14.42 57.956 120 7.25 3.66 10.29
5/4/2021 6:15:00 AM 14.41 57.938 120 7.25 3.35 10.29
5/4/2021 6:30:00 AM 14.4 57.92 121 7.25 3.35 10.28
5/4/2021 6:45:00 AM 14.4 57.92 121 7.25 3.64 10.27
5/4/2021 7:00:00 AM 14.4 57.92 121 7.25 3.47 10.26
5/4/2021 7:15:00 AM 14.4 57.92 121 7.24 3.33 10.26
5/4/2021 7:30:00 AM 14.4 57.92 121 7.25 3.16 10.27
5/4/2021 7:45:00 AM 14.4 57.92 121 7.25 3.25 10.27
5/4/2021 8:00:00 AM 14.41 57.938 121 7.25 3.13 10.27
5/4/2021 8:15:00 AM 14.41 57.938 122 7.25 3.14 10.27
5/4/2021 8:30:00 AM 14.42 57.956 122 7.25 3.42 10.28
5/4/2021 8:45:00 AM 14.44 57.992 122 7.25 3.17 10.3
5/4/2021 9:00:00 AM 14.46 58.028 122 7.26 3.43 10.32
5/4/2021 9:15:00 AM 14.49 58.082 122 7.26 3.24 10.33
5/4/2021 9:30:00 AM 14.53 58.154 122 7.26 3.66 10.34
5/4/2021 9:45:00 AM 14.59 58.262 122 7.27 3.23 10.36
5/4/2021 10:00:00 AM 14.64 58.352 123 7.27 3.27 10.37
5/4/2021 10:15:00 AM 14.68 58.424 123 7.27 3.2 10.37
5/4/2021 10:30:00 AM 14.75 58.55 123 7.28 3.31 10.39
5/4/2021 10:45:00 AM 14.8 58.64 123 7.29 3.28 10.39
5/4/2021 11:00:00 AM 14.86 58.748 123 7.29 3.37 10.41
5/4/2021 11:15:00 AM 14.91 58.838 123 7.3 3.34 10.43
5/4/2021 11:30:00 AM 14.95 58.91 123 7.3 3.1 10.45
5/4/2021 11:45:00 AM 15.01 59.018 124 7.31 3.19 10.45
5/4/2021 12:00:00 PM 15.05 59.09 124 7.31 3.51 10.47
5/4/2021 12:15:00 PM 15.12 59.216 124 7.32 3.01 10.5
5/4/2021 12:30:00 PM 15.22 59.396 124 7.33 3.24 10.53
5/4/2021 12:45:00 PM 15.3 59.54 124 7.34 3.3 10.54
5/4/2021 1:00:00 PM 15.39 59.702 124 7.34 3.06 10.57
5/4/2021 1:15:00 PM 15.47 59.846 124 7.35 3.38 10.58
5/4/2021 1:30:00 PM 15.57 60.026 124 7.36 3.34 10.61
5/4/2021 1:45:00 PM 15.64 60.152 124 7.37 3.35 10.62
5/4/2021 2:00:00 PM 15.7 60.26 124 7.37 3.2 10.64
5/4/2021 2:15:00 PM 15.76 60.368 124 7.38 3.42 10.65
5/4/2021 2:30:00 PM 15.77 60.386 124 7.38 3.33 10.66
5/4/2021 2:45:00 PM 15.76 60.368 125 7.39 3.32 10.66
5/4/2021 3:00:00 PM 15.75 60.35 124 7.39 3.43 10.66
5/4/2021 3:15:00 PM 15.76 60.368 125 7.39 3.36 10.67
5/4/2021 3:30:00 PM 15.8 60.44 125 7.4 3.31 10.68
5/4/2021 3:45:00 PM 15.82 60.476 125 7.4 3.76 10.69
5/4/2021 4:00:00 PM 15.83 60.494 125 7.4 3.18 10.7
5/4/2021 4:15:00 PM 15.84 60.512 125 7.41 3.14 10.7
5/4/2021 4:30:00 PM 15.84 60.512 125 7.41 2.9 10.7
5/4/2021 4:45:00 PM 15.85 60.53 125 7.41 3.07 10.71
5/4/2021 5:00:00 PM 15.87 60.566 125 7.42 2.93 10.71
5/4/2021 5:15:00 PM 15.89 60.602 125 7.42 3.26 10.72
5/4/2021 5:30:00 PM 15.91 60.638 125 7.42 3.13 10.72
5/4/2021 5:45:00 PM 15.91 60.638 125 7.43 3.2 10.72
5/4/2021 6:00:00 PM 15.92 60.656 125 7.43 2.93 10.73
5/4/2021 6:15:00 PM 15.93 60.674 125 7.42 3.13 10.73
5/4/2021 6:30:00 PM 15.91 60.638 125 7.43 3.25 10.74
5/4/2021 6:45:00 PM 15.87 60.566 125 7.43 3.13 10.72
5/4/2021 7:00:00 PM 15.85 60.53 125 7.42 3.12 10.72
5/4/2021 7:15:00 PM 15.83 60.494 125 7.42 2.89 10.71
5/4/2021 7:30:00 PM 15.8 60.44 124 7.42 3.05 10.7
5/4/2021 7:45:00 PM 15.78 60.404 124 7.42 3.01 10.69
5/4/2021 8:00:00 PM 15.75 60.35 124 7.41 3.33 10.68
5/4/2021 8:15:00 PM 15.74 60.332 124 7.41 2.98 10.67
5/4/2021 8:30:00 PM 15.74 60.332 124 7.41 3.02 10.67
5/4/2021 8:45:00 PM 15.73 60.314 124 7.4 3.9 10.65
5/4/2021 9:00:00 PM 15.73 60.314 124 7.4 3.06 10.64
5/4/2021 9:15:00 PM 15.75 60.35 124 7.4 3.24 10.64
5/4/2021 9:30:00 PM 15.76 60.368 124 7.39 3.09 10.62
5/4/2021 9:45:00 PM 15.77 60.386 124 7.39 3.06 10.61
5/4/2021 10:00:00 PM 15.78 60.404 124 7.38 3 10.6
5/4/2021 10:15:00 PM 15.79 60.422 124 7.38 2.96 10.58
5/4/2021 10:30:00 PM 15.8 60.44 124 7.38 3.05 10.57
5/4/2021 10:45:00 PM 15.81 60.458 124 7.37 2.98 10.55
5/4/2021 11:00:00 PM 15.81 60.458 124 7.36 3.01 10.53
5/4/2021 11:15:00 PM 15.81 60.458 124 7.37 3.09 10.51
5/4/2021 11:30:00 PM 15.8 60.44 124 7.36 2.89 10.49
5/4/2021 11:45:00 PM 15.79 60.422 124 7.35 2.88 10.47
5/5/2021 12:00:00 AM 15.77 60.386 124 7.35 2.98 10.45
5/5/2021 12:15:00 AM 15.77 60.386 124 7.34 2.9 10.44
5/5/2021 12:30:00 AM 15.77 60.386 124 7.34 3 10.42
5/5/2021 12:45:00 AM 15.9 60.62 132 7.35 2.35 10.43
5/5/2021 1:00:00 AM 15.76 60.368 130 7.28 2.06 10.41
5/5/2021 1:15:00 AM 15.77 60.386 124 7.32 3.05 10.38
5/5/2021 1:30:00 AM 15.77 60.386 124 7.33 3.02 10.36
5/5/2021 1:45:00 AM 15.77 60.386 124 7.32 2.93 10.35
5/5/2021 2:00:00 AM 15.76 60.368 124 7.32 2.97 10.32
5/5/2021 2:15:00 AM 15.75 60.35 123 7.32 2.91 10.31
5/5/2021 2:30:00 AM 15.74 60.332 123 7.32 2.96 10.29
5/5/2021 2:45:00 AM 15.74 60.332 123 7.31 3.19 10.27
5/5/2021 3:00:00 AM 15.73 60.314 123 7.31 2.87 10.26
5/5/2021 3:15:00 AM 15.72 60.296 123 7.3 2.9 10.24
5/5/2021 3:30:00 AM 15.72 60.296 123 7.3 2.96 10.22
5/5/2021 3:45:00 AM 15.71 60.278 123 7.29 3.26 10.21
5/5/2021 4:00:00 AM 15.7 60.26 123 7.29 2.95 10.19
5/5/2021 4:15:00 AM 15.69 60.242 123 7.28 2.86 10.16
5/5/2021 4:30:00 AM 15.69 60.242 123 7.28 3.21 10.13
5/5/2021 4:45:00 AM 15.67 60.206 123 7.27 3.5 10.11
5/5/2021 5:00:00 AM 15.66 60.188 122 7.26 4.17 10.08
5/5/2021 5:15:00 AM 15.65 60.17 122 7.26 3.56 10.07
5/5/2021 5:30:00 AM 15.64 60.152 122 7.26 3.69 10.05
5/5/2021 5:45:00 AM 15.63 60.134 122 7.26 5.16 10.04
5/5/2021 6:00:00 AM 15.62 60.116 122 7.25 4.82 10.02
5/5/2021 6:15:00 AM 15.62 60.116 122 7.25 4.85 10.01
5/5/2021 6:30:00 AM 15.61 60.098 122 7.25 4.17 9.99
5/5/2021 6:45:00 AM 15.6 60.08 122 7.24 3.94 9.98
5/5/2021 7:00:00 AM 15.6 60.08 122 7.24 3.69 9.98
5/5/2021 7:15:00 AM 15.6 60.08 122 7.24 3.71 9.97
5/5/2021 7:30:00 AM 15.59 60.062 122 7.24 3.48 9.98
5/5/2021 7:45:00 AM 15.59 60.062 122 7.24 3.44 9.95
5/5/2021 8:00:00 AM 15.59 60.062 122 7.24 3.57 9.95
5/5/2021 8:15:00 AM 15.59 60.062 122 7.24 3.61 9.95
5/5/2021 8:30:00 AM 15.58 60.044 122 7.24 3.9 9.93
5/5/2021 8:45:00 AM 15.67 60.206 130 7.32 3 10.18
5/5/2021 9:00:00 AM 15.58 60.044 123 7.24 3.29 9.93
5/5/2021 9:15:00 AM 15.58 60.044 122 7.24 3.61 9.91
5/5/2021 9:30:00 AM 15.57 60.026 122 7.24 3.54 9.9
5/5/2021 9:45:00 AM 15.75 60.35 131 7.29 2.23 10.15
5/5/2021 10:00:00 AM 15.6 60.08 124 7.25 3.27 9.98
5/5/2021 10:15:00 AM 15.58 60.044 122 7.25 3.72 9.92
5/5/2021 10:30:00 AM 15.59 60.062 122 7.25 3.53 9.93
5/5/2021 10:45:00 AM 15.6 60.08 122 7.26 3.84 9.94
5/5/2021 11:00:00 AM 15.61 60.098 122 7.26 3.3 9.95
5/5/2021 11:15:00 AM 15.63 60.134 122 7.26 3.52 9.97
5/5/2021 11:30:00 AM 15.66 60.188 122 7.27 3.13 9.99
5/5/2021 11:45:00 AM 15.67 60.206 123 7.27 2.91 10
5/5/2021 12:00:00 PM 15.67 60.206 123 7.28 3.14 10.01
5/5/2021 12:15:00 PM 15.67 60.206 123 7.28 3.16 10.01
5/5/2021 12:30:00 PM 15.67 60.206 123 7.28 3.24 10.02
5/5/2021 12:45:00 PM 15.67 60.206 123 7.28 3.3 10.03
5/5/2021 1:00:00 PM 15.67 60.206 123 7.29 3.12 10.03
5/5/2021 1:15:00 PM 15.67 60.206 123 7.29 3.21 10.04
5/5/2021 1:30:00 PM 15.67 60.206 123 7.29 3.16 10.04
5/5/2021 1:45:00 PM 15.67 60.206 124 7.29 3.12 10.04
5/5/2021 2:00:00 PM 15.66 60.188 124 7.29 3 10.05
5/5/2021 2:15:00 PM 15.66 60.188 124 7.29 3.01 10.05
5/5/2021 2:30:00 PM 15.66 60.188 123 7.3 3.17 10.06
5/5/2021 2:45:00 PM 15.65 60.17 123 7.3 3.13 10.07
5/5/2021 3:00:00 PM 15.65 60.17 123 7.3 3.09 10.08
5/5/2021 3:15:00 PM 15.66 60.188 123 7.31 3.25 10.1
5/5/2021 3:30:00 PM 15.67 60.206 123 7.32 3.14 10.12
5/5/2021 3:45:00 PM 15.69 60.242 123 7.32 3.18 10.15
5/5/2021 4:00:00 PM 15.7 60.26 123 7.32 3.11 10.17
5/5/2021 4:15:00 PM 15.71 60.278 122 7.33 3.04 10.18
5/5/2021 4:30:00 PM 15.7 60.26 122 7.33 3.01 10.19
5/5/2021 4:45:00 PM 15.7 60.26 122 7.33 2.99 10.2
5/5/2021 5:00:00 PM 15.69 60.242 122 7.33 2.92 10.22
5/5/2021 5:15:00 PM 15.69 60.242 122 7.34 3.13 10.22
5/5/2021 5:30:00 PM 15.67 60.206 122 7.34 3.18 10.24
5/5/2021 5:45:00 PM 15.66 60.188 122 7.34 3.31 10.24
5/5/2021 6:00:00 PM 15.65 60.17 122 7.34 3.07 10.26
5/5/2021 6:15:00 PM 15.64 60.152 122 7.35 3.37 10.26
5/5/2021 6:30:00 PM 15.74 60.332 132 7.32 2.05 10.37
5/5/2021 6:45:00 PM 15.67 60.206 126 7.31 2.6 10.33
5/5/2021 7:00:00 PM 15.67 60.206 122 7.36 3.44 10.32
5/5/2021 7:15:00 PM 15.68 60.224 122 7.37 3.15 10.32
5/5/2021 7:30:00 PM 15.67 60.206 122 7.37 3.2 10.33
5/5/2021 7:45:00 PM 15.66 60.188 123 7.37 3.39 10.34
5/5/2021 8:00:00 PM 15.67 60.206 123 7.38 3.4 10.34
5/5/2021 8:15:00 PM 15.66 60.188 123 7.38 3.26 10.34
5/5/2021 8:30:00 PM 15.63 60.134 123 7.38 3.2 10.34
5/5/2021 8:45:00 PM 15.59 60.062 123 7.37 3.35 10.32
5/5/2021 9:00:00 PM 15.56 60.008 123 7.37 3.41 10.31
5/5/2021 9:15:00 PM 15.53 59.954 123 7.37 3.29 10.31
5/5/2021 9:30:00 PM 15.51 59.918 123 7.37 3.65 10.3
5/5/2021 9:45:00 PM 15.48 59.864 124 7.36 3.36 10.29
5/5/2021 10:00:00 PM 15.46 59.828 124 7.36 3.57 10.29
5/5/2021 10:15:00 PM 15.44 59.792 124 7.36 3.71 10.27
5/5/2021 10:30:00 PM 15.41 59.738 124 7.35 4.04 10.25
5/5/2021 10:45:00 PM 15.37 59.666 124 7.35 4.28 10.25
5/5/2021 11:00:00 PM 15.33 59.594 124 7.34 4.38 10.23
5/5/2021 11:15:00 PM 15.29 59.522 124 7.34 4.24 10.23
5/5/2021 11:30:00 PM 15.26 59.468 124 7.34 4.31 10.21
5/5/2021 11:45:00 PM 15.23 59.414 124 7.33 4.37 10.21
5/6/2021 12:00:00 AM 15.21 59.378 124 7.33 4.57 10.2
5/6/2021 12:15:00 AM 15.18 59.324 124 7.33 4.51 10.2
5/6/2021 12:30:00 AM 15.16 59.288 124 7.33 4.7 10.2
5/6/2021 12:45:00 AM 15.13 59.234 124 7.33 4.7 10.19
5/6/2021 1:00:00 AM 15.11 59.198 123 7.33 4.53 10.19
5/6/2021 1:15:00 AM 15.09 59.162 123 7.33 4.64 10.19
5/6/2021 1:30:00 AM 15.06 59.108 124 7.32 4.49 10.19
5/6/2021 1:45:00 AM 15.04 59.072 123 7.32 4.63 10.19
5/6/2021 2:00:00 AM 15.03 59.054 124 7.32 4.6 10.18
5/6/2021 2:15:00 AM 15 59 124 7.32 11.26 10.18
5/6/2021 2:30:00 AM 14.97 58.946 123 7.32 5.13 10.19
5/6/2021 2:45:00 AM 14.94 58.892 123 7.32 4.83 10.19
5/6/2021 3:00:00 AM 14.91 58.838 123 7.32 4.88 10.19
5/6/2021 3:15:00 AM 14.88 58.784 123 7.32 4.61 10.2
5/6/2021 3:30:00 AM 14.85 58.73 123 7.32 4.69 10.19
5/6/2021 3:45:00 AM 14.83 58.694 123 7.32 4.55 10.19
5/6/2021 4:00:00 AM 14.81 58.658 123 7.31 4.57 10.19
5/6/2021 4:15:00 AM 14.79 58.622 123 7.31 4.35 10.18
5/6/2021 4:30:00 AM 14.77 58.586 123 7.31 4.35 10.19
5/6/2021 4:45:00 AM 14.75 58.55 122 7.31 4.52 10.17
5/6/2021 5:00:00 AM 14.73 58.514 122 7.31 4.6 10.17
5/6/2021 5:15:00 AM 14.71 58.478 122 7.31 4.59 10.18
5/6/2021 5:30:00 AM 14.69 58.442 122 7.31 4.1 10.16
5/6/2021 5:45:00 AM 14.66 58.388 122 7.31 4.03 10.16
5/6/2021 6:00:00 AM 14.63 58.334 121 7.31 4.19 10.15
5/6/2021 6:15:00 AM 14.61 58.298 121 7.31 4 10.16
5/6/2021 6:30:00 AM 14.58 58.244 121 7.31 4.39 10.16
5/6/2021 6:45:00 AM 14.56 58.208 121 7.31 7.57 10.16
5/6/2021 7:00:00 AM 14.53 58.154 121 7.31 3.99 10.16
5/6/2021 7:15:00 AM 14.51 58.118 120 7.31 4.15 10.16
5/6/2021 7:30:00 AM 14.49 58.082 120 7.31 3.81 10.16
5/6/2021 7:45:00 AM 14.48 58.064 120 7.31 4.04 10.18
5/6/2021 8:00:00 AM 14.46 58.028 120 7.31 3.62 10.19
5/6/2021 8:15:00 AM 14.46 58.028 120 7.31 3.4 10.19
5/6/2021 8:30:00 AM 14.46 58.028 120 7.31 3.81 10.22
5/6/2021 8:45:00 AM 14.47 58.046 119 7.32 3.82 10.22
5/6/2021 9:00:00 AM 14.47 58.046 119 7.32 3.57 10.25
5/6/2021 9:15:00 AM 14.48 58.064 119 7.32 3.65 10.25
5/6/2021 9:30:00 AM 14.5 58.1 119 7.33 3.43 10.28
5/6/2021 9:45:00 AM 14.52 58.136 119 7.33 3.56 10.3
5/6/2021 10:00:00 AM 14.54 58.172 119 7.33 3.75 10.31
5/6/2021 10:15:00 AM 14.59 58.262 119 7.34 3.46 10.33
5/6/2021 10:30:00 AM 14.64 58.352 119 7.34 3.58 10.36
5/6/2021 10:45:00 AM 14.7 58.46 119 7.35 3.48 10.38
5/6/2021 11:00:00 AM 14.76 58.568 119 7.36 3.35 10.42
5/6/2021 11:15:00 AM 14.81 58.658 118 7.36 3.7 10.44
5/6/2021 11:30:00 AM 14.83 58.694 118 7.37 2.96 10.46
5/6/2021 11:45:00 AM 14.85 58.73 118 7.38 3.47 10.49
5/6/2021 12:00:00 PM 14.89 58.802 118 7.38 3.28 10.5
5/6/2021 12:15:00 PM 14.94 58.892 118 7.38 3.41 10.52
5/6/2021 12:30:00 PM 15.04 59.072 118 7.39 3.12 10.54
5/6/2021 12:45:00 PM 15.11 59.198 118 7.4 3.19 10.56
5/6/2021 1:00:00 PM 15.17 59.306 118 7.4 3.33 10.59
5/6/2021 1:15:00 PM 15.24 59.432 118 7.41 3.11 10.6
5/6/2021 1:30:00 PM 15.3 59.54 118 7.41 3.03 10.63
5/6/2021 1:45:00 PM 15.38 59.684 118 7.42 3.19 10.64
5/6/2021 2:00:00 PM 15.43 59.774 118 7.43 3.11 10.65
5/6/2021 2:15:00 PM 15.48 59.864 118 7.43 3.08 10.67
5/6/2021 2:30:00 PM 15.53 59.954 118 7.44 2.97 10.69
5/6/2021 2:45:00 PM 15.57 60.026 118 7.44 3 10.69
5/6/2021 3:00:00 PM 15.61 60.098 117 7.45 2.95 10.72
5/6/2021 3:15:00 PM 15.64 60.152 117 7.45 3.33 10.73
5/6/2021 3:30:00 PM 15.67 60.206 117 7.46 2.99 10.74
5/6/2021 3:45:00 PM 15.67 60.206 117 7.46 3.29 10.74
5/6/2021 4:00:00 PM 15.68 60.224 117 7.46 3.13 10.76
5/6/2021 4:15:00 PM 15.69 60.242 117 7.47 3.57 10.77
5/6/2021 4:30:00 PM 15.69 60.242 117 7.47 2.94 10.78
5/6/2021 4:45:00 PM 15.69 60.242 117 7.48 3.25 10.8
5/6/2021 5:00:00 PM 15.73 60.314 126 7.48 2.54 10.72
5/6/2021 5:15:00 PM 15.63 60.134 123 7.4 2.36 10.69
5/6/2021 5:30:00 PM 15.66 60.188 117 7.49 4.46 10.83
5/6/2021 5:45:00 PM 15.66 60.188 116 7.49 4.09 10.84
5/6/2021 6:00:00 PM 15.67 60.206 116 7.5 3.83 10.85
5/6/2021 6:15:00 PM 15.69 60.242 116 7.5 3.72 10.86
5/6/2021 6:30:00 PM 15.69 60.242 116 7.5 3.61 10.86
5/6/2021 6:45:00 PM 15.68 60.224 116 7.5 3.28 10.86
5/6/2021 7:00:00 PM 15.65 60.17 116 7.5 3.49 10.86
5/6/2021 7:15:00 PM 15.62 60.116 116 7.5 3.34 10.86
5/6/2021 7:30:00 PM 15.59 60.062 116 7.5 3.58 10.85
5/6/2021 7:45:00 PM 15.57 60.026 116 7.49 3.33 10.84
5/6/2021 8:00:00 PM 15.55 59.99 115 7.49 3.18 10.84
5/6/2021 8:15:00 PM 15.52 59.936 115 7.48 3.41 10.82
5/6/2021 8:30:00 PM 15.49 59.882 115 7.48 3.44 10.8
5/6/2021 8:45:00 PM 15.45 59.81 115 7.48 3.1 10.79
5/6/2021 9:00:00 PM 15.42 59.756 115 7.47 3.42 10.78
5/6/2021 9:15:00 PM 15.39 59.702 115 7.47 3.33 10.77
5/6/2021 9:30:00 PM 15.38 59.684 115 7.46 3.46 10.76
5/6/2021 9:45:00 PM 15.37 59.666 115 7.46 3.38 10.75
5/6/2021 10:00:00 PM 15.35 59.63 115 7.45 3.41 10.74
5/6/2021 10:15:00 PM 15.33 59.594 115 7.45 3.02 10.73
5/6/2021 10:30:00 PM 15.32 59.576 116 7.44 3.34 10.71
5/6/2021 10:45:00 PM 15.3 59.54 116 7.44 3.24 10.69
5/6/2021 11:00:00 PM 15.28 59.504 116 7.43 3.37 10.67
5/6/2021 11:15:00 PM 15.26 59.468 116 7.43 3.39 10.66
5/6/2021 11:30:00 PM 15.24 59.432 116 7.42 3.54 10.64
5/6/2021 11:45:00 PM 15.22 59.396 116 7.41 3.23 10.62
5/7/2021 12:00:00 AM 15.2 59.36 116 7.41 3.19 10.6
5/7/2021 12:15:00 AM 15.18 59.324 116 7.4 3.05 10.59
5/7/2021 12:30:00 AM 15.18 59.324 120 7.41 3.15 10.59
5/7/2021 12:45:00 AM 15.22 59.396 124 7.35 2.32 10.61
5/7/2021 1:00:00 AM 15.14 59.252 118 7.37 3.54 10.55
5/7/2021 1:15:00 AM 15.09 59.162 117 7.38 3.48 10.53
5/7/2021 1:30:00 AM 15.06 59.108 117 7.38 3.61 10.51
5/7/2021 1:45:00 AM 15.04 59.072 117 7.38 3.51 10.5
5/7/2021 2:00:00 AM 15.02 59.036 118 7.37 4.73 10.49
5/7/2021 2:15:00 AM 14.99 58.982 118 7.37 3.23 10.47
5/7/2021 2:30:00 AM 14.96 58.928 118 7.36 4.13 10.46
5/7/2021 2:45:00 AM 14.93 58.874 118 7.36 3.41 10.44
5/7/2021 3:00:00 AM 14.9 58.82 118 7.36 3.41 10.44
5/7/2021 3:15:00 AM 14.87 58.766 118 7.35 3.44 10.42
5/7/2021 3:30:00 AM 14.84 58.712 119 7.35 3.24 10.41
5/7/2021 3:45:00 AM 14.8 58.64 119 7.35 3.2 10.4
5/7/2021 4:00:00 AM 14.77 58.586 119 7.34 3.34 10.38
5/7/2021 4:15:00 AM 14.73 58.514 119 7.34 3.36 10.37
5/7/2021 4:30:00 AM 14.68 58.424 120 7.33 3.39 10.35
5/7/2021 4:45:00 AM 14.65 58.37 120 7.32 3.19 10.34
5/7/2021 5:00:00 AM 14.61 58.298 120 7.32 3.35 10.33
5/7/2021 5:15:00 AM 14.57 58.226 120 7.32 3.28 10.31
5/7/2021 5:30:00 AM 14.53 58.154 120 7.31 3.21 10.3
5/7/2021 5:45:00 AM 14.5 58.1 121 7.31 3.22 10.28
5/7/2021 6:00:00 AM 14.46 58.028 121 7.31 3.33 10.28
5/7/2021 6:15:00 AM 14.43 57.974 121 7.3 3.24 10.28
5/7/2021 6:30:00 AM 14.39 57.902 121 7.3 3.05 10.31
5/7/2021 6:45:00 AM 14.37 57.866 121 7.3 2.88 10.28
5/7/2021 7:00:00 AM 14.34 57.812 121 7.3 3.42 10.27
5/7/2021 7:15:00 AM 14.32 57.776 121 7.3 3.27 10.27
5/7/2021 7:30:00 AM 14.29 57.722 122 7.3 3.06 10.3
5/7/2021 7:45:00 AM 14.28 57.704 122 7.3 3.11 10.29
5/7/2021 8:00:00 AM 14.26 57.668 122 7.3 2.98 10.31
5/7/2021 8:15:00 AM 14.25 57.65 122 7.3 3.3 10.32
5/7/2021 8:30:00 AM 14.24 57.632 122 7.31 2.95 10.34
5/7/2021 8:45:00 AM 14.23 57.614 122 7.31 2.99 10.35
5/7/2021 9:00:00 AM 14.23 57.614 122 7.31 2.98 10.38
5/7/2021 9:15:00 AM 14.22 57.596 123 7.31 2.93 10.39
5/7/2021 9:30:00 AM 14.23 57.614 123 7.31 3.02 10.39
5/7/2021 9:45:00 AM 14.24 57.632 123 7.32 3.07 10.42
5/7/2021 10:00:00 AM 14.27 57.686 123 7.32 2.95 10.45
5/7/2021 10:15:00 AM 14.54 58.172 129 7.41 2.24 10.56
5/7/2021 10:30:00 AM 14.57 58.226 127 7.33 2.04 10.52
5/7/2021 10:45:00 AM 14.34 57.812 124 7.33 3.76 10.49
5/7/2021 11:00:00 AM 14.33 57.794 124 7.34 3.34 10.52
5/7/2021 11:15:00 AM 14.35 57.83 124 7.34 3.21 10.55
5/7/2021 11:30:00 AM 14.37 57.866 124 7.35 3.13 10.56
5/7/2021 11:45:00 AM 14.4 57.92 124 7.35 2.92 10.59
5/7/2021 12:00:00 PM 14.43 57.974 124 7.36 3.02 10.62
5/7/2021 12:15:00 PM 14.47 58.046 125 7.36 3.18 10.63
5/7/2021 12:30:00 PM 14.49 58.082 125 7.37 2.87 10.66
5/7/2021 12:45:00 PM 14.5 58.1 125 7.37 2.91 10.67
5/7/2021 1:00:00 PM 14.49 58.082 125 7.38 3.01 10.68
5/7/2021 1:15:00 PM 14.5 58.1 125 7.38 2.78 10.7
5/7/2021 1:30:00 PM 14.5 58.1 125 7.38 3.05 10.7
5/7/2021 1:45:00 PM 14.49 58.082 126 7.39 2.96 10.72
5/7/2021 2:00:00 PM 14.48 58.064 126 7.38 2.7 10.72
5/7/2021 2:15:00 PM 14.46 58.028 126 7.39 3.16 10.73
5/7/2021 2:30:00 PM 14.44 57.992 126 7.39 2.77 10.74
5/7/2021 2:45:00 PM 14.43 57.974 126 7.39 2.84 10.75
5/7/2021 3:00:00 PM 14.42 57.956 126 7.39 2.85 10.78
5/7/2021 3:15:00 PM 14.41 57.938 127 7.4 3.22 10.77
5/7/2021 3:30:00 PM 14.41 57.938 127 7.4 2.79 10.79
5/7/2021 3:45:00 PM 14.42 57.956 127 7.4 2.75 10.81
5/7/2021 4:00:00 PM 14.42 57.956 127 7.41 2.71 10.84
5/7/2021 4:15:00 PM 14.41 57.938 127 7.41 2.78 10.85
5/7/2021 4:30:00 PM 14.39 57.902 127 7.42 2.74 10.86
5/7/2021 4:45:00 PM 14.37 57.866 127 7.42 2.75 10.87
5/7/2021 5:00:00 PM 14.35 57.83 127 7.42 2.77 10.86
5/7/2021 5:15:00 PM 14.33 57.794 127 7.42 2.63 10.88
5/7/2021 5:30:00 PM 14.3 57.74 128 7.42 2.68 10.89
5/7/2021 5:45:00 PM 14.27 57.686 128 7.42 2.6 10.89
5/7/2021 6:00:00 PM 14.25 57.65 128 7.42 2.95 10.89
5/7/2021 6:15:00 PM 14.23 57.614 128 7.42 2.76 10.88
5/7/2021 6:30:00 PM 14.21 57.578 128 7.42 2.97 10.87
5/7/2021 6:45:00 PM 14.2 57.56 128 7.41 2.58 10.88
5/7/2021 7:00:00 PM 14.18 57.524 128 7.41 2.7 10.88
5/7/2021 7:15:00 PM 14.17 57.506 128 7.41 2.74 10.86
5/7/2021 7:30:00 PM 14.14 57.452 128 7.41 2.85 10.87
5/7/2021 7:45:00 PM 14.12 57.416 128 7.41 2.82 10.88
5/7/2021 8:00:00 PM 14.1 57.38 128 7.41 2.69 10.86
5/7/2021 8:15:00 PM 14.09 57.362 128 7.41 2.71 10.86
5/7/2021 8:30:00 PM 14.08 57.344 128 7.4 2.68 10.86
5/7/2021 8:45:00 PM 14.07 57.326 128 7.4 2.77 10.86
5/7/2021 9:00:00 PM 14.06 57.308 128 7.4 2.8 10.85
5/7/2021 9:15:00 PM 14.05 57.29 128 7.39 2.75 10.86
5/7/2021 9:30:00 PM 14.04 57.272 128 7.39 2.78 10.85
5/7/2021 9:45:00 PM 14.02 57.236 128 7.39 2.9 10.82
5/7/2021 10:00:00 PM 14 57.2 128 7.39 2.64 10.82
5/7/2021 10:15:00 PM 13.98 57.164 128 7.38 2.82 10.82
5/7/2021 10:30:00 PM 13.96 57.128 128 7.38 2.73 10.79
5/7/2021 10:45:00 PM 13.93 57.074 128 7.37 2.92 10.79
5/7/2021 11:00:00 PM 13.91 57.038 128 7.37 2.79 10.78
5/7/2021 11:15:00 PM 13.9 57.02 129 7.36 2.76 10.76
5/7/2021 11:30:00 PM 13.88 56.984 129 7.36 2.78 10.75
5/7/2021 11:45:00 PM 13.87 56.966 129 7.36 2.63 10.74
5/8/2021 12:00:00 AM 13.85 56.93 129 7.35 2.85 10.74
5/8/2021 12:15:00 AM 13.84 56.912 129 7.35 2.94 10.73
5/8/2021 12:30:00 AM 13.82 56.876 130 7.35 3.05 10.72
5/8/2021 12:45:00 AM 13.81 56.858 130 7.35 2.93 10.72
5/8/2021 1:00:00 AM 13.79 56.822 130 7.34 3.13 10.71
5/8/2021 1:15:00 AM 13.77 56.786 131 7.34 2.88 10.71
5/8/2021 1:30:00 AM 13.75 56.75 131 7.34 2.91 10.7
5/8/2021 1:45:00 AM 13.73 56.714 131 7.34 2.91 10.7
5/8/2021 2:00:00 AM 13.7 56.66 132 7.33 2.96 10.69
5/8/2021 2:15:00 AM 13.68 56.624 132 7.33 3.33 10.69
5/8/2021 2:30:00 AM 13.65 56.57 132 7.33 2.94 10.69
5/8/2021 2:45:00 AM 13.63 56.534 133 7.33 3.01 10.68
5/8/2021 3:00:00 AM 13.6 56.48 133 7.32 2.94 10.67
5/8/2021 3:15:00 AM 13.58 56.444 133 7.33 3.05 10.67
5/8/2021 3:30:00 AM 13.56 56.408 134 7.32 3.32 10.66
5/8/2021 3:45:00 AM 13.54 56.372 134 7.32 2.77 10.65
5/8/2021 4:00:00 AM 13.51 56.318 135 7.32 3.06 10.64
5/8/2021 4:15:00 AM 13.48 56.264 135 7.31 2.95 10.63
5/8/2021 4:30:00 AM 13.45 56.21 135 7.31 2.92 10.62
5/8/2021 4:45:00 AM 13.42 56.156 136 7.31 2.98 10.61
5/8/2021 5:00:00 AM 13.4 56.12 136 7.31 2.8 10.59
5/8/2021 5:15:00 AM 13.38 56.084 136 7.3 2.55 10.58
5/8/2021 5:30:00 AM 13.35 56.03 137 7.3 2.73 10.57
5/8/2021 5:45:00 AM 13.32 55.976 137 7.3 2.59 10.56
5/8/2021 6:00:00 AM 13.3 55.94 137 7.29 2.64 10.55
5/8/2021 6:15:00 AM 13.28 55.904 138 7.29 2.53 10.55
5/8/2021 6:30:00 AM 13.27 55.886 138 7.29 2.54 10.54
5/8/2021 6:45:00 AM 13.25 55.85 139 7.29 2.67 10.54
5/8/2021 7:00:00 AM 13.23 55.814 139 7.29 2.67 10.55
5/8/2021 7:15:00 AM 13.22 55.796 139 7.29 2.69 10.55
5/8/2021 7:30:00 AM 13.21 55.778 139 7.29 2.73 10.56
5/8/2021 7:45:00 AM 13.19 55.742 140 7.29 2.64 10.57
5/8/2021 8:00:00 AM 13.19 55.742 140 7.3 2.83 10.57
5/8/2021 8:15:00 AM 13.19 55.742 140 7.3 2.92 10.58
5/8/2021 8:30:00 AM 13.19 55.742 141 7.3 2.52 10.6
5/8/2021 8:45:00 AM 13.2 55.76 141 7.3 2.66 10.61
5/8/2021 9:00:00 AM 13.21 55.778 141 7.31 2.68 10.62
5/8/2021 9:15:00 AM 13.22 55.796 142 7.31 2.84 10.63
5/8/2021 9:30:00 AM 13.23 55.814 142 7.31 3.01 10.64
5/8/2021 9:45:00 AM 13.25 55.85 142 7.32 3.06 10.65
5/8/2021 10:00:00 AM 13.25 55.85 143 7.32 2.76 10.66
5/8/2021 10:15:00 AM 13.28 55.904 143 7.32 2.71 10.68
5/8/2021 10:30:00 AM 13.33 55.994 143 7.33 2.58 10.7
5/8/2021 10:45:00 AM 13.37 56.066 143 7.33 2.73 10.71
5/8/2021 11:00:00 AM 13.41 56.138 144 7.34 3.05 10.71
5/8/2021 11:15:00 AM 13.44 56.192 144 7.34 2.99 10.74
5/8/2021 11:30:00 AM 13.43 56.174 144 7.35 2.79 10.75
5/8/2021 11:45:00 AM 13.46 56.228 144 7.35 3.1 10.75
5/8/2021 12:00:00 PM 13.91 57.038 144 7.35 1.73 10.78
5/8/2021 12:15:00 PM 13.64 56.552 144 7.32 2.35 10.79
5/8/2021 12:30:00 PM 13.52 56.336 145 7.35 3.1 10.81
5/8/2021 12:45:00 PM 13.54 56.372 145 7.37 3.16 10.83
5/8/2021 1:00:00 PM 13.57 56.426 145 7.37 2.98 10.84
5/8/2021 1:15:00 PM 13.63 56.534 145 7.37 2.81 10.85
5/8/2021 1:30:00 PM 13.67 56.606 145 7.38 3.09 10.87
5/8/2021 1:45:00 PM 13.68 56.624 145 7.38 3.04 10.87
5/8/2021 2:00:00 PM 13.69 56.642 145 7.38 3.16 10.88
5/8/2021 2:15:00 PM 13.68 56.624 145 7.39 2.93 10.89
5/8/2021 2:30:00 PM 13.66 56.588 145 7.39 3.14 10.9
5/8/2021 2:45:00 PM 13.63 56.534 145 7.39 2.89 10.91
5/8/2021 3:00:00 PM 13.63 56.534 145 7.4 3.26 10.92
5/8/2021 3:15:00 PM 13.67 56.606 146 7.4 3.07 10.94
5/8/2021 3:30:00 PM 13.71 56.678 146 7.41 2.88 10.97
5/8/2021 3:45:00 PM 13.77 56.786 146 7.41 2.96 10.99
5/8/2021 4:00:00 PM 13.82 56.876 146 7.42 3.38 11.01
5/8/2021 4:15:00 PM 13.84 56.912 146 7.42 3.19 11.02
5/8/2021 4:30:00 PM 13.85 56.93 146 7.43 2.92 11.05
5/8/2021 4:45:00 PM 13.85 56.93 146 7.44 3.23 11.06
5/8/2021 5:00:00 PM 13.81 56.858 146 7.44 3.38 11.07
5/8/2021 5:15:00 PM 13.77 56.786 146 7.44 3.09 11.07
5/8/2021 5:30:00 PM 13.75 56.75 146 7.44 3.27 11.08
5/8/2021 5:45:00 PM 13.71 56.678 146 7.44 3.42 11.09
5/8/2021 6:00:00 PM 13.65 56.57 146 7.44 3.11 11.08
5/8/2021 6:15:00 PM 13.6 56.48 146 7.44 2.96 11.08
5/8/2021 6:30:00 PM 13.56 56.408 145 7.44 2.97 11.08
5/8/2021 6:45:00 PM 13.52 56.336 145 7.44 3.25 11.09
5/8/2021 7:00:00 PM 13.49 56.282 145 7.44 3.32 11.09
5/8/2021 7:15:00 PM 13.46 56.228 145 7.44 2.93 11.11
5/8/2021 7:30:00 PM 13.44 56.192 145 7.44 2.76 11.11
5/8/2021 7:45:00 PM 13.4 56.12 145 7.43 3.17 11.1
5/8/2021 8:00:00 PM 13.34 56.012 145 7.43 3.11 11.09
5/8/2021 8:15:00 PM 13.29 55.922 145 7.43 2.88 11.1
5/8/2021 8:30:00 PM 13.24 55.832 145 7.43 2.87 11.1
5/8/2021 8:45:00 PM 13.2 55.76 145 7.42 3.04 11.1
5/8/2021 9:00:00 PM 13.15 55.67 145 7.42 2.81 11.1
5/8/2021 9:15:00 PM 13.1 55.58 145 7.42 2.89 11.1
5/8/2021 9:30:00 PM 13.06 55.508 145 7.42 2.93 11.1
5/8/2021 9:45:00 PM 13 55.4 145 7.42 3.06 11.1
5/8/2021 10:00:00 PM 12.95 55.31 144 7.42 2.8 11.09
5/8/2021 10:15:00 PM 12.91 55.238 145 7.41 2.86 11.1
5/8/2021 10:30:00 PM 12.86 55.148 144 7.41 2.72 11.1
5/8/2021 10:45:00 PM 12.83 55.094 144 7.41 3.32 11.1
5/8/2021 11:00:00 PM 12.8 55.04 144 7.41 2.56 11.1
5/8/2021 11:15:00 PM 12.77 54.986 144 7.41 2.95 11.1
5/8/2021 11:30:00 PM 12.74 54.932 144 7.4 2.92 11.09
5/8/2021 11:45:00 PM 12.72 54.896 144 7.4 3.05 11.09
5/9/2021 12:00:00 AM 12.7 54.86 144 7.4 2.76 11.08
5/9/2021 12:15:00 AM 12.68 54.824 144 7.4 2.56 11.07
5/9/2021 12:30:00 AM 12.67 54.806 144 7.39 2.86 11.08
5/9/2021 12:45:00 AM 12.66 54.788 144 7.39 2.62 11.06
5/9/2021 1:00:00 AM 12.64 54.752 144 7.39 2.93 11.06
5/9/2021 1:15:00 AM 12.62 54.716 144 7.39 2.79 11.05
5/9/2021 1:30:00 AM 12.6 54.68 144 7.39 2.67 11.05
5/9/2021 1:45:00 AM 13.1 55.58 145 7.39 2.08 10.92
5/9/2021 2:00:00 AM 12.88 55.184 146 7.34 2.14 11.03
5/9/2021 2:15:00 AM 12.6 54.68 144 7.37 2.54 11.03
5/9/2021 2:30:00 AM 12.53 54.554 144 7.37 2.73 11.03
5/9/2021 2:45:00 AM 12.48 54.464 144 7.37 2.5 11.02
5/9/2021 3:00:00 AM 12.45 54.41 144 7.36 2.57 11.01
5/9/2021 3:15:00 AM 12.42 54.356 144 7.36 2.55 11
5/9/2021 3:30:00 AM 12.39 54.302 144 7.36 2.46 11
5/9/2021 3:45:00 AM 12.37 54.266 144 7.36 2.68 10.99
5/9/2021 4:00:00 AM 12.34 54.212 144 7.36 2.52 10.97
5/9/2021 4:15:00 AM 12.3 54.14 144 7.35 2.55 10.96
5/9/2021 4:30:00 AM 12.27 54.086 144 7.35 2.98 10.95
5/9/2021 4:45:00 AM 12.23 54.014 144 7.34 2.67 10.94
5/9/2021 5:00:00 AM 12.21 53.978 144 7.34 2.67 10.93
5/9/2021 5:15:00 AM 12.18 53.924 144 7.34 2.6 10.92
5/9/2021 5:30:00 AM 12.15 53.87 144 7.33 2.61 10.91
5/9/2021 5:45:00 AM 12.13 53.834 144 7.33 2.58 10.91
5/9/2021 6:00:00 AM 12.1 53.78 144 7.33 2.71 10.9
5/9/2021 6:15:00 AM 12.07 53.726 144 7.32 2.68 10.9
5/9/2021 6:30:00 AM 12.04 53.672 144 7.32 2.55 10.9
5/9/2021 6:45:00 AM 12.02 53.636 144 7.32 2.54 10.9
5/9/2021 7:00:00 AM 12 53.6 144 7.32 2.84 10.9
5/9/2021 7:15:00 AM 11.99 53.582 144 7.32 2.56 10.91
5/9/2021 7:30:00 AM 11.97 53.546 144 7.32 2.72 10.92
5/9/2021 7:45:00 AM 11.96 53.528 144 7.33 2.67 10.93
5/9/2021 8:00:00 AM 11.95 53.51 144 7.33 2.58 10.94
5/9/2021 8:15:00 AM 11.94 53.492 143 7.33 2.36 10.96
5/9/2021 8:30:00 AM 11.94 53.492 143 7.33 2.58 10.97
5/9/2021 8:45:00 AM 11.94 53.492 143 7.33 2.58 10.99
5/9/2021 9:00:00 AM 11.94 53.492 143 7.34 2.69 11
5/9/2021 9:15:00 AM 11.94 53.492 143 7.34 2.59 11.02
5/9/2021 9:30:00 AM 11.94 53.492 143 7.34 2.66 11.03
5/9/2021 9:45:00 AM 11.95 53.51 143 7.35 2.95 11.05
5/9/2021 10:00:00 AM 11.95 53.51 143 7.35 2.67 11.06
5/9/2021 10:15:00 AM 11.95 53.51 143 7.35 2.6 11.09
5/9/2021 10:30:00 AM 11.96 53.528 143 7.36 2.81 11.1
5/9/2021 10:45:00 AM 11.97 53.546 143 7.36 2.8 11.12
5/9/2021 11:00:00 AM 11.97 53.546 143 7.37 2.63 11.13
5/9/2021 11:15:00 AM 11.98 53.564 143 7.37 2.75 11.15
5/9/2021 11:30:00 AM 11.99 53.582 143 7.37 2.7 11.18
5/9/2021 11:45:00 AM 11.98 53.564 143 7.38 2.62 11.18
5/9/2021 12:00:00 PM 11.98 53.564 143 7.38 2.74 11.19
5/9/2021 12:15:00 PM 11.98 53.564 143 7.38 2.66 11.21
5/9/2021 12:30:00 PM 11.98 53.564 143 7.39 3.65 11.22
5/9/2021 12:45:00 PM 11.98 53.564 143 7.39 2.67 11.23
5/9/2021 1:00:00 PM 11.97 53.546 142 7.39 2.67 11.23
5/9/2021 1:15:00 PM 11.96 53.528 142 7.39 2.61 11.25
5/9/2021 1:30:00 PM 11.94 53.492 142 7.4 2.72 11.27
5/9/2021 1:45:00 PM 11.93 53.474 142 7.4 2.43 11.27
5/9/2021 2:00:00 PM 11.91 53.438 142 7.4 2.54 11.29
5/9/2021 2:15:00 PM 11.9 53.42 142 7.4 2.65 11.3
5/9/2021 2:30:00 PM 11.9 53.42 142 7.41 2.76 11.31
5/9/2021 2:45:00 PM 11.89 53.402 142 7.41 2.6 11.32
5/9/2021 3:00:00 PM 11.88 53.384 142 7.41 2.58 11.34
5/9/2021 3:15:00 PM 11.86 53.348 142 7.41 2.4 11.34
5/9/2021 3:30:00 PM 11.84 53.312 142 7.42 2.42 11.35
5/9/2021 3:45:00 PM 11.82 53.276 142 7.42 2.74 11.36
5/9/2021 4:00:00 PM 11.8 53.24 142 7.42 2.42 11.37
5/9/2021 4:15:00 PM 11.77 53.186 141 7.42 2.64 11.39
5/9/2021 4:30:00 PM 11.75 53.15 141 7.42 2.84 11.39
5/9/2021 4:45:00 PM 11.73 53.114 141 7.42 2.65 11.4
5/9/2021 5:00:00 PM 11.71 53.078 142 7.42 2.5 11.4
5/9/2021 5:15:00 PM 11.68 53.024 142 7.42 2.57 11.41
5/9/2021 5:30:00 PM 12.14 53.852 146 7.41 2 11.18
5/9/2021 5:45:00 PM 12.08 53.744 146 7.36 1.73 11.2
5/9/2021 6:00:00 PM 11.69 53.042 142 7.41 2.59 11.42
5/9/2021 6:15:00 PM 11.63 52.934 142 7.42 2.51 11.43
5/9/2021 6:30:00 PM 11.62 52.916 142 7.42 2.59 11.42
5/9/2021 6:45:00 PM 11.6 52.88 142 7.43 2.67 11.44
5/9/2021 7:00:00 PM 11.59 52.862 142 7.42 2.3 11.44
5/9/2021 7:15:00 PM 11.59 52.862 143 7.43 2.51 11.44
5/9/2021 7:30:00 PM 11.57 52.826 143 7.43 2.38 11.43
5/9/2021 7:45:00 PM 11.56 52.808 143 7.42 2.44 11.44
5/9/2021 8:00:00 PM 11.55 52.79 143 7.43 2.49 11.43
5/9/2021 8:15:00 PM 11.54 52.772 143 7.43 2.55 11.44
5/9/2021 8:30:00 PM 11.52 52.736 143 7.43 2.5 11.42
5/9/2021 8:45:00 PM 11.51 52.718 143 7.42 2.58 11.44
5/9/2021 9:00:00 PM 11.5 52.7 143 7.43 2.47 11.43
5/9/2021 9:15:00 PM 11.49 52.682 143 7.42 2.63 11.42
5/9/2021 9:30:00 PM 11.47 52.646 143 7.42 2.86 11.42
5/9/2021 9:45:00 PM 11.46 52.628 143 7.42 3.08 11.42
5/9/2021 10:00:00 PM 11.44 52.592 143 7.42 3.02 11.42
5/9/2021 10:15:00 PM 11.44 52.592 143 7.42 2.9 11.42
5/9/2021 10:30:00 PM 11.42 52.556 143 7.42 2.84 11.42
5/9/2021 10:45:00 PM 11.41 52.538 142 7.42 3.51 11.41
5/9/2021 11:00:00 PM 11.4 52.52 142 7.41 3.17 11.41
5/9/2021 11:15:00 PM 11.38 52.484 142 7.41 2.67 11.4
5/9/2021 11:30:00 PM 11.37 52.466 142 7.41 2.72 11.39
5/9/2021 11:45:00 PM 11.35 52.43 142 7.41 2.8 11.38
5/10/2021 12:00:00 AM 11.34 52.412 142 7.4 2.67 11.37
5/10/2021 12:15:00 AM 11.32 52.376 142 7.4 2.92 11.36
5/10/2021 12:30:00 AM 11.3 52.34 142 7.4 2.67 11.35
5/10/2021 12:45:00 AM 11.28 52.304 143 7.4 2.89 11.34
5/10/2021 1:00:00 AM 11.26 52.268 143 7.4 2.73 11.34
5/10/2021 1:15:00 AM 11.24 52.232 143 7.4 3.01 11.33
5/10/2021 1:30:00 AM 11.22 52.196 144 7.4 3.01 11.32
5/10/2021 1:45:00 AM 11.2 52.16 144 7.4 3 11.31
5/10/2021 2:00:00 AM 11.18 52.124 144 7.4 3.09 11.3
5/10/2021 2:15:00 AM 11.17 52.106 144 7.4 2.97 11.29
5/10/2021 2:30:00 AM 11.14 52.052 144 7.4 2.98 11.28
5/10/2021 2:45:00 AM 11.12 52.016 144 7.39 3.24 11.28
5/10/2021 3:00:00 AM 11.1 51.98 144 7.39 3.31 11.27
5/10/2021 3:15:00 AM 11.07 51.926 144 7.39 3.29 11.27
5/10/2021 3:30:00 AM 11.05 51.89 143 7.38 3.47 11.26
5/10/2021 3:45:00 AM 11.02 51.836 143 7.38 3.73 11.25
5/10/2021 4:00:00 AM 11 51.8 142 7.38 3.48 11.25
5/10/2021 4:15:00 AM 10.98 51.764 142 7.37 3.68 11.24
5/10/2021 4:30:00 AM 10.96 51.728 142 7.37 3.35 11.24
5/10/2021 4:45:00 AM 10.95 51.71 141 7.37 3.56 11.23
5/10/2021 5:00:00 AM 10.93 51.674 141 7.37 3.78 11.22
5/10/2021 5:15:00 AM 10.91 51.638 141 7.36 3.77 11.21
5/10/2021 5:30:00 AM 10.89 51.602 141 7.36 3.91 11.21
5/10/2021 5:45:00 AM 10.87 51.566 140 7.36 3.95 11.21
5/10/2021 6:00:00 AM 10.85 51.53 140 7.36 4.2 11.21
5/10/2021 6:15:00 AM 10.83 51.494 140 7.35 4.07 11.2
5/10/2021 6:30:00 AM 10.81 51.458 139 7.35 3.75 11.21
5/10/2021 6:45:00 AM 10.8 51.44 139 7.35 4.28 11.21
5/10/2021 7:00:00 AM 10.77 51.386 139 7.35 4.08 11.21
5/10/2021 7:15:00 AM 10.76 51.368 139 7.35 4.06 11.21
5/10/2021 7:30:00 AM 10.74 51.332 138 7.35 4.4 11.21
5/10/2021 7:45:00 AM 10.73 51.314 138 7.35 4.1 11.22
5/10/2021 8:00:00 AM 10.74 51.332 138 7.35 4.28 11.23
5/10/2021 8:15:00 AM 10.74 51.332 138 7.35 4.24 11.23
5/10/2021 8:30:00 AM 10.73 51.314 137 7.35 4.35 11.25
5/10/2021 8:45:00 AM 10.71 51.278 137 7.35 5.15 11.25
5/10/2021 9:00:00 AM 10.69 51.242 137 7.35 4.83 11.26
5/10/2021 9:15:00 AM 10.69 51.242 136 7.35 5.09 11.26
5/10/2021 9:30:00 AM 10.69 51.242 136 7.35 5.1 11.27
5/10/2021 9:45:00 AM 10.69 51.242 135 7.35 4.7 11.29
5/10/2021 10:00:00 AM 10.7 51.26 135 7.35 5.08 11.29
5/10/2021 10:15:00 AM 10.7 51.26 135 7.35 5.31 11.31
5/10/2021 10:30:00 AM 10.71 51.278 134 7.36 5.1 11.33
5/10/2021 10:45:00 AM 11.13 52.034 140 7.41 4.3 11.37
5/10/2021 11:00:00 AM 11.2 52.16 141 7.33 3.28 11.3
5/10/2021 11:15:00 AM 10.98 51.764 135 7.35 4.95 11.37
5/10/2021 11:30:00 AM 10.95 51.71 132 7.36 5.17 11.39
5/10/2021 11:45:00 AM 10.98 51.764 132 7.37 5.45 11.41
5/10/2021 12:00:00 PM 11 51.8 131 7.37 5.78 11.42
5/10/2021 12:15:00 PM 11.05 51.89 131 7.37 5.61 11.43
5/10/2021 12:30:00 PM 11.09 51.962 130 7.37 5.54 11.44
5/10/2021 12:45:00 PM 11.11 51.998 130 7.37 6.14 11.45
5/10/2021 1:00:00 PM 11.13 52.034 129 7.37 6.21 11.45
5/10/2021 1:15:00 PM 11.18 52.124 129 7.37 5.85 11.46
5/10/2021 1:30:00 PM 11.17 52.106 128 7.37 5.67 11.47
5/10/2021 1:45:00 PM 11.19 52.142 128 7.37 6.78 11.48
5/10/2021 2:00:00 PM 11.24 52.232 127 7.37 6.42 11.5
5/10/2021 2:15:00 PM 11.3 52.34 126 7.37 6.87 11.51
5/10/2021 2:30:00 PM 11.29 52.322 126 7.37 6.59 11.52
5/10/2021 2:45:00 PM 11.26 52.268 126 7.37 7.15 11.53
5/10/2021 3:00:00 PM 11.28 52.304 125 7.37 7.66 11.54
5/10/2021 3:15:00 PM 11.34 52.412 125 7.36 7.86 11.55
5/10/2021 3:30:00 PM 11.39 52.502 124 7.37 7.62 11.56
5/10/2021 3:45:00 PM 11.4 52.52 123 7.37 8.11 11.57
5/10/2021 4:00:00 PM 11.37 52.466 123 7.36 8.06 11.57
5/10/2021 4:15:00 PM 11.35 52.43 122 7.36 8.39 11.57
5/10/2021 4:30:00 PM 11.35 52.43 121 7.36 7.65 11.58
5/10/2021 4:45:00 PM 11.35 52.43 121 7.35 8.29 11.6
5/10/2021 5:00:00 PM 11.35 52.43 120 7.35 8.8 11.6
5/10/2021 5:15:00 PM 11.38 52.484 119 7.35 9.37 11.6
5/10/2021 5:30:00 PM 11.36 52.448 118 7.35 8.99 11.62
5/10/2021 5:45:00 PM 11.61 52.898 128 7.41 4.59 11.59
5/10/2021 6:00:00 PM 11.63 52.934 133 7.34 4.85 11.52
5/10/2021 6:15:00 PM 11.25 52.25 118 7.34 10.15 11.61
5/10/2021 6:30:00 PM 11.15 52.07 115 7.34 11.45 11.64
5/10/2021 6:45:00 PM 11.13 52.034 114 7.33 10.23 11.65
5/10/2021 7:00:00 PM 11.14 52.052 114 7.33 7.62 11.65
5/10/2021 7:15:00 PM 11.14 52.052 113 7.33 9.88 11.65
5/10/2021 7:30:00 PM 11.12 52.016 113 7.32 10.39 11.65
5/10/2021 7:45:00 PM 11.1 51.98 112 7.32 11.54 11.66
5/10/2021 8:00:00 PM 11.07 51.926 112 7.31 10.76 11.65
5/10/2021 8:15:00 PM 11.06 51.908 111 7.31 11.48 11.65
5/10/2021 8:30:00 PM 11.05 51.89 111 7.31 11.36 11.65
5/10/2021 8:45:00 PM 11.02 51.836 111 7.3 13.41 11.64
5/10/2021 9:00:00 PM 10.98 51.764 111 7.3 11.5 11.63
5/10/2021 9:15:00 PM 10.93 51.674 111 7.3 12.59 11.63
5/10/2021 9:30:00 PM 10.9 51.62 111 7.29 12.12 11.62
5/10/2021 9:45:00 PM 10.86 51.548 111 7.29 13.5 11.61
5/10/2021 10:00:00 PM 10.83 51.494 111 7.28 13.52 11.61
5/10/2021 10:15:00 PM 10.79 51.422 111 7.28 15.91 11.6
5/10/2021 10:30:00 PM 10.76 51.368 111 7.28 14.27 11.58
5/10/2021 10:45:00 PM 10.73 51.314 112 7.27 14.98 11.58
5/10/2021 11:00:00 PM 10.69 51.242 112 7.27 15.57 11.56
5/10/2021 11:15:00 PM 10.67 51.206 112 7.26 15.64 11.55
5/10/2021 11:30:00 PM 10.64 51.152 112 7.26 13.32 11.54
5/10/2021 11:45:00 PM 10.63 51.134 113 7.26 24.38 11.53
5/11/2021 12:00:00 AM 10.62 51.116 113 7.25 17.39 11.53
5/11/2021 12:15:00 AM 10.61 51.098 113 7.25 21.93 11.52
5/11/2021 12:30:00 AM 10.59 51.062 113 7.25 15.29 11.52
5/11/2021 12:45:00 AM 10.57 51.026 113 7.24 15.46 11.51
5/11/2021 1:00:00 AM 10.53 50.954 113 7.24 19.08 11.53
5/11/2021 1:15:00 AM 10.5 50.9 114 7.24 12.56 11.5
5/11/2021 1:30:00 AM 10.45 50.81 113 7.23 23.12 11.51
5/11/2021 1:45:00 AM 10.41 50.738 113 7.23 18.9 11.5
5/11/2021 2:00:00 AM 10.37 50.666 113 7.22 11.07 11.52
5/11/2021 2:15:00 AM 10.32 50.576 113 7.22 22.78 11.52
5/11/2021 2:30:00 AM 10.28 50.504 113 7.21 12.83 11.52
5/11/2021 2:45:00 AM 10.25 50.45 112 7.21 14.43 11.52
5/11/2021 3:00:00 AM 10.22 50.396 112 7.2 16.6 11.53
5/11/2021 3:15:00 AM 10.19 50.342 112 7.2 17.27 11.52
5/11/2021 3:30:00 AM 10.16 50.288 111 7.19 16.32 11.53
5/11/2021 3:45:00 AM 10.13 50.234 111 7.19 19.71 11.52
5/11/2021 4:00:00 AM 10.1 50.18 111 7.19 23.51 11.52
5/11/2021 4:15:00 AM 10.07 50.126 111 7.18 24.87 11.52
5/11/2021 4:30:00 AM 10.04 50.072 111 7.18 26.71 11.52
5/11/2021 4:45:00 AM 10.03 50.054 111 7.17 14.46 11.52
5/11/2021 5:00:00 AM 9.97 49.946 111 7.16 22.11 11.52
5/11/2021 5:15:00 AM 9.95 49.91 110 7.16 20.89 11.52
5/11/2021 5:30:00 AM 9.92 49.856 110 7.15 24.87 11.51
5/11/2021 5:45:00 AM 9.9 49.82 110 7.15 19.7 11.51
5/11/2021 6:00:00 AM 9.87 49.766 110 7.14 22.57 11.5
5/11/2021 6:15:00 AM 9.86 49.748 110 7.13 18.59 11.51
5/11/2021 6:30:00 AM 9.84 49.712 109 7.13 19.04 11.51
5/11/2021 6:45:00 AM 9.83 49.694 109 7.12 19.23 11.51
5/11/2021 7:00:00 AM 9.81 49.658 109 7.11 22.07 11.51
5/11/2021 7:15:00 AM 9.8 49.64 108 7.1 19.11 11.51
5/11/2021 7:30:00 AM 9.8 49.64 108 7.1 24.76 11.51
5/11/2021 7:45:00 AM 9.81 49.658 107 7.09 16.8 11.51
5/11/2021 8:00:00 AM 9.8 49.64 106 7.08 25.85 11.51
5/11/2021 8:15:00 AM 9.8 49.64 106 7.08 25.98 11.51
5/11/2021 8:30:00 AM 10.04 50.072 112 7.13 15.92 11.55
5/11/2021 8:45:00 AM 10.08 50.144 110 7.13 20.81 11.57
5/11/2021 9:00:00 AM 10.1 50.18 110 7.11 13.61 11.56
5/11/2021 9:15:00 AM 9.87 49.766 104 7.06 20.38 11.52
5/11/2021 9:30:00 AM 9.85 49.73 103 7.05 14.34 11.51
5/11/2021 9:45:00 AM 10.52 50.936 119 7.2 11.95 11.6
5/11/2021 10:00:00 AM 10.01 50.018 105 7.08 15.33 11.54
5/11/2021 10:15:00 AM 9.9 49.82 102 7.05 11.18 11.52
5/11/2021 10:30:00 AM 9.87 49.766 100 7.03 14.76 11.52
5/11/2021 10:45:00 AM 9.86 49.748 99 7.03 18.25 11.52
5/11/2021 11:00:00 AM 9.86 49.748 98 7.02 15.87 11.53
5/11/2021 11:15:00 AM 9.88 49.784 98 7.02 20.75 11.53
5/11/2021 11:30:00 AM 9.88 49.784 97 7.02 18.2 11.53
5/11/2021 11:45:00 AM 9.88 49.784 97 7.02 16.17 11.54
5/11/2021 12:00:00 PM 9.89 49.802 97 7.01 21.77 11.54
5/11/2021 12:15:00 PM 9.87 49.766 97 7.01 24.41 11.55
5/11/2021 12:30:00 PM 9.86 49.748 96 7.01 16.47 11.55
5/11/2021 12:45:00 PM 9.87 49.766 96 7.01 25.18 11.54
5/11/2021 1:00:00 PM 9.88 49.784 96 7.01 15.29 11.55
5/11/2021 1:15:00 PM 9.86 49.748 96 7 25.02 11.55
5/11/2021 1:30:00 PM 9.86 49.748 96 7 24.47 11.55
5/11/2021 1:45:00 PM 9.87 49.766 96 7 25.61 11.55
5/11/2021 2:00:00 PM 9.88 49.784 96 7 29.21 11.55
5/11/2021 2:15:00 PM 9.9 49.82 96 7.01 19.5 11.55
5/11/2021 2:30:00 PM 9.93 49.874 96 7 32.54 11.55
5/11/2021 2:45:00 PM 9.97 49.946 95 7 28.06 11.54
5/11/2021 3:00:00 PM 9.99 49.982 95 7 28.12 11.54
5/11/2021 3:15:00 PM 10.02 50.036 95 7 28.39 11.54
5/11/2021 3:30:00 PM 10.07 50.126 96 7 31.42 11.54
5/11/2021 3:45:00 PM 10.09 50.162 95 7 27.02 11.54
5/11/2021 4:00:00 PM 10.07 50.126 96 7 27.72 11.55
5/11/2021 4:15:00 PM 10.04 50.072 96 7 29.96 11.55
5/11/2021 4:30:00 PM 10.04 50.072 96 7 22.96 11.54
5/11/2021 4:45:00 PM 10.05 50.09 96 7 21.43 11.54
5/11/2021 5:00:00 PM 10.38 50.684 114 7.13 15.52 11.6
5/11/2021 5:15:00 PM 10.46 50.828 113 7.13 14.07 11.65
5/11/2021 5:30:00 PM 10.13 50.234 98 7.01 25.74 11.57
5/11/2021 5:45:00 PM 10.09 50.162 97 7 26.14 11.56
5/11/2021 6:00:00 PM 10.09 50.162 97 7 28.49 11.56
5/11/2021 6:15:00 PM 10.1 50.18 97 7 24.44 11.56
5/11/2021 6:30:00 PM 10.1 50.18 97 7.01 24.88 11.55
5/11/2021 6:45:00 PM 10.09 50.162 97 7.01 25.95 11.56
5/11/2021 7:00:00 PM 10.07 50.126 97 7.01 23.61 11.56
5/11/2021 7:15:00 PM 10.05 50.09 97 7.01 25.82 11.56
5/11/2021 7:30:00 PM 10.04 50.072 98 7.02 25.3 11.55
5/11/2021 7:45:00 PM 10.01 50.018 98 7.02 25.89 11.56
5/11/2021 8:00:00 PM 9.99 49.982 98 7.02 26.85 11.56
5/11/2021 8:15:00 PM 9.98 49.964 98 7.02 27.43 11.56
5/11/2021 8:30:00 PM 9.97 49.946 98 7.02 24.47 11.57
5/11/2021 8:45:00 PM 9.96 49.928 98 7.02 25.79 11.56
5/11/2021 9:00:00 PM 9.96 49.928 99 7.03 26.05 11.55
5/11/2021 9:15:00 PM 9.95 49.91 99 7.03 25.49 11.56
5/11/2021 9:30:00 PM 9.94 49.892 99 7.03 24.69 11.56
5/11/2021 9:45:00 PM 9.93 49.874 99 7.03 24.52 11.56
5/11/2021 10:00:00 PM 9.92 49.856 99 7.03 23.52 11.56
5/11/2021 10:15:00 PM 9.91 49.838 99 7.04 23.97 11.55
5/11/2021 10:30:00 PM 9.9 49.82 99 7.04 24.83 11.56
5/11/2021 10:45:00 PM 9.89 49.802 99 7.04 24.38 11.56
5/11/2021 11:00:00 PM 9.88 49.784 99 7.04 24.15 11.55
5/11/2021 11:15:00 PM 9.87 49.766 100 7.04 23.96 11.55
5/11/2021 11:30:00 PM 9.86 49.748 100 7.05 23.5 11.56
5/11/2021 11:45:00 PM 9.86 49.748 100 7.05 26.3 11.55
5/12/2021 12:00:00 AM 9.86 49.748 100 7.05 23.77 11.55
5/12/2021 12:15:00 AM 9.85 49.73 100 7.05 24.65 11.55
5/12/2021 12:30:00 AM 9.85 49.73 100 7.05 22.43 11.55
5/12/2021 12:45:00 AM 9.84 49.712 100 7.05 22.59 11.55
5/12/2021 1:00:00 AM 9.84 49.712 100 7.06 24.29 11.55
5/12/2021 1:15:00 AM 9.83 49.694 100 7.05 18.74 11.55
5/12/2021 1:30:00 AM 9.82 49.676 100 7.06 21.31 11.55
5/12/2021 1:45:00 AM 9.82 49.676 99 7.06 22.35 11.55
5/12/2021 2:00:00 AM 9.81 49.658 99 7.06 23.73 11.55
5/12/2021 2:15:00 AM 9.8 49.64 99 7.06 23.08 11.55
5/12/2021 2:30:00 AM 9.79 49.622 99 7.06 23.96 11.56
5/12/2021 2:45:00 AM 9.78 49.604 99 7.06 23.22 11.55
5/12/2021 3:00:00 AM 9.77 49.586 99 7.06 24.39 11.55
5/12/2021 3:15:00 AM 9.75 49.55 99 7.06 22.23 11.55
5/12/2021 3:30:00 AM 9.74 49.532 99 7.06 23.84 11.55
5/12/2021 3:45:00 AM 9.72 49.496 99 7.06 23.37 11.56
5/12/2021 4:00:00 AM 9.71 49.478 98 7.06 22.3 11.56
5/12/2021 4:15:00 AM 9.69 49.442 98 7.06 23.95 11.55
5/12/2021 4:30:00 AM 9.68 49.424 98 7.06 22.66 11.56
5/12/2021 4:45:00 AM 9.66 49.388 98 7.06 22.89 11.56
5/12/2021 5:00:00 AM 9.65 49.37 98 7.06 21.85 11.56
5/12/2021 5:15:00 AM 9.64 49.352 98 7.06 22.33 11.56
5/12/2021 5:30:00 AM 9.63 49.334 98 7.06 22.25 11.56
5/12/2021 5:45:00 AM 9.61 49.298 98 7.06 20.14 11.56
5/12/2021 6:00:00 AM 9.6 49.28 98 7.06 21.67 11.56
5/12/2021 6:15:00 AM 9.59 49.262 98 7.06 20.89 11.56
5/12/2021 6:30:00 AM 9.58 49.244 98 7.06 22.95 11.57
5/12/2021 6:45:00 AM 9.57 49.226 98 7.06 24.29 11.57
5/12/2021 7:00:00 AM 9.57 49.226 101 7.06 19.78 11.57
5/12/2021 7:15:00 AM 9.59 49.262 99 7.07 20.83 11.57
5/12/2021 7:30:00 AM 9.58 49.244 98 7.06 21.99 11.57
5/12/2021 7:45:00 AM 9.58 49.244 99 7.06 18.62 11.56
5/12/2021 8:00:00 AM 9.6 49.28 99 7.07 18.5 11.57
5/12/2021 8:15:00 AM 9.62 49.316 99 7.07 20.03 11.57
5/12/2021 8:30:00 AM 9.65 49.37 99 7.07 19.83 11.57
5/12/2021 8:45:00 AM 9.67 49.406 99 7.07 18.94 11.57
5/12/2021 9:00:00 AM 9.7 49.46 99 7.07 18.66 11.57
5/12/2021 9:15:00 AM 9.73 49.514 99 7.07 19.23 11.57
5/12/2021 9:30:00 AM 9.76 49.568 99 7.07 19.07 11.58
5/12/2021 9:45:00 AM 9.79 49.622 99 7.07 17 11.57
5/12/2021 10:00:00 AM 10.1 50.18 112 7.17 12.4 11.75
5/12/2021 10:15:00 AM 10.32 50.576 116 7.06 8.6 11.79
5/12/2021 10:30:00 AM 10.02 50.036 102 7.06 15.49 11.64
5/12/2021 10:45:00 AM 9.99 49.982 99 7.07 17.8 11.59
5/12/2021 11:00:00 AM 10.03 50.054 99 7.08 18.78 11.58
5/12/2021 11:15:00 AM 10.08 50.144 99 7.08 17.67 11.58
5/12/2021 11:30:00 AM 10.13 50.234 99 7.08 18.78 11.58
5/12/2021 11:45:00 AM 10.18 50.324 99 7.08 19.07 11.58
5/12/2021 12:00:00 PM 10.23 50.414 99 7.09 17.26 11.58
5/12/2021 12:15:00 PM 10.28 50.504 99 7.09 16.14 11.58
5/12/2021 12:30:00 PM 10.31 50.558 100 7.09 21.76 11.59
5/12/2021 12:45:00 PM 10.35 50.63 100 7.09 16.84 11.59
5/12/2021 1:00:00 PM 10.42 50.756 99 7.09 20.85 11.58
5/12/2021 1:15:00 PM 10.45 50.81 99 7.09 17.63 11.59
5/12/2021 1:30:00 PM 10.5 50.9 99 7.09 18.28 11.59
5/12/2021 1:45:00 PM 10.51 50.918 99 7.1 18.24 11.58
5/12/2021 2:00:00 PM 10.53 50.954 99 7.1 18.24 11.58
5/12/2021 2:15:00 PM 10.55 50.99 99 7.1 17.44 11.59
5/12/2021 2:30:00 PM 10.58 51.044 99 7.1 17.7 11.59
5/12/2021 2:45:00 PM 10.63 51.134 99 7.1 18.01 11.59
5/12/2021 3:00:00 PM 10.67 51.206 99 7.1 18.71 11.6
5/12/2021 3:15:00 PM 10.69 51.242 99 7.1 17.97 11.59
5/12/2021 3:30:00 PM 10.71 51.278 99 7.1 16.79 11.6
5/12/2021 3:45:00 PM 10.75 51.35 99 7.1 16.79 11.59
5/12/2021 4:00:00 PM 10.78 51.404 99 7.1 17.46 11.6
5/12/2021 4:15:00 PM 10.8 51.44 99 7.1 15.74 11.59
5/12/2021 4:30:00 PM 10.82 51.476 99 7.1 16.47 11.6
5/12/2021 4:45:00 PM 10.82 51.476 99 7.1 16.93 11.6
5/12/2021 5:00:00 PM 10.81 51.458 99 7.11 17.6 11.6
5/12/2021 5:15:00 PM 10.78 51.404 99 7.1 14.91 11.6
5/12/2021 5:30:00 PM 10.75 51.35 99 7.11 15.31 11.61
5/12/2021 5:45:00 PM 10.74 51.332 98 7.11 13.23 11.6
5/12/2021 6:00:00 PM 10.74 51.332 98 7.11 16.11 11.61
5/12/2021 6:15:00 PM 10.75 51.35 98 7.11 16.28 11.6
5/12/2021 6:30:00 PM 10.76 51.368 98 7.11 15.8 11.6
5/12/2021 6:45:00 PM 10.76 51.368 98 7.11 15.55 11.6
5/12/2021 7:00:00 PM 10.75 51.35 98 7.11 15.51 11.6
5/12/2021 7:15:00 PM 10.75 51.35 98 7.11 14.33 11.59
5/12/2021 7:30:00 PM 10.95 51.71 110 7.2 9.84 11.71
5/12/2021 7:45:00 PM 10.85 51.53 112 7.05 6.94 11.75
5/12/2021 8:00:00 PM 10.76 51.368 100 7.09 13.67 11.62
5/12/2021 8:15:00 PM 10.75 51.35 98 7.11 15.15 11.59
5/12/2021 8:30:00 PM 10.74 51.332 98 7.11 15.46 11.59
5/12/2021 8:45:00 PM 10.75 51.35 98 7.11 15.14 11.59
5/12/2021 9:00:00 PM 10.76 51.368 98 7.11 14.43 11.58
5/12/2021 9:15:00 PM 10.76 51.368 98 7.11 14.24 11.59
5/12/2021 9:30:00 PM 10.75 51.35 98 7.11 14.69 11.59
5/12/2021 9:45:00 PM 10.74 51.332 98 7.11 14.95 11.58
5/12/2021 10:00:00 PM 10.73 51.314 98 7.12 14.31 11.58
5/12/2021 10:15:00 PM 10.71 51.278 98 7.12 14.51 11.58
5/12/2021 10:30:00 PM 10.69 51.242 98 7.12 14.44 11.58
5/12/2021 10:45:00 PM 10.67 51.206 98 7.12 13.81 11.57
5/12/2021 11:00:00 PM 10.65 51.17 97 7.12 12.45 11.57
5/12/2021 11:15:00 PM 10.62 51.116 97 7.11 13.59 11.58
5/12/2021 11:30:00 PM 10.61 51.098 97 7.11 13.13 11.58
5/12/2021 11:45:00 PM 10.59 51.062 97 7.11 14.27 11.58
5/13/2021 12:00:00 AM 10.57 51.026 97 7.11 14.44 11.58
5/13/2021 12:15:00 AM 10.56 51.008 97 7.12 13.21 11.58
5/13/2021 12:30:00 AM 10.54 50.972 97 7.11 13.72 11.57
5/13/2021 12:45:00 AM 10.52 50.936 97 7.11 13.76 11.58
5/13/2021 1:00:00 AM 10.5 50.9 97 7.11 14.21 11.58
5/13/2021 1:15:00 AM 10.49 50.882 97 7.11 13.9 11.57
5/13/2021 1:30:00 AM 10.47 50.846 96 7.11 14.01 11.58
5/13/2021 1:45:00 AM 10.45 50.81 96 7.11 12.87 11.57
5/13/2021 2:00:00 AM 10.43 50.774 96 7.11 14.08 11.57
5/13/2021 2:15:00 AM 10.42 50.756 96 7.11 14.31 11.58
5/13/2021 2:30:00 AM 10.4 50.72 96 7.11 13.23 11.57
5/13/2021 2:45:00 AM 10.37 50.666 96 7.11 13.11 11.57
5/13/2021 3:00:00 AM 10.35 50.63 96 7.11 13.78 11.57
5/13/2021 3:15:00 AM 10.32 50.576 96 7.11 13.68 11.57
5/13/2021 3:30:00 AM 10.3 50.54 96 7.11 12.45 11.57
5/13/2021 3:45:00 AM 10.28 50.504 96 7.11 12.96 11.57
5/13/2021 4:00:00 AM 10.26 50.468 96 7.11 13.69 11.57
5/13/2021 4:15:00 AM 10.24 50.432 95 7.11 12.76 11.57
5/13/2021 4:30:00 AM 10.22 50.396 95 7.11 13.31 11.57
5/13/2021 4:45:00 AM 10.2 50.36 95 7.1 13.69 11.57
5/13/2021 5:00:00 AM 10.19 50.342 95 7.1 12.99 11.57
5/13/2021 5:15:00 AM 10.17 50.306 95 7.1 11.98 11.57
5/13/2021 5:30:00 AM 10.15 50.27 95 7.1 13.26 11.58
5/13/2021 5:45:00 AM 10.13 50.234 95 7.1 12.84 11.58
5/13/2021 6:00:00 AM 10.12 50.216 95 7.1 13.3 11.58
5/13/2021 6:15:00 AM 10.1 50.18 95 7.1 12.57 11.58
5/13/2021 6:30:00 AM 10.09 50.162 95 7.1 12.18 11.59
5/13/2021 6:45:00 AM 10.08 50.144 95 7.11 13.36 11.59
5/13/2021 7:00:00 AM 10.08 50.144 95 7.11 13.26 11.59
5/13/2021 7:15:00 AM 10.17 50.306 97 7.11 13.1 11.59
5/13/2021 7:30:00 AM 10.37 50.666 106 7.14 10.82 11.63
5/13/2021 7:45:00 AM 10.53 50.954 114 7.15 7.55 11.65
5/13/2021 8:00:00 AM 10.16 50.288 98 7.12 11.48 11.61
5/13/2021 8:15:00 AM 10.1 50.18 96 7.11 13.45 11.6
5/13/2021 8:30:00 AM 10.11 50.198 96 7.11 13.67 11.61
5/13/2021 8:45:00 AM 10.12 50.216 96 7.11 13.27 11.61
5/13/2021 9:00:00 AM 10.14 50.252 96 7.11 12.24 11.62
5/13/2021 9:15:00 AM 10.17 50.306 96 7.11 12.89 11.62
5/13/2021 9:30:00 AM 10.54 50.972 107 7.14 9.61 11.65
5/13/2021 9:45:00 AM 10.27 50.486 97 7.12 11.63 11.62
5/13/2021 10:00:00 AM 10.3 50.54 97 7.13 11.2 11.63
5/13/2021 10:15:00 AM 10.31 50.558 96 7.12 12.47 11.63
5/13/2021 10:30:00 AM 10.36 50.648 96 7.12 11.8 11.63
5/13/2021 10:45:00 AM 10.41 50.738 96 7.12 11.82 11.65
5/13/2021 11:00:00 AM 10.68 51.224 111 7.26 7.88 11.77
5/13/2021 11:15:00 AM 10.7 51.26 105 7.18 9.1 11.72
5/13/2021 11:30:00 AM 10.58 51.044 97 7.14 12.41 11.65
5/13/2021 11:45:00 AM 10.62 51.116 96 7.13 11.47 11.65
5/13/2021 12:00:00 PM 10.64 51.152 96 7.13 12.4 11.65
5/13/2021 12:15:00 PM 10.68 51.224 96 7.14 12.73 11.65
5/13/2021 12:30:00 PM 10.72 51.296 97 7.13 14.18 11.65
5/13/2021 12:45:00 PM 10.74 51.332 97 7.14 12.54 11.65
5/13/2021 1:00:00 PM 10.77 51.386 97 7.14 10.65 11.65
5/13/2021 1:15:00 PM 10.82 51.476 97 7.14 11.56 11.65
5/13/2021 1:30:00 PM 10.88 51.584 97 7.14 12.13 11.65
5/13/2021 1:45:00 PM 10.94 51.692 97 7.14 11.68 11.65
5/13/2021 2:00:00 PM 10.98 51.764 97 7.14 10.71 11.66
5/13/2021 2:15:00 PM 11.01 51.818 97 7.15 11.63 11.66
5/13/2021 2:30:00 PM 11.01 51.818 97 7.15 11.64 11.66
5/13/2021 2:45:00 PM 11.02 51.836 97 7.15 10.33 11.66
5/13/2021 3:00:00 PM 11.07 51.926 97 7.15 11.16 11.66
5/13/2021 3:15:00 PM 11.12 52.016 97 7.16 9.96 11.66
5/13/2021 3:30:00 PM 11.18 52.124 97 7.16 10.24 11.66
5/13/2021 3:45:00 PM 11.23 52.214 97 7.16 10.47 11.66
5/13/2021 4:00:00 PM 11.27 52.286 97 7.16 10.65 11.66
5/13/2021 4:15:00 PM 11.32 52.376 97 7.17 10.45 11.67
5/13/2021 4:30:00 PM 11.38 52.484 97 7.17 10.17 11.67
5/13/2021 4:45:00 PM 11.44 52.592 97 7.17 10.44 11.66
5/13/2021 5:00:00 PM 11.48 52.664 97 7.17 10.24 11.67
5/13/2021 5:15:00 PM 11.49 52.682 97 7.17 10.52 11.66
5/13/2021 5:30:00 PM 11.5 52.7 97 7.17 10.09 11.65
5/13/2021 5:45:00 PM 11.52 52.736 97 7.17 9.82 11.65
5/13/2021 6:00:00 PM 11.53 52.754 97 7.17 10.56 11.65
5/13/2021 6:15:00 PM 11.54 52.772 97 7.17 10.14 11.65
5/13/2021 6:30:00 PM 11.54 52.772 97 7.18 8.98 11.64
5/13/2021 6:45:00 PM 11.53 52.754 97 7.18 11.26 11.63
5/13/2021 7:00:00 PM 11.5 52.7 97 7.18 9.64 11.62
5/13/2021 7:15:00 PM 11.48 52.664 97 7.18 8.91 11.62
5/13/2021 7:30:00 PM 11.46 52.628 97 7.18 11.97 11.62
5/13/2021 7:45:00 PM 11.44 52.592 97 7.17 12.56 11.62
5/13/2021 8:00:00 PM 11.43 52.574 97 7.17 11.17 11.62
5/13/2021 8:15:00 PM 11.43 52.574 97 7.17 11.08 11.61
5/13/2021 8:30:00 PM 11.43 52.574 97 7.17 11.04 11.6
5/13/2021 8:45:00 PM 11.44 52.592 97 7.17 11.22 11.59
5/13/2021 9:00:00 PM 11.44 52.592 97 7.17 11.02 11.58
5/13/2021 9:15:00 PM 11.42 52.556 97 7.17 10.94 11.58
5/13/2021 9:30:00 PM 11.4 52.52 97 7.17 10.15 11.57
5/13/2021 9:45:00 PM 11.38 52.484 97 7.17 11.47 11.56
5/13/2021 10:00:00 PM 11.34 52.412 97 7.17 10.8 11.56
5/13/2021 10:15:00 PM 11.3 52.34 97 7.17 10.47 11.56
5/13/2021 10:30:00 PM 11.27 52.286 97 7.17 9.81 11.55
5/13/2021 10:45:00 PM 11.23 52.214 97 7.17 11 11.55
5/13/2021 11:00:00 PM 11.2 52.16 97 7.16 10.69 11.54
5/13/2021 11:15:00 PM 11.16 52.088 97 7.16 10.66 11.53
5/13/2021 11:30:00 PM 11.13 52.034 97 7.16 10.31 11.53
5/13/2021 11:45:00 PM 11.1 51.98 97 7.16 10.48 11.53
5/14/2021 12:00:00 AM 11.08 51.944 97 7.16 9.52 11.52
5/14/2021 12:15:00 AM 11.05 51.89 97 7.16 10.41 11.53
5/14/2021 12:30:00 AM 11.03 51.854 97 7.16 9.95 11.51
5/14/2021 12:45:00 AM 11.01 51.818 97 7.16 9.37 11.51
5/14/2021 1:00:00 AM 10.99 51.782 97 7.16 10.48 11.51
5/14/2021 1:15:00 AM 10.98 51.764 97 7.16 10.04 11.5
5/14/2021 1:30:00 AM 10.96 51.728 97 7.15 10.1 11.5
5/14/2021 1:45:00 AM 10.94 51.692 97 7.16 10.4 11.5
5/14/2021 2:00:00 AM 10.91 51.638 97 7.15 10.06 11.5
5/14/2021 2:15:00 AM 10.89 51.602 97 7.16 9.94 11.49
5/14/2021 2:30:00 AM 10.87 51.566 97 7.16 10.07 11.48
5/14/2021 2:45:00 AM 10.84 51.512 97 7.15 10.06 11.48
5/14/2021 3:00:00 AM 10.81 51.458 97 7.15 9.72 11.48
5/14/2021 3:15:00 AM 10.79 51.422 97 7.15 10 11.48
5/14/2021 3:30:00 AM 10.77 51.386 98 7.15 9.72 11.47
5/14/2021 3:45:00 AM 10.74 51.332 98 7.15 9.98 11.47
5/14/2021 4:00:00 AM 10.72 51.296 98 7.14 9.54 11.47
5/14/2021 4:15:00 AM 10.7 51.26 98 7.14 10.02 11.46
5/14/2021 4:30:00 AM 10.69 51.242 98 7.14 8.76 11.45
5/14/2021 4:45:00 AM 10.67 51.206 98 7.14 8.86 11.46
5/14/2021 5:00:00 AM 10.65 51.17 98 7.14 8.76 11.45
5/14/2021 5:15:00 AM 10.63 51.134 98 7.14 9.38 11.46
5/14/2021 5:30:00 AM 10.61 51.098 98 7.14 9.46 11.45
5/14/2021 5:45:00 AM 10.6 51.08 98 7.14 9.4 11.44
5/14/2021 6:00:00 AM 10.58 51.044 98 7.14 9.33 11.45
5/14/2021 6:15:00 AM 10.57 51.026 99 7.14 9.11 11.44
5/14/2021 6:30:00 AM 10.56 51.008 99 7.14 9.03 11.45
5/14/2021 6:45:00 AM 10.55 50.99 99 7.14 8.79 11.44
5/14/2021 7:00:00 AM 10.54 50.972 99 7.14 9.33 11.45
5/14/2021 7:15:00 AM 10.54 50.972 99 7.13 8.97 11.45
5/14/2021 7:30:00 AM 10.54 50.972 99 7.14 9.26 11.44
5/14/2021 7:45:00 AM 10.54 50.972 99 7.14 8.89 11.45
5/14/2021 8:00:00 AM 10.55 50.99 99 7.14 9.03 11.46
5/14/2021 8:15:00 AM 10.56 51.008 99 7.14 8.67 11.46
5/14/2021 8:30:00 AM 10.58 51.044 99 7.14 8.7 11.47
5/14/2021 8:45:00 AM 10.6 51.08 100 7.14 8.83 11.46
5/14/2021 9:00:00 AM 10.63 51.134 100 7.15 8.71 11.48
5/14/2021 9:15:00 AM 10.66 51.188 100 7.15 8.77 11.49
5/14/2021 9:30:00 AM 10.69 51.242 100 7.15 9.54 11.49
5/14/2021 9:45:00 AM 10.73 51.314 100 7.15 8.52 11.5
5/14/2021 10:00:00 AM 10.77 51.386 100 7.15 8.72 11.5
5/14/2021 10:15:00 AM 10.82 51.476 100 7.15 8.6 11.51
5/14/2021 10:30:00 AM 10.87 51.566 100 7.16 9.05 11.52
5/14/2021 10:45:00 AM 10.93 51.674 100 7.16 8.88 11.53
5/14/2021 11:00:00 AM 11.37 52.466 113 7.21 4.77 11.62
5/14/2021 11:15:00 AM 11.35 52.43 107 7.14 5.99 11.57
5/14/2021 11:30:00 AM 11.15 52.07 101 7.16 8.71 11.56
5/14/2021 11:45:00 AM 11.18 52.124 101 7.17 9.16 11.56
5/14/2021 12:00:00 PM 11.23 52.214 101 7.17 7.89 11.57
5/14/2021 12:15:00 PM 11.29 52.322 101 7.18 9.89 11.57
5/14/2021 12:30:00 PM 11.35 52.43 101 7.18 8.5 11.59
5/14/2021 12:45:00 PM 11.41 52.538 101 7.18 8.48 11.59
5/14/2021 1:00:00 PM 11.46 52.628 101 7.18 8.55 11.61
5/14/2021 1:15:00 PM 11.52 52.736 101 7.18 7.74 11.6
5/14/2021 1:30:00 PM 11.57 52.826 101 7.18 8.2 11.62
5/14/2021 1:45:00 PM 11.63 52.934 101 7.18 8.92 11.63
5/14/2021 2:00:00 PM 11.68 53.024 101 7.19 7.76 11.63
5/14/2021 2:15:00 PM 11.73 53.114 101 7.19 8.45 11.64
5/14/2021 2:30:00 PM 11.79 53.222 101 7.19 8.5 11.64
5/14/2021 2:45:00 PM 11.85 53.33 101 7.2 8.53 11.64
5/14/2021 3:00:00 PM 11.91 53.438 101 7.2 9.24 11.66
5/14/2021 3:15:00 PM 11.93 53.474 101 7.2 8.87 11.66
5/14/2021 3:30:00 PM 11.95 53.51 101 7.2 8.4 11.66
5/14/2021 3:45:00 PM 11.94 53.492 101 7.2 8.89 11.67
5/14/2021 4:00:00 PM 11.91 53.438 101 7.2 8.31 11.65
5/14/2021 4:15:00 PM 11.89 53.402 101 7.2 8.24 11.66
5/14/2021 4:30:00 PM 11.93 53.474 101 7.2 8.53 11.66
5/14/2021 4:45:00 PM 12 53.6 101 7.21 8.4 11.67
5/14/2021 5:00:00 PM 12.04 53.672 101 7.21 8.17 11.67
5/14/2021 5:15:00 PM 12.06 53.708 102 7.21 7.81 11.67
5/14/2021 5:30:00 PM 12.09 53.762 102 7.21 8.02 11.68
5/14/2021 5:45:00 PM 12.11 53.798 102 7.22 7.76 11.67
5/14/2021 6:00:00 PM 12.12 53.816 102 7.22 8.68 11.68
5/14/2021 6:15:00 PM 12.13 53.834 102 7.21 7.49 11.68
5/14/2021 6:30:00 PM 12.15 53.87 102 7.22 8.24 11.68
5/14/2021 6:45:00 PM 12.16 53.888 102 7.22 7.32 11.67
5/14/2021 7:00:00 PM 12.18 53.924 102 7.22 8.1 11.66
5/14/2021 7:15:00 PM 12.22 53.996 102 7.22 7.79 11.66
5/14/2021 7:30:00 PM 12.29 54.122 107 7.27 6.55 11.62
5/14/2021 7:45:00 PM 12.2 53.96 112 7.2 4.21 11.55
5/14/2021 8:00:00 PM 12.13 53.834 106 7.17 6.18 11.59
5/14/2021 8:15:00 PM 12.12 53.816 103 7.21 8.72 11.62
5/14/2021 8:30:00 PM 12.09 53.762 103 7.21 7.97 11.61
5/14/2021 8:45:00 PM 12.07 53.726 103 7.21 8.37 11.61
5/14/2021 9:00:00 PM 12.05 53.69 103 7.21 8.2 11.6
5/14/2021 9:15:00 PM 12.04 53.672 103 7.21 8.31 11.58
5/14/2021 9:30:00 PM 12.04 53.672 103 7.21 8.24 11.58
5/14/2021 9:45:00 PM 12.03 53.654 103 7.21 8.62 11.56
5/14/2021 10:00:00 PM 12.02 53.636 103 7.2 8.91 11.55
5/14/2021 10:15:00 PM 12.02 53.636 104 7.2 8.26 11.53
5/14/2021 10:30:00 PM 12.03 53.654 104 7.2 8.96 11.53
5/14/2021 10:45:00 PM 12.04 53.672 104 7.2 8.32 11.52
5/14/2021 11:00:00 PM 12.04 53.672 104 7.2 8.17 11.5
5/14/2021 11:15:00 PM 12.04 53.672 104 7.2 8.08 11.5
5/14/2021 11:30:00 PM 12.02 53.636 104 7.2 7.6 11.49
5/14/2021 11:45:00 PM 12.01 53.618 104 7.2 8.31 11.48
5/15/2021 12:00:00 AM 11.99 53.582 104 7.2 8.22 11.47
5/15/2021 12:15:00 AM 11.98 53.564 104 7.19 8.02 11.46
5/15/2021 12:30:00 AM 11.97 53.546 104 7.19 8.12 11.45
5/15/2021 12:45:00 AM 11.96 53.528 104 7.19 7.68 11.44
5/15/2021 1:00:00 AM 11.94 53.492 104 7.19 7.58 11.43
5/15/2021 1:15:00 AM 11.93 53.474 105 7.19 7.91 11.42
5/15/2021 1:30:00 AM 11.9 53.42 105 7.19 8.17 11.41
5/15/2021 1:45:00 AM 11.88 53.384 105 7.18 8.53 11.4
5/15/2021 2:00:00 AM 11.85 53.33 105 7.18 8.25 11.38
5/15/2021 2:15:00 AM 11.81 53.258 105 7.18 8.26 11.37
5/15/2021 2:30:00 AM 11.77 53.186 105 7.18 7.79 11.37
5/15/2021 2:45:00 AM 11.74 53.132 105 7.18 8.19 11.36
5/15/2021 3:00:00 AM 11.71 53.078 105 7.18 7.77 11.36
5/15/2021 3:15:00 AM 11.67 53.006 105 7.17 7.87 11.35
5/15/2021 3:30:00 AM 11.64 52.952 105 7.17 8.27 11.34
5/15/2021 3:45:00 AM 11.62 52.916 105 7.17 7.95 11.33
5/15/2021 4:00:00 AM 11.59 52.862 105 7.17 7.59 11.33
5/15/2021 4:15:00 AM 11.56 52.808 105 7.17 7.86 11.32
5/15/2021 4:30:00 AM 11.54 52.772 105 7.16 7.84 11.32
5/15/2021 4:45:00 AM 11.52 52.736 106 7.16 8.04 11.3
5/15/2021 5:00:00 AM 11.5 52.7 106 7.16 7.54 11.3
5/15/2021 5:15:00 AM 11.49 52.682 106 7.16 8.17 11.29
5/15/2021 5:30:00 AM 11.47 52.646 106 7.16 7.57 11.29
5/15/2021 5:45:00 AM 11.46 52.628 106 7.15 7.43 11.28
5/15/2021 6:00:00 AM 11.45 52.61 106 7.15 7.59 11.27
5/15/2021 6:15:00 AM 11.44 52.592 106 7.15 7.79 11.27
5/15/2021 6:30:00 AM 11.43 52.574 106 7.15 7.5 11.26
5/15/2021 6:45:00 AM 11.42 52.556 106 7.15 8.84 11.28
5/15/2021 7:00:00 AM 11.42 52.556 106 7.15 10.24 11.27
5/15/2021 7:15:00 AM 11.4 52.52 106 7.15 8.9 11.27
5/15/2021 7:30:00 AM 11.4 52.52 106 7.15 8.69 11.27
5/15/2021 7:45:00 AM 11.4 52.52 106 7.15 10.11 11.28
5/15/2021 8:00:00 AM 11.41 52.538 106 7.15 8.82 11.28
5/15/2021 8:15:00 AM 11.42 52.556 107 7.16 8.36 11.29
5/15/2021 8:30:00 AM 11.44 52.592 107 7.16 8.63 11.3
5/15/2021 8:45:00 AM 11.56 52.808 110 7.17 6.92 11.31
5/15/2021 9:00:00 AM 11.69 53.042 112 7.16 5.06 11.45
5/15/2021 9:15:00 AM 11.59 52.862 108 7.14 7.94 11.37
5/15/2021 9:30:00 AM 11.55 52.79 107 7.16 8.51 11.32
5/15/2021 9:45:00 AM 11.6 52.88 107 7.16 7.78 11.33
5/15/2021 10:00:00 AM 11.67 53.006 107 7.17 8.41 11.35
5/15/2021 10:15:00 AM 11.74 53.132 107 7.17 8.17 11.36
5/15/2021 10:30:00 AM 11.81 53.258 107 7.18 8.06 11.38
5/15/2021 10:45:00 AM 11.87 53.366 107 7.18 8.04 11.38
5/15/2021 11:00:00 AM 11.94 53.492 107 7.18 13.88 11.4
5/15/2021 11:15:00 AM 12.02 53.636 107 7.18 8.05 11.4
5/15/2021 11:30:00 AM 12.09 53.762 107 7.19 8.47 11.41
5/15/2021 11:45:00 AM 12.17 53.906 108 7.19 8.14 11.42
5/15/2021 12:00:00 PM 12.25 54.05 108 7.19 7.65 11.43
5/15/2021 12:15:00 PM 12.33 54.194 108 7.2 7.83 11.48
5/15/2021 12:30:00 PM 12.42 54.356 108 7.2 7.76 11.44
5/15/2021 12:45:00 PM 12.49 54.482 108 7.21 7.11 11.46
5/15/2021 1:00:00 PM 12.57 54.626 108 7.21 7.13 11.46
5/15/2021 1:15:00 PM 12.61 54.698 108 7.21 6.48 11.47
5/15/2021 1:30:00 PM 12.64 54.752 108 7.21 7.68 11.46
5/15/2021 1:45:00 PM 12.67 54.806 108 7.21 7.46 11.47
5/15/2021 2:00:00 PM 12.69 54.842 108 7.22 7.49 11.47
5/15/2021 2:15:00 PM 12.71 54.878 108 7.22 7.59 11.47
5/15/2021 2:30:00 PM 12.72 54.896 108 7.22 6.89 11.46
5/15/2021 2:45:00 PM 12.74 54.932 108 7.22 7.43 11.45
5/15/2021 3:00:00 PM 12.76 54.968 108 7.22 6.59 11.46
5/15/2021 3:15:00 PM 12.76 54.968 108 7.22 6.96 11.46
5/15/2021 3:30:00 PM 12.74 54.932 108 7.22 6.3 11.46
5/15/2021 3:45:00 PM 12.75 54.95 108 7.23 7.1 11.46
5/15/2021 4:00:00 PM 12.74 54.932 108 7.23 6.84 11.46
5/15/2021 4:15:00 PM 12.74 54.932 108 7.23 6.78 11.46
5/15/2021 4:30:00 PM 12.76 54.968 109 7.23 7.52 11.46
5/15/2021 4:45:00 PM 12.78 55.004 109 7.23 8.5 11.47
5/15/2021 5:00:00 PM 12.82 55.076 109 7.23 7.21 11.46
5/15/2021 5:15:00 PM 12.87 55.166 109 7.24 6.49 11.47
5/15/2021 5:30:00 PM 12.93 55.274 109 7.24 6.42 11.47
5/15/2021 5:45:00 PM 12.97 55.346 109 7.24 7.12 11.48
5/15/2021 6:00:00 PM 13 55.4 109 7.25 6.99 11.48
5/15/2021 6:15:00 PM 13.03 55.454 109 7.25 6.45 11.5
5/15/2021 6:30:00 PM 13.07 55.526 109 7.25 6.18 11.5
5/15/2021 6:45:00 PM 13.11 55.598 109 7.24 6.32 11.49
5/15/2021 7:00:00 PM 13.13 55.634 109 7.25 6.21 11.49
5/15/2021 7:15:00 PM 13.17 55.706 109 7.25 6.89 11.49
5/15/2021 7:30:00 PM 13.2 55.76 109 7.26 6.54 11.47
5/15/2021 7:45:00 PM 13.23 55.814 109 7.25 7.11 11.47
5/15/2021 8:00:00 PM 13.26 55.868 109 7.25 6.07 11.45
5/15/2021 8:15:00 PM 13.28 55.904 109 7.26 6.22 11.46
5/15/2021 8:30:00 PM 13.3 55.94 109 7.26 5.84 11.44
5/15/2021 8:45:00 PM 13.32 55.976 109 7.25 6.12 11.42
5/15/2021 9:00:00 PM 13.32 55.976 109 7.25 5.6 11.42
5/15/2021 9:15:00 PM 13.31 55.958 109 7.25 6.41 11.4
5/15/2021 9:30:00 PM 13.28 55.904 109 7.26 5.75 11.4
5/15/2021 9:45:00 PM 13.25 55.85 110 7.25 5.54 11.39
5/15/2021 10:00:00 PM 13.21 55.778 110 7.25 6.24 11.38
5/15/2021 10:15:00 PM 13.18 55.724 110 7.25 5.84 11.37
5/15/2021 10:30:00 PM 13.15 55.67 110 7.25 5.99 11.35
5/15/2021 10:45:00 PM 13.12 55.616 110 7.25 5.27 11.34
5/15/2021 11:00:00 PM 13.09 55.562 110 7.24 6.22 11.33
5/15/2021 11:15:00 PM 13.05 55.49 110 7.24 5.37 11.32
5/15/2021 11:30:00 PM 13.03 55.454 110 7.24 5.89 11.31
5/15/2021 11:45:00 PM 13 55.4 110 7.24 5.84 11.3
5/16/2021 12:00:00 AM 12.97 55.346 110 7.23 6.05 11.29
5/16/2021 12:15:00 AM 12.95 55.31 110 7.23 6.43 11.28
5/16/2021 12:30:00 AM 12.91 55.238 110 7.23 5.01 11.27
5/16/2021 12:45:00 AM 12.87 55.166 110 7.23 6.04 11.27
5/16/2021 1:00:00 AM 12.86 55.148 110 7.23 5.99 11.26
5/16/2021 1:15:00 AM 12.82 55.076 111 7.23 6.06 11.25
5/16/2021 1:30:00 AM 12.8 55.04 111 7.23 5.56 11.24
5/16/2021 1:45:00 AM 12.78 55.004 111 7.23 5.76 11.23
5/16/2021 2:00:00 AM 12.76 54.968 111 7.23 5.38 11.23
5/16/2021 2:15:00 AM 12.74 54.932 111 7.22 5.3 11.21
5/16/2021 2:30:00 AM 12.72 54.896 111 7.22 5.57 11.2
5/16/2021 2:45:00 AM 12.71 54.878 111 7.22 5.67 11.19
5/16/2021 3:00:00 AM 12.69 54.842 111 7.22 6.03 11.18
5/16/2021 3:15:00 AM 12.67 54.806 111 7.22 5.64 11.18
5/16/2021 3:30:00 AM 12.66 54.788 111 7.21 5.44 11.15
5/16/2021 3:45:00 AM 12.64 54.752 111 7.21 5.51 11.15
5/16/2021 4:00:00 AM 12.62 54.716 111 7.21 5.23 11.14
5/16/2021 4:15:00 AM 12.6 54.68 111 7.21 5.77 11.14
5/16/2021 4:30:00 AM 12.59 54.662 111 7.21 5.71 11.12
5/16/2021 4:45:00 AM 12.58 54.644 111 7.21 5.39 11.11
5/16/2021 5:00:00 AM 12.56 54.608 112 7.2 5.29 11.09
5/16/2021 5:15:00 AM 12.55 54.59 112 7.21 5.18 11.08
5/16/2021 5:30:00 AM 12.53 54.554 112 7.2 5.47 11.08
5/16/2021 5:45:00 AM 12.51 54.518 112 7.2 5.33 11.08
5/16/2021 6:00:00 AM 12.49 54.482 112 7.2 4.63 11.06
5/16/2021 6:15:00 AM 12.48 54.464 112 7.2 4.74 11.06
5/16/2021 6:30:00 AM 12.47 54.446 112 7.19 4.7 11.05
5/16/2021 6:45:00 AM 12.46 54.428 112 7.19 5.22 11.04
5/16/2021 7:00:00 AM 12.44 54.392 112 7.19 5.38 11.05
5/16/2021 7:15:00 AM 12.43 54.374 112 7.2 5.72 11.04
5/16/2021 7:30:00 AM 12.43 54.374 112 7.2 5.09 11.05
5/16/2021 7:45:00 AM 12.43 54.374 112 7.2 5.14 11.05
5/16/2021 8:00:00 AM 12.43 54.374 112 7.2 5.26 11.05
5/16/2021 8:15:00 AM 12.44 54.392 112 7.2 5.58 11.06
5/16/2021 8:30:00 AM 12.44 54.392 112 7.2 4.65 11.06
5/16/2021 8:45:00 AM 12.44 54.392 112 7.2 5.23 11.07
5/16/2021 9:00:00 AM 12.45 54.41 112 7.2 5.07 11.07
5/16/2021 9:15:00 AM 12.46 54.428 112 7.2 5.03 11.08
5/16/2021 9:30:00 AM 12.48 54.464 112 7.2 5.36 11.09
5/16/2021 9:45:00 AM 12.49 54.482 112 7.21 4.7 11.1
5/16/2021 10:00:00 AM 12.51 54.518 112 7.21 5.21 11.11
5/16/2021 10:15:00 AM 12.74 54.932 119 7.24 3.67 11.26
5/16/2021 10:30:00 AM 12.67 54.806 116 7.19 4.58 11.2
5/16/2021 10:45:00 AM 12.63 54.734 113 7.22 5.33 11.16
5/16/2021 11:00:00 AM 12.67 54.806 112 7.22 5.2 11.17
5/16/2021 11:15:00 AM 12.7 54.86 112 7.22 5.2 11.18
5/16/2021 11:30:00 AM 12.73 54.914 112 7.23 5.15 11.19
5/16/2021 11:45:00 AM 12.75 54.95 112 7.23 5.5 11.2
5/16/2021 12:00:00 PM 12.77 54.986 112 7.23 5.25 11.21
5/16/2021 12:15:00 PM 12.79 55.022 112 7.24 5.23 11.22
5/16/2021 12:30:00 PM 12.81 55.058 112 7.24 5.44 11.22
5/16/2021 12:45:00 PM 12.84 55.112 112 7.24 5.64 11.24
5/16/2021 1:00:00 PM 12.86 55.148 112 7.24 4.91 11.25
5/16/2021 1:15:00 PM 12.89 55.202 112 7.25 5.55 11.26
5/16/2021 1:30:00 PM 12.92 55.256 112 7.25 5.33 11.27
5/16/2021 1:45:00 PM 12.95 55.31 112 7.25 5.12 11.27
5/16/2021 2:00:00 PM 12.99 55.382 112 7.26 5.07 11.29
5/16/2021 2:15:00 PM 13.02 55.436 112 7.26 4.86 11.29
5/16/2021 2:30:00 PM 13.06 55.508 112 7.26 4.73 11.31
5/16/2021 2:45:00 PM 13.11 55.598 112 7.27 5.06 11.32
5/16/2021 3:00:00 PM 13.16 55.688 112 7.27 5.11 11.33
5/16/2021 3:15:00 PM 13.2 55.76 112 7.27 5.34 11.33
5/16/2021 3:30:00 PM 13.23 55.814 112 7.27 4.7 11.34
5/16/2021 3:45:00 PM 13.27 55.886 112 7.28 5.45 11.35
5/16/2021 4:00:00 PM 13.31 55.958 112 7.28 4.76 11.35
5/16/2021 4:15:00 PM 13.36 56.048 112 7.29 4.76 11.37
5/16/2021 4:30:00 PM 13.39 56.102 112 7.3 4.33 11.38
5/16/2021 4:45:00 PM 13.43 56.174 112 7.29 5.02 11.38
5/16/2021 5:00:00 PM 13.47 56.246 112 7.3 4.9 11.39
5/16/2021 5:15:00 PM 13.51 56.318 112 7.3 4.23 11.39
5/16/2021 5:30:00 PM 13.55 56.39 112 7.31 4.64 11.41
5/16/2021 5:45:00 PM 13.57 56.426 112 7.31 4.54 11.4
5/16/2021 6:00:00 PM 13.59 56.462 122 7.35 3.29 11.34
5/16/2021 6:15:00 PM 13.43 56.174 120 7.21 2.89 11.29
5/16/2021 6:30:00 PM 13.59 56.462 112 7.3 5.04 11.39
5/16/2021 6:45:00 PM 13.62 56.516 111 7.32 4.91 11.42
5/16/2021 7:00:00 PM 13.62 56.516 111 7.32 5.19 11.42
5/16/2021 7:15:00 PM 13.62 56.516 111 7.32 4.59 11.42
5/16/2021 7:30:00 PM 13.6 56.48 111 7.33 4.96 11.41
5/16/2021 7:45:00 PM 13.57 56.426 111 7.32 4.53 11.41
5/16/2021 8:00:00 PM 13.54 56.372 111 7.32 4.37 11.4
5/16/2021 8:15:00 PM 13.51 56.318 111 7.32 4.23 11.38
5/16/2021 8:30:00 PM 13.49 56.282 112 7.32 4.28 11.37
5/16/2021 8:45:00 PM 13.48 56.264 112 7.32 4.22 11.37
5/16/2021 9:00:00 PM 13.48 56.264 112 7.31 4.29 11.35
5/16/2021 9:15:00 PM 13.47 56.246 112 7.31 4.25 11.34
5/16/2021 9:30:00 PM 13.46 56.228 112 7.31 4.21 11.33
5/16/2021 9:45:00 PM 13.45 56.21 112 7.31 4.19 11.32
5/16/2021 10:00:00 PM 13.44 56.192 112 7.31 4.73 11.31
5/16/2021 10:15:00 PM 13.44 56.192 112 7.31 4.31 11.3
5/16/2021 10:30:00 PM 13.43 56.174 112 7.3 4.6 11.3
5/16/2021 10:45:00 PM 13.43 56.174 112 7.3 4.26 11.29
5/16/2021 11:00:00 PM 13.42 56.156 112 7.3 4.52 11.28
5/16/2021 11:15:00 PM 13.4 56.12 112 7.3 4.4 11.26
5/16/2021 11:30:00 PM 13.39 56.102 112 7.29 4.55 11.26
5/16/2021 11:45:00 PM 13.39 56.102 112 7.29 4.42 11.24
5/17/2021 12:00:00 AM 13.38 56.084 112 7.29 4.23 11.23
5/17/2021 12:15:00 AM 13.37 56.066 112 7.29 3.97 11.23
5/17/2021 12:30:00 AM 13.35 56.03 112 7.29 4.2 11.22
5/17/2021 12:45:00 AM 13.33 55.994 112 7.28 4.01 11.21
5/17/2021 1:00:00 AM 13.31 55.958 113 7.28 4.42 11.2
5/17/2021 1:15:00 AM 13.32 55.976 115 7.29 4.27 11.19
5/17/2021 1:30:00 AM 13.32 55.976 120 7.27 3 11.23
5/17/2021 1:45:00 AM 13.26 55.868 116 7.23 3.72 11.19
5/17/2021 2:00:00 AM 13.24 55.832 113 7.27 4.34 11.17
5/17/2021 2:15:00 AM 13.22 55.796 113 7.26 4.48 11.15
5/17/2021 2:30:00 AM 13.2 55.76 113 7.27 4.53 11.15
5/17/2021 2:45:00 AM 13.18 55.724 113 7.27 4.66 11.14
5/17/2021 3:00:00 AM 13.16 55.688 113 7.27 4.58 11.14
5/17/2021 3:15:00 AM 13.14 55.652 113 7.27 5.66 11.12
5/17/2021 3:30:00 AM 13.12 55.616 114 7.26 4.92 11.11
5/17/2021 3:45:00 AM 13.11 55.598 114 7.26 4.39 11.1
5/17/2021 4:00:00 AM 13.09 55.562 114 7.26 4.68 11.08
5/17/2021 4:15:00 AM 13.06 55.508 114 7.26 4.46 11.07
5/17/2021 4:30:00 AM 13.04 55.472 114 7.25 4.75 11.05
5/17/2021 4:45:00 AM 13.02 55.436 114 7.25 4.53 11.04
5/17/2021 5:00:00 AM 12.99 55.382 114 7.25 5.02 11.03
5/17/2021 5:15:00 AM 12.97 55.346 115 7.25 4.6 11.02
5/17/2021 5:30:00 AM 12.94 55.292 115 7.24 6.31 11
5/17/2021 5:45:00 AM 12.93 55.274 115 7.24 6.08 11
5/17/2021 6:00:00 AM 12.91 55.238 115 7.24 5.57 10.99
5/17/2021 6:15:00 AM 12.9 55.22 115 7.24 4.43 10.98
5/17/2021 6:30:00 AM 12.88 55.184 115 7.24 4.49 10.98
5/17/2021 6:45:00 AM 12.87 55.166 115 7.24 3.99 10.97
5/17/2021 7:00:00 AM 12.86 55.148 116 7.24 4.15 10.98
5/17/2021 7:15:00 AM 12.86 55.148 116 7.23 4.8 10.97
5/17/2021 7:30:00 AM 12.86 55.148 116 7.23 4.37 10.98
5/17/2021 7:45:00 AM 12.87 55.166 116 7.23 4.95 10.97
5/17/2021 8:00:00 AM 12.88 55.184 116 7.23 3.94 10.98
5/17/2021 8:15:00 AM 12.9 55.22 116 7.24 4.42 10.98
5/17/2021 8:30:00 AM 12.93 55.274 117 7.24 4.14 10.98
5/17/2021 8:45:00 AM 12.96 55.328 117 7.24 5.13 10.98
5/17/2021 9:00:00 AM 12.99 55.382 117 7.24 4.2 11.01
5/17/2021 9:15:00 AM 13.02 55.436 117 7.24 4.36 11
5/17/2021 9:30:00 AM 13.07 55.526 117 7.25 4.29 11.01
5/17/2021 9:45:00 AM 13.12 55.616 117 7.24 3.85 11.03
5/17/2021 10:00:00 AM 13.17 55.706 117 7.25 4.31 11.03
5/17/2021 10:15:00 AM 13.23 55.814 117 7.25 4.11 11.04
5/17/2021 10:30:00 AM 13.29 55.922 118 7.25 4.07 11.06
5/17/2021 10:45:00 AM 13.36 56.048 118 7.26 3.71 11.07
5/17/2021 11:00:00 AM 13.41 56.138 118 7.26 3.76 11.07
5/17/2021 11:15:00 AM 13.48 56.264 118 7.26 4.44 11.08
5/17/2021 11:30:00 AM 13.58 56.444 118 7.26 4.38 11.09
5/17/2021 11:45:00 AM 13.65 56.57 118 7.26 4.04 11.1
5/17/2021 12:00:00 PM 13.75 56.75 118 7.26 4.42 11.12
5/17/2021 12:15:00 PM 13.83 56.894 119 7.27 4.82 11.13
5/17/2021 12:30:00 PM 13.91 57.038 119 7.28 4.24 11.15
5/17/2021 12:45:00 PM 14 57.2 119 7.28 3.91 11.15
5/17/2021 1:00:00 PM 14.09 57.362 119 7.28 5.01 11.15
5/17/2021 1:15:00 PM 14.18 57.524 119 7.28 4.06 11.15
5/17/2021 1:30:00 PM 14.25 57.65 119 7.28 4.36 11.16
5/17/2021 1:45:00 PM 14.33 57.794 119 7.29 3.76 11.19
5/17/2021 2:00:00 PM 14.4 57.92 119 7.29 4.76 11.18
5/17/2021 2:15:00 PM 14.48 58.064 120 7.3 3.92 11.19
5/17/2021 2:30:00 PM 14.54 58.172 120 7.3 4.6 11.2
5/17/2021 2:45:00 PM 14.6 58.28 120 7.3 3.84 11.2
5/17/2021 3:00:00 PM 14.69 58.442 120 7.31 3.97 11.2
5/17/2021 3:15:00 PM 14.75 58.55 120 7.31 4.16 11.21
5/17/2021 3:30:00 PM 14.79 58.622 120 7.3 3.66 11.22
5/17/2021 3:45:00 PM 14.84 58.712 120 7.31 3.7 11.22
5/17/2021 4:00:00 PM 14.89 58.802 120 7.32 4.17 11.24
5/17/2021 4:15:00 PM 14.91 58.838 120 7.31 3.94 11.24
5/17/2021 4:30:00 PM 14.95 58.91 121 7.33 3.97 11.25
5/17/2021 4:45:00 PM 14.98 58.964 121 7.33 3.74 11.25
5/17/2021 5:00:00 PM 15.02 59.036 121 7.34 4.18 11.26
5/17/2021 5:15:00 PM 15.04 59.072 121 7.33 4.1 11.28
5/17/2021 5:30:00 PM 15.07 59.126 121 7.35 4.92 11.31
5/17/2021 5:45:00 PM 15.06 59.108 121 7.35 4.47 11.3
5/17/2021 6:00:00 PM 15.05 59.09 121 7.35 4.69 11.3
5/17/2021 6:15:00 PM 15.05 59.09 121 7.35 6.08 11.3
5/17/2021 6:30:00 PM 15.04 59.072 121 7.36 5.88 11.31
5/17/2021 6:45:00 PM 15.03 59.054 121 7.36 4.4 11.31
5/17/2021 7:00:00 PM 15.02 59.036 121 7.36 3.75 11.31
5/17/2021 7:15:00 PM 15.02 59.036 121 7.37 3.85 11.31
5/17/2021 7:30:00 PM 15.01 59.018 121 7.36 4.41 11.3
5/17/2021 7:45:00 PM 15 59 121 7.36 3.57 11.29
5/17/2021 8:00:00 PM 14.98 58.964 121 7.36 3.93 11.29
5/17/2021 8:15:00 PM 14.97 58.946 121 7.36 3.65 11.27
5/17/2021 8:30:00 PM 14.96 58.928 121 7.36 4.52 11.27
5/17/2021 8:45:00 PM 14.95 58.91 121 7.35 7.6 11.26
5/17/2021 9:00:00 PM 14.94 58.892 121 7.36 3.29 11.24
5/17/2021 9:15:00 PM 14.93 58.874 121 7.35 3.29 11.23
5/17/2021 9:30:00 PM 14.92 58.856 122 7.35 3.96 11.22
5/17/2021 9:45:00 PM 14.91 58.838 122 7.35 3.55 11.21
5/17/2021 10:00:00 PM 14.9 58.82 122 7.35 4.06 11.19
5/17/2021 10:15:00 PM 14.89 58.802 122 7.35 3.42 11.18
5/17/2021 10:30:00 PM 14.88 58.784 122 7.34 3.51 11.16
5/17/2021 10:45:00 PM 14.87 58.766 122 7.34 3.28 11.14
5/17/2021 11:00:00 PM 14.86 58.748 122 7.33 3.13 11.13
5/17/2021 11:15:00 PM 14.85 58.73 122 7.33 2.88 11.11
5/17/2021 11:30:00 PM 14.84 58.712 122 7.33 3.31 11.09
5/17/2021 11:45:00 PM 14.83 58.694 122 7.32 3.2 11.08
5/18/2021 12:00:00 AM 14.82 58.676 122 7.32 3.27 11.06
5/18/2021 12:15:00 AM 14.81 58.658 122 7.32 3.46 11.04
5/18/2021 12:30:00 AM 14.8 58.64 122 7.31 3.59 11.03
5/18/2021 12:45:00 AM 14.79 58.622 122 7.31 3.16 11.02
5/18/2021 1:00:00 AM 14.78 58.604 122 7.31 3.25 11
5/18/2021 1:15:00 AM 14.77 58.586 122 7.31 3.29 10.99
5/18/2021 1:30:00 AM 14.76 58.568 123 7.3 3.43 10.97
5/18/2021 1:45:00 AM 14.74 58.532 123 7.3 3.48 10.96
5/18/2021 2:00:00 AM 14.72 58.496 123 7.3 3.53 10.95
5/18/2021 2:15:00 AM 14.72 58.496 123 7.3 5.23 10.92
5/18/2021 2:30:00 AM 14.69 58.442 123 7.3 3.64 10.91
5/18/2021 2:45:00 AM 14.66 58.388 123 7.29 3.64 10.89
5/18/2021 3:00:00 AM 14.64 58.352 123 7.29 3.13 10.89
5/18/2021 3:15:00 AM 14.61 58.298 123 7.29 3.24 10.88
5/18/2021 3:30:00 AM 14.58 58.244 123 7.29 3.4 10.87
5/18/2021 3:45:00 AM 14.55 58.19 123 7.28 3.07 10.85
5/18/2021 4:00:00 AM 14.52 58.136 123 7.28 3.19 10.85
5/18/2021 4:15:00 AM 14.49 58.082 123 7.28 2.7 10.82
5/18/2021 4:30:00 AM 14.45 58.01 125 7.28 3.87 10.85
5/18/2021 4:45:00 AM 14.4 57.92 129 7.26 2.44 10.95
5/18/2021 5:00:00 AM 14.42 57.956 126 7.23 2.51 10.88
5/18/2021 5:15:00 AM 14.36 57.848 124 7.26 3.35 10.78
5/18/2021 5:30:00 AM 14.32 57.776 124 7.26 2.79 10.77
5/18/2021 5:45:00 AM 14.29 57.722 124 7.25 3.05 10.76
5/18/2021 6:00:00 AM 14.25 57.65 124 7.26 2.96 10.74
5/18/2021 6:15:00 AM 14.23 57.614 124 7.25 3.21 10.73
5/18/2021 6:30:00 AM 14.2 57.56 124 7.26 2.74 10.74
5/18/2021 6:45:00 AM 14.18 57.524 124 7.26 2.7 10.72
5/18/2021 7:00:00 AM 14.16 57.488 125 7.26 2.92 10.72
5/18/2021 7:15:00 AM 14.15 57.47 125 7.26 2.83 10.74
5/18/2021 7:30:00 AM 14.14 57.452 125 7.26 3.34 10.73
5/18/2021 7:45:00 AM 14.14 57.452 125 7.26 2.83 10.73
5/18/2021 8:00:00 AM 14.14 57.452 125 7.26 3.44 10.75
5/18/2021 8:15:00 AM 14.16 57.488 125 7.26 3.12 10.75
5/18/2021 8:30:00 AM 14.18 57.524 125 7.26 2.94 10.74
5/18/2021 8:45:00 AM 14.2 57.56 126 7.26 3.09 10.76
5/18/2021 9:00:00 AM 14.23 57.614 126 7.26 3.19 10.76
5/18/2021 9:15:00 AM 14.26 57.668 126 7.27 2.92 10.76
5/18/2021 9:30:00 AM 14.31 57.758 126 7.27 3.2 10.77
5/18/2021 9:45:00 AM 14.36 57.848 126 7.27 3.05 10.78
5/18/2021 10:00:00 AM 14.41 57.938 126 7.27 3.22 10.81
5/18/2021 10:15:00 AM 14.47 58.046 126 7.27 2.83 10.81
5/18/2021 10:30:00 AM 14.53 58.154 126 7.28 2.82 10.81
5/18/2021 10:45:00 AM 14.6 58.28 127 7.28 3.01 10.84
5/18/2021 11:00:00 AM 14.67 58.406 127 7.29 3.02 10.85
5/18/2021 11:15:00 AM 14.77 58.586 131 7.38 2.57 10.94
5/18/2021 11:30:00 AM 14.93 58.874 131 7.28 2.01 10.88
5/18/2021 11:45:00 AM 14.93 58.874 128 7.3 2.93 10.87
5/18/2021 12:00:00 PM 15.02 59.036 127 7.3 2.76 10.87
5/18/2021 12:15:00 PM 15.1 59.18 127 7.31 2.86 10.89
5/18/2021 12:30:00 PM 15.19 59.342 128 7.31 2.81 10.9
5/18/2021 12:45:00 PM 15.3 59.54 127 7.3 2.8 10.91
5/18/2021 1:00:00 PM 15.37 59.666 128 7.31 2.56 10.91
5/18/2021 1:15:00 PM 15.49 59.882 128 7.32 2.46 10.92
5/18/2021 1:30:00 PM 15.58 60.044 128 7.32 2.62 10.92
5/18/2021 1:45:00 PM 15.67 60.206 128 7.32 2.57 10.94
5/18/2021 2:00:00 PM 15.79 60.422 128 7.33 3.05 10.94
5/18/2021 2:15:00 PM 15.88 60.584 128 7.34 2.9 10.96
5/18/2021 2:30:00 PM 15.94 60.692 128 7.34 2.9 10.95
5/18/2021 2:45:00 PM 16.07 60.926 128 7.34 3.5 10.96
5/18/2021 3:00:00 PM 16.16 61.088 128 7.35 3.65 10.98
5/18/2021 3:15:00 PM 16.24 61.232 128 7.35 3.2 10.98
5/18/2021 3:30:00 PM 16.33 61.394 128 7.35 3.89 10.98
5/18/2021 3:45:00 PM 16.4 61.52 129 7.36 3.09 11
5/18/2021 4:00:00 PM 16.44 61.592 129 7.36 3.46 11
5/18/2021 4:15:00 PM 16.48 61.664 129 7.36 3.64 10.99
5/18/2021 4:30:00 PM 16.5 61.7 129 7.36 3.38 11.01
5/18/2021 4:45:00 PM 16.5 61.7 129 7.37 3.18 11
5/18/2021 5:00:00 PM 16.51 61.718 129 7.37 3.18 11.01
5/18/2021 5:15:00 PM 16.49 61.682 129 7.37 3.13 11.01
5/18/2021 5:30:00 PM 16.47 61.646 129 7.38 3.14 11.02
5/18/2021 5:45:00 PM 16.45 61.61 129 7.38 3.05 11.02
5/18/2021 6:00:00 PM 16.45 61.61 129 7.38 3.68 11.02
5/18/2021 6:15:00 PM 16.48 61.664 129 7.38 3.38 11.03
5/18/2021 6:30:00 PM 16.52 61.736 129 7.38 3.35 11.03
5/18/2021 6:45:00 PM 16.56 61.808 129 7.39 3.49 11.02
5/18/2021 7:00:00 PM 16.57 61.826 129 7.39 3.3 11.02
5/18/2021 7:15:00 PM 16.56 61.808 130 7.38 3.56 11.02
5/18/2021 7:30:00 PM 16.53 61.754 130 7.39 3.24 11.01
5/18/2021 7:45:00 PM 16.47 61.646 130 7.38 3.37 10.99
5/18/2021 8:00:00 PM 16.4 61.52 130 7.38 3.07 10.99
5/18/2021 8:15:00 PM 16.34 61.412 130 7.37 3.38 10.98
5/18/2021 8:30:00 PM 16.32 61.376 130 7.37 3.08 10.96
5/18/2021 8:45:00 PM 16.33 61.394 130 7.37 3.24 10.95
5/18/2021 9:00:00 PM 16.33 61.394 130 7.37 3.17 10.95
5/18/2021 9:15:00 PM 16.3 61.34 130 7.37 3.34 10.94
5/18/2021 9:30:00 PM 16.26 61.268 130 7.36 3.71 10.93
5/18/2021 9:45:00 PM 16.22 61.196 130 7.36 3.26 10.92
5/18/2021 10:00:00 PM 16.2 61.16 130 7.36 2.96 10.91
5/18/2021 10:15:00 PM 16.18 61.124 130 7.35 2.94 10.89
5/18/2021 10:30:00 PM 16.18 61.124 130 7.35 3.07 10.88
5/18/2021 10:45:00 PM 16.17 61.106 130 7.35 2.88 10.87
5/18/2021 11:00:00 PM 16.17 61.106 130 7.35 3 10.85
5/18/2021 11:15:00 PM 16.17 61.106 130 7.34 2.96 10.83
5/18/2021 11:30:00 PM 16.16 61.088 130 7.34 2.97 10.81
5/18/2021 11:45:00 PM 16.16 61.088 131 7.33 2.96 10.79
5/19/2021 12:00:00 AM 16.15 61.07 131 7.33 3.48 10.77
5/19/2021 12:15:00 AM 16.14 61.052 131 7.33 2.8 10.76
5/19/2021 12:30:00 AM 16.14 61.052 131 7.33 3.18 10.74
5/19/2021 12:45:00 AM 16.13 61.034 131 7.32 2.96 10.73
5/19/2021 1:00:00 AM 16.13 61.034 131 7.32 2.96 10.72
5/19/2021 1:15:00 AM 16.12 61.016 131 7.32 2.89 10.7
5/19/2021 1:30:00 AM 16.1 60.98 131 7.32 3.23 10.69
5/19/2021 1:45:00 AM 16.07 60.926 131 7.31 3.29 10.68
5/19/2021 2:00:00 AM 16.04 60.872 131 7.31 3.12 10.67
5/19/2021 2:15:00 AM 16.01 60.818 131 7.31 3.01 10.66
5/19/2021 2:30:00 AM 15.98 60.764 132 7.31 3.01 10.64
5/19/2021 2:45:00 AM 15.95 60.71 132 7.31 3.05 10.64
5/19/2021 3:00:00 AM 15.93 60.674 132 7.3 3.04 10.63
5/19/2021 3:15:00 AM 15.91 60.638 132 7.3 3.13 10.62
5/19/2021 3:30:00 AM 15.88 60.584 133 7.31 3.15 10.63
5/19/2021 3:45:00 AM 15.85 60.53 137 7.3 2.39 10.67
5/19/2021 4:00:00 AM 15.86 60.548 133 7.28 3.24 10.59
5/19/2021 4:15:00 AM 15.84 60.512 132 7.29 3.31 10.56
5/19/2021 4:30:00 AM 15.82 60.476 132 7.29 3.14 10.54
5/19/2021 4:45:00 AM 15.8 60.44 132 7.28 3.27 10.53
5/19/2021 5:00:00 AM 15.77 60.386 132 7.28 3.35 10.52
5/19/2021 5:15:00 AM 15.74 60.332 133 7.28 3.39 10.5
5/19/2021 5:30:00 AM 15.71 60.278 133 7.28 3.01 10.48
5/19/2021 5:45:00 AM 15.68 60.224 133 7.28 2.92 10.48
5/19/2021 6:00:00 AM 15.64 60.152 133 7.27 3.1 10.48
5/19/2021 6:15:00 AM 15.62 60.116 133 7.28 2.96 10.47
5/19/2021 6:30:00 AM 15.59 60.062 133 7.27 3.1 10.46
5/19/2021 6:45:00 AM 15.57 60.026 133 7.27 3.01 10.46
5/19/2021 7:00:00 AM 15.55 59.99 133 7.27 3 10.47
5/19/2021 7:15:00 AM 15.53 59.954 134 7.27 3.06 10.47
5/19/2021 7:30:00 AM 15.52 59.936 134 7.27 2.95 10.47
5/19/2021 7:45:00 AM 15.52 59.936 134 7.28 3.06 10.47
5/19/2021 8:00:00 AM 15.53 59.954 134 7.27 3.15 10.48
5/19/2021 8:15:00 AM 15.54 59.972 134 7.28 2.94 10.49
5/19/2021 8:30:00 AM 15.56 60.008 134 7.28 2.91 10.49
5/19/2021 8:45:00 AM 15.59 60.062 134 7.28 2.98 10.51
5/19/2021 9:00:00 AM 15.61 60.098 134 7.28 3.01 10.51
5/19/2021 9:15:00 AM 15.65 60.17 134 7.29 2.81 10.51
5/19/2021 9:30:00 AM 15.7 60.26 135 7.29 2.99 10.53
5/19/2021 9:45:00 AM 15.75 60.35 135 7.29 2.99 10.54
5/19/2021 10:00:00 AM 15.81 60.458 135 7.3 2.92 10.55
5/19/2021 10:15:00 AM 15.87 60.566 135 7.3 2.83 10.57
5/19/2021 10:30:00 AM 15.94 60.692 135 7.3 2.82 10.58
5/19/2021 10:45:00 AM 16.02 60.836 135 7.31 2.81 10.58
5/19/2021 11:00:00 AM 16.1 60.98 135 7.31 3.47 10.6
5/19/2021 11:15:00 AM 16.17 61.106 136 7.33 3.56 10.64
5/19/2021 11:30:00 AM 16.29 61.322 141 7.3 1.96 10.62
5/19/2021 11:45:00 AM 16.36 61.448 137 7.29 2.74 10.61
5/19/2021 12:00:00 PM 16.47 61.646 135 7.32 3.04 10.65
5/19/2021 12:15:00 PM 16.58 61.844 135 7.33 2.95 10.66
5/19/2021 12:30:00 PM 16.67 62.006 136 7.33 2.74 10.67
5/19/2021 12:45:00 PM 16.79 62.222 136 7.34 2.78 10.68
5/19/2021 1:00:00 PM 16.89 62.402 136 7.34 2.72 10.69
5/19/2021 1:15:00 PM 17 62.6 136 7.35 2.7 10.7
5/19/2021 1:30:00 PM 17.1 62.78 136 7.35 2.58 10.71
5/19/2021 1:45:00 PM 17.2 62.96 136 7.36 2.7 10.7
5/19/2021 2:00:00 PM 17.31 63.158 136 7.36 2.57 10.72
5/19/2021 2:15:00 PM 17.4 63.32 136 7.36 2.65 10.72
5/19/2021 2:30:00 PM 17.5 63.5 136 7.37 2.72 10.72
5/19/2021 2:45:00 PM 17.59 63.662 136 7.38 2.79 10.73
5/19/2021 3:00:00 PM 17.68 63.824 136 7.38 2.89 10.73
5/19/2021 3:15:00 PM 17.75 63.95 136 7.38 2.83 10.74
5/19/2021 3:30:00 PM 17.82 64.076 136 7.39 2.73 10.74
5/19/2021 3:45:00 PM 17.9 64.22 136 7.39 2.75 10.75
5/19/2021 4:00:00 PM 17.96 64.328 136 7.39 3 10.76
5/19/2021 4:15:00 PM 18.01 64.418 137 7.4 2.82 10.76
5/19/2021 4:30:00 PM 18.05 64.49 136 7.4 3.37 10.76
5/19/2021 4:45:00 PM 18.09 64.562 137 7.4 2.88 10.77
5/19/2021 5:00:00 PM 18.12 64.616 137 7.41 2.84 10.77
5/19/2021 5:15:00 PM 18.16 64.688 137 7.41 2.77 10.77
5/19/2021 5:30:00 PM 18.17 64.706 137 7.41 2.74 10.78
5/19/2021 5:45:00 PM 18.18 64.724 137 7.41 2.79 10.78
5/19/2021 6:00:00 PM 18.18 64.724 137 7.42 2.59 10.78
5/19/2021 6:15:00 PM 18.17 64.706 137 7.42 2.75 10.78
5/19/2021 6:30:00 PM 18.16 64.688 137 7.41 2.82 10.76
5/19/2021 6:45:00 PM 18.14 64.652 137 7.42 2.97 10.75
5/19/2021 7:00:00 PM 18.13 64.634 137 7.41 2.72 10.76
5/19/2021 7:15:00 PM 18.11 64.598 137 7.41 3.18 10.74
5/19/2021 7:30:00 PM 18.09 64.562 137 7.41 2.81 10.73
5/19/2021 7:45:00 PM 18.06 64.508 137 7.41 2.69 10.72
5/19/2021 8:00:00 PM 18.04 64.472 137 7.41 2.97 10.7
5/19/2021 8:15:00 PM 18.02 64.436 138 7.4 3.31 10.69
5/19/2021 8:30:00 PM 18 64.4 138 7.4 2.71 10.67
5/19/2021 8:45:00 PM 17.98 64.364 138 7.39 2.77 10.66
5/19/2021 9:00:00 PM 17.96 64.328 138 7.39 4.77 10.63
5/19/2021 9:15:00 PM 17.94 64.292 138 7.38 2.94 10.61
5/19/2021 9:30:00 PM 17.92 64.256 138 7.38 2.87 10.6
5/19/2021 9:45:00 PM 17.91 64.238 138 7.37 2.67 10.59
5/19/2021 10:00:00 PM 17.89 64.202 138 7.37 2.76 10.56
5/19/2021 10:15:00 PM 17.87 64.166 138 7.37 2.77 10.55
5/19/2021 10:30:00 PM 17.86 64.148 138 7.36 2.92 10.53
5/19/2021 10:45:00 PM 17.83 64.094 138 7.35 2.73 10.51
5/19/2021 11:00:00 PM 17.82 64.076 138 7.35 3.05 10.5
5/19/2021 11:15:00 PM 17.81 64.058 138 7.35 3.04 10.47
5/19/2021 11:30:00 PM 17.8 64.04 138 7.34 2.68 10.46
5/19/2021 11:45:00 PM 17.79 64.022 138 7.34 2.84 10.43
5/20/2021 12:00:00 AM 17.78 64.004 138 7.33 2.68 10.41
5/20/2021 12:15:00 AM 17.77 63.986 138 7.33 2.51 10.39
5/20/2021 12:30:00 AM 17.77 63.986 138 7.32 2.78 10.37
5/20/2021 12:45:00 AM 17.76 63.968 138 7.32 2.66 10.35
5/20/2021 1:00:00 AM 17.75 63.95 138 7.32 2.68 10.33
5/20/2021 1:15:00 AM 17.73 63.914 138 7.32 2.69 10.32
5/20/2021 1:30:00 AM 17.72 63.896 138 7.31 2.68 10.31
5/20/2021 1:45:00 AM 17.7 63.86 138 7.31 2.89 10.29
5/20/2021 2:00:00 AM 17.69 63.842 138 7.3 2.74 10.27
5/20/2021 2:15:00 AM 17.68 63.824 138 7.3 2.83 10.26
5/20/2021 2:30:00 AM 17.66 63.788 139 7.3 3.04 10.24
5/20/2021 2:45:00 AM 17.65 63.77 139 7.3 2.87 10.23
5/20/2021 3:00:00 AM 17.63 63.734 139 7.3 2.73 10.21
5/20/2021 3:15:00 AM 17.61 63.698 139 7.29 2.79 10.21
5/20/2021 3:30:00 AM 17.6 63.68 139 7.29 2.97 10.19
5/20/2021 3:45:00 AM 17.58 63.644 139 7.29 2.88 10.18
5/20/2021 4:00:00 AM 17.56 63.608 139 7.29 2.87 10.17
5/20/2021 4:15:00 AM 17.54 63.572 139 7.28 2.82 10.15
5/20/2021 4:30:00 AM 17.52 63.536 139 7.28 2.73 10.14
5/20/2021 4:45:00 AM 17.5 63.5 139 7.28 3.07 10.13
5/20/2021 5:00:00 AM 17.48 63.464 139 7.28 2.97 10.11
5/20/2021 5:15:00 AM 17.45 63.41 139 7.28 2.92 10.1
5/20/2021 5:30:00 AM 17.43 63.374 139 7.27 3.25 10.09
5/20/2021 5:45:00 AM 17.41 63.338 139 7.27 2.9 10.08
5/20/2021 6:00:00 AM 17.39 63.302 139 7.27 3.32 10.08
5/20/2021 6:15:00 AM 17.37 63.266 139 7.27 2.84 10.08
5/20/2021 6:30:00 AM 17.35 63.23 139 7.27 3.02 10.08
5/20/2021 6:45:00 AM 17.33 63.194 139 7.27 3.35 10.08
5/20/2021 7:00:00 AM 17.31 63.158 139 7.27 2.72 10.09
5/20/2021 7:15:00 AM 17.29 63.122 139 7.27 2.78 10.08
5/20/2021 7:30:00 AM 17.29 63.122 139 7.27 3.05 10.09
5/20/2021 7:45:00 AM 17.29 63.122 139 7.28 2.99 10.1
5/20/2021 8:00:00 AM 17.29 63.122 139 7.28 2.89 10.11
5/20/2021 8:15:00 AM 17.28 63.104 139 7.28 2.94 10.12
5/20/2021 8:30:00 AM 17.29 63.122 139 7.28 2.46 10.13
5/20/2021 8:45:00 AM 17.3 63.14 139 7.29 2.59 10.13
5/20/2021 9:00:00 AM 17.31 63.158 139 7.29 2.78 10.14
5/20/2021 9:15:00 AM 17.34 63.212 139 7.29 2.5 10.15
5/20/2021 9:30:00 AM 17.39 63.302 139 7.29 2.63 10.16
5/20/2021 9:45:00 AM 17.46 63.428 139 7.29 3.33 10.18
5/20/2021 10:00:00 AM 17.48 63.464 145 7.36 2.49 10.32
5/20/2021 10:15:00 AM 17.62 63.716 142 7.3 2.52 10.25
5/20/2021 10:30:00 AM 17.66 63.788 139 7.31 2.86 10.24
5/20/2021 10:45:00 AM 17.74 63.932 139 7.32 2.58 10.26
5/20/2021 11:00:00 AM 17.81 64.058 139 7.32 2.46 10.27
5/20/2021 11:15:00 AM 17.89 64.202 139 7.33 2.76 10.29
5/20/2021 11:30:00 AM 17.96 64.328 139 7.33 2.64 10.3
5/20/2021 11:45:00 AM 18.06 64.508 139 7.33 3.06 10.32
5/20/2021 12:00:00 PM 18.14 64.652 139 7.33 2.46 10.33
5/20/2021 12:15:00 PM 18.24 64.832 139 7.35 2.61 10.35
5/20/2021 12:30:00 PM 18.35 65.03 139 7.35 2.92 10.35
5/20/2021 12:45:00 PM 18.45 65.21 139 7.35 2.91 10.37
5/20/2021 1:00:00 PM 18.55 65.39 139 7.36 2.64 10.39
5/20/2021 1:15:00 PM 18.65 65.57 139 7.36 3.17 10.4
5/20/2021 1:30:00 PM 18.74 65.732 139 7.37 3.76 10.4
5/20/2021 1:45:00 PM 18.86 65.948 140 7.37 3.14 10.42
5/20/2021 2:00:00 PM 18.95 66.11 140 7.38 2.69 10.43
5/20/2021 2:15:00 PM 19.06 66.308 139 7.39 2.96 10.45
5/20/2021 2:30:00 PM 19.14 66.452 140 7.39 2.62 10.45
5/20/2021 2:45:00 PM 19.23 66.614 140 7.39 3.01 10.46
5/20/2021 3:00:00 PM 19.31 66.758 140 7.39 3.05 10.47
5/20/2021 3:15:00 PM 19.37 66.866 140 7.4 2.73 10.47
5/20/2021 3:30:00 PM 19.44 66.992 140 7.41 3 10.47
5/20/2021 3:45:00 PM 19.5 67.1 140 7.41 2.7 10.47
5/20/2021 4:00:00 PM 19.55 67.19 140 7.41 2.95 10.48
5/20/2021 4:15:00 PM 19.59 67.262 140 7.42 2.9 10.48
5/20/2021 4:30:00 PM 19.65 67.37 140 7.42 3.03 10.49
5/20/2021 4:45:00 PM 19.7 67.46 140 7.42 2.83 10.49
5/20/2021 5:00:00 PM 19.73 67.514 140 7.43 2.81 10.49
5/20/2021 5:15:00 PM 19.75 67.55 140 7.43 2.92 10.49
5/20/2021 5:30:00 PM 19.78 67.604 140 7.43 2.68 10.49
5/20/2021 5:45:00 PM 19.79 67.622 140 7.44 2.92 10.49
5/20/2021 6:00:00 PM 19.8 67.64 140 7.44 2.82 10.49
5/20/2021 6:15:00 PM 19.03 66.254 149 7.36 2.53 10.25
5/20/2021 6:30:00 PM 19.22 66.596 146 7.31 1.84 10.28
5/20/2021 6:45:00 PM 19.71 67.478 141 7.43 2.67 10.45
5/20/2021 7:00:00 PM 19.73 67.514 141 7.43 2.89 10.47
5/20/2021 7:15:00 PM 19.71 67.478 141 7.43 2.72 10.45
5/20/2021 7:30:00 PM 19.71 67.478 141 7.43 2.8 10.44
5/20/2021 7:45:00 PM 19.68 67.424 141 7.43 2.74 10.43
5/20/2021 8:00:00 PM 19.66 67.388 141 7.42 2.79 10.4
5/20/2021 8:15:00 PM 19.63 67.334 141 7.42 2.56 10.39
5/20/2021 8:30:00 PM 19.6 67.28 141 7.41 2.76 10.37
5/20/2021 8:45:00 PM 19.57 67.226 141 7.41 2.67 10.35
5/20/2021 9:00:00 PM 19.54 67.172 141 7.41 2.68 10.34
5/20/2021 9:15:00 PM 19.51 67.118 141 7.4 2.68 10.32
5/20/2021 9:30:00 PM 19.47 67.046 141 7.4 2.78 10.3
5/20/2021 9:45:00 PM 19.44 66.992 141 7.39 2.78 10.29
5/20/2021 10:00:00 PM 19.4 66.92 141 7.39 2.95 10.28
5/20/2021 10:15:00 PM 19.38 66.884 141 7.39 2.69 10.25
5/20/2021 10:30:00 PM 19.35 66.83 141 7.38 2.87 10.23
5/20/2021 10:45:00 PM 19.32 66.776 141 7.38 2.87 10.21
5/20/2021 11:00:00 PM 19.29 66.722 141 7.37 2.81 10.19
5/20/2021 11:15:00 PM 19.26 66.668 141 7.37 2.78 10.18
5/20/2021 11:30:00 PM 19.23 66.614 141 7.36 2.75 10.15
5/20/2021 11:45:00 PM 19.2 66.56 141 7.35 2.65 10.12
5/21/2021 12:00:00 AM 19.17 66.506 141 7.35 2.61 10.1
5/21/2021 12:15:00 AM 19.14 66.452 141 7.34 2.73 10.07
5/21/2021 12:30:00 AM 19.13 66.434 141 7.34 2.71 10.05
5/21/2021 12:45:00 AM 19.11 66.398 142 7.34 2.75 10.03
5/21/2021 1:00:00 AM 19.09 66.362 142 7.33 2.82 10.01
5/21/2021 1:15:00 AM 19.07 66.326 142 7.33 2.62 9.99
5/21/2021 1:30:00 AM 19.05 66.29 142 7.33 2.58 9.97
5/21/2021 1:45:00 AM 19.03 66.254 142 7.32 2.79 9.95
5/21/2021 2:00:00 AM 19.01 66.218 142 7.32 2.72 9.93
5/21/2021 2:15:00 AM 19 66.2 142 7.32 2.72 9.92
5/21/2021 2:30:00 AM 18.99 66.182 142 7.31 2.69 9.9
5/21/2021 2:45:00 AM 18.98 66.164 142 7.31 2.71 9.88
5/21/2021 3:00:00 AM 18.98 66.164 142 7.31 2.58 9.87
5/21/2021 3:15:00 AM 18.98 66.164 142 7.31 2.71 9.85
5/21/2021 3:30:00 AM 18.98 66.164 142 7.3 2.74 9.84
5/21/2021 3:45:00 AM 18.98 66.164 142 7.3 2.84 9.82
5/21/2021 4:00:00 AM 18.97 66.146 143 7.29 2.8 9.81
5/21/2021 4:15:00 AM 18.96 66.128 143 7.29 2.71 9.8
5/21/2021 4:30:00 AM 18.94 66.092 143 7.29 2.78 9.78
5/21/2021 4:45:00 AM 18.92 66.056 143 7.28 2.77 9.77
5/21/2021 5:00:00 AM 18.89 66.002 143 7.28 2.9 9.75
5/21/2021 5:15:00 AM 18.86 65.948 143 7.28 2.68 9.75
5/21/2021 5:30:00 AM 18.84 65.912 143 7.28 2.76 9.74
5/21/2021 5:45:00 AM 18.81 65.858 143 7.28 2.59 9.73
5/21/2021 6:00:00 AM 18.77 65.786 143 7.28 2.77 9.72
5/21/2021 6:15:00 AM 18.75 65.75 143 7.28 2.65 9.72
5/21/2021 6:30:00 AM 18.72 65.696 143 7.28 2.64 9.72
5/21/2021 6:45:00 AM 18.7 65.66 143 7.28 2.75 9.73
5/21/2021 7:00:00 AM 18.69 65.642 143 7.28 2.68 9.73
5/21/2021 7:15:00 AM 18.67 65.606 143 7.28 2.77 9.74
5/21/2021 7:30:00 AM 18.67 65.606 143 7.29 2.76 9.74
5/21/2021 7:45:00 AM 18.66 65.588 144 7.29 2.68 9.75
5/21/2021 8:00:00 AM 18.67 65.606 144 7.29 2.79 9.76
5/21/2021 8:15:00 AM 18.69 65.642 144 7.3 2.68 9.77
5/21/2021 8:30:00 AM 18.71 65.67799 144 7.3 2.59 9.79
5/21/2021 8:45:00 AM 18.73 65.714 144 7.3 2.52 9.8
5/21/2021 9:00:00 AM 18.78 65.804 151 7.41 3.23 10.01
5/21/2021 9:15:00 AM 18.94 66.092 150 7.32 2.07 9.98
5/21/2021 9:30:00 AM 18.84 65.912 145 7.31 2.84 9.86
5/21/2021 9:45:00 AM 18.88 65.984 145 7.32 2.63 9.86
5/21/2021 10:00:00 AM 18.93 66.074 145 7.33 2.54 9.88
5/21/2021 10:15:00 AM 18.99 66.182 145 7.33 2.54 9.9
5/21/2021 10:30:00 AM 19.06 66.308 145 7.33 2.67 9.91
5/21/2021 10:45:00 AM 19.12 66.416 145 7.34 2.74 9.93
5/21/2021 11:00:00 AM 19.2 66.56 145 7.35 2.52 9.94
5/21/2021 11:15:00 AM 19.28 66.704 146 7.35 2.7 9.96
5/21/2021 11:30:00 AM 19.36 66.848 146 7.36 2.72 9.98
5/21/2021 11:45:00 AM 19.44 66.992 146 7.36 2.56 10
5/21/2021 12:00:00 PM 19.53 67.154 146 7.37 2.59 10.02
5/21/2021 12:15:00 PM 19.61 67.298 146 7.37 2.43 10.03
5/21/2021 12:30:00 PM 19.7 67.46 146 7.38 2.59 10.05
5/21/2021 12:45:00 PM 19.78 67.604 147 7.39 2.57 10.07
5/21/2021 1:00:00 PM 19.88 67.784 147 7.39 2.48 10.08
5/21/2021 1:15:00 PM 19.99 67.982 147 7.4 2.79 10.11
5/21/2021 1:30:00 PM 20.07 68.126 147 7.4 2.55 10.12
5/21/2021 1:45:00 PM 20.17 68.306 147 7.41 2.63 10.13
5/21/2021 2:00:00 PM 20.26 68.468 147 7.41 2.53 10.14
5/21/2021 2:15:00 PM 20.36 68.648 148 7.42 2.43 10.17
5/21/2021 2:30:00 PM 20.47 68.846 148 7.43 2.42 10.18
5/21/2021 2:45:00 PM 20.54 68.972 148 7.43 2.38 10.18
5/21/2021 3:00:00 PM 20.64 69.152 148 7.44 2.59 10.2
5/21/2021 3:15:00 PM 20.7 69.26 148 7.44 2.45 10.2
5/21/2021 3:30:00 PM 20.8 69.44 148 7.44 2.57 10.22
5/21/2021 3:45:00 PM 20.87 69.566 148 7.45 2.51 10.22
5/21/2021 4:00:00 PM 20.93 69.674 148 7.45 2.31 10.22
5/21/2021 4:15:00 PM 20.98 69.764 149 7.46 2.53 10.22
5/21/2021 4:30:00 PM 21.04 69.872 149 7.46 2.51 10.23
5/21/2021 4:45:00 PM 21.08 69.944 149 7.47 2.4 10.24
5/21/2021 5:00:00 PM 21.11 69.998 149 7.47 2.69 10.24
5/21/2021 5:15:00 PM 21.14 70.052 149 7.47 2.66 10.25
5/21/2021 5:30:00 PM 21.15 70.07 149 7.48 2.59 10.25
5/21/2021 5:45:00 PM 21.16 70.088 149 7.48 2.38 10.25
5/21/2021 6:00:00 PM 21.16 70.088 149 7.48 2.44 10.25
5/21/2021 6:15:00 PM 21.15 70.07 150 7.48 2.43 10.25
5/21/2021 6:30:00 PM 21.14 70.052 150 7.48 2.4 10.23
5/21/2021 6:45:00 PM 21.12 70.016 150 7.48 2.46 10.24
5/21/2021 7:00:00 PM 21.12 70.016 150 7.48 2.46 10.23
5/21/2021 7:15:00 PM 21.09 69.962 150 7.47 2.44 10.21
5/21/2021 7:30:00 PM 21.06 69.908 150 7.47 2.39 10.2
5/21/2021 7:45:00 PM 21.03 69.854 150 7.46 2.46 10.18
5/21/2021 8:00:00 PM 21 69.8 150 7.46 2.42 10.16
5/21/2021 8:15:00 PM 20.96 69.728 150 7.45 2.44 10.14
5/21/2021 8:30:00 PM 20.92 69.656 151 7.45 2.31 10.12
5/21/2021 8:45:00 PM 20.89 69.602 151 7.44 2.56 10.1
5/21/2021 9:00:00 PM 20.85 69.53 151 7.43 2.43 10.08
5/21/2021 9:15:00 PM 20.82 69.476 151 7.43 2.43 10.05
5/21/2021 9:30:00 PM 20.78 69.404 151 7.42 2.4 10.02
5/21/2021 9:45:00 PM 20.75 69.35 152 7.41 2.39 10.01
5/21/2021 10:00:00 PM 20.72 69.296 152 7.41 2.58 9.99
5/21/2021 10:15:00 PM 20.7 69.26 152 7.4 2.54 9.96
5/21/2021 10:30:00 PM 20.67 69.206 152 7.4 2.34 9.94
5/21/2021 10:45:00 PM 20.65 69.17 152 7.39 2.4 9.93
5/21/2021 11:00:00 PM 20.63 69.134 152 7.39 2.46 9.91
5/21/2021 11:15:00 PM 20.6 69.08 152 7.38 2.49 9.89
5/21/2021 11:30:00 PM 20.58 69.044 153 7.38 2.6 9.86
5/21/2021 11:45:00 PM 20.56 69.008 153 7.37 2.67 9.84
5/22/2021 12:00:00 AM 20.54 68.972 153 7.36 2.28 9.82
5/22/2021 12:15:00 AM 20.52 68.936 153 7.36 2.48 9.79
5/22/2021 12:30:00 AM 20.51 68.918 153 7.35 2.31 9.77
5/22/2021 12:45:00 AM 20.49 68.882 153 7.35 2.33 9.74
5/22/2021 1:00:00 AM 20.48 68.864 153 7.34 2.26 9.72
5/22/2021 1:15:00 AM 20.48 68.864 153 7.33 2.27 9.69
5/22/2021 1:30:00 AM 20.47 68.846 153 7.33 2.41 9.67
5/22/2021 1:45:00 AM 20.46 68.828 153 7.32 2.28 9.65
5/22/2021 2:00:00 AM 20.45 68.81 153 7.32 2.56 9.63
5/22/2021 2:15:00 AM 20.45 68.81 153 7.32 2.27 9.61
5/22/2021 2:30:00 AM 20.45 68.81 153 7.31 2.38 9.59
5/22/2021 2:45:00 AM 20.44 68.792 153 7.31 2.31 9.57
5/22/2021 3:00:00 AM 20.44 68.792 153 7.31 2.23 9.56
5/22/2021 3:15:00 AM 20.43 68.774 153 7.3 2.59 9.53
5/22/2021 3:30:00 AM 20.21 68.378 159 7.4 4.11 9.77
5/22/2021 3:45:00 AM 20.29 68.522 159 7.27 4.8 9.72
5/22/2021 4:00:00 AM 20.39 68.702 154 7.29 2.82 9.53
5/22/2021 4:15:00 AM 20.41 68.738 154 7.29 3.24 9.48
5/22/2021 4:30:00 AM 20.4 68.72 154 7.29 3.15 9.46
5/22/2021 4:45:00 AM 20.4 68.72 154 7.28 2.37 9.45
5/22/2021 5:00:00 AM 20.39 68.702 154 7.29 2.36 9.44
5/22/2021 5:15:00 AM 20.38 68.684 154 7.28 2.48 9.41
5/22/2021 5:30:00 AM 20.36 68.648 154 7.28 2.53 9.4
5/22/2021 5:45:00 AM 20.34 68.612 154 7.28 2.33 9.39
5/22/2021 6:00:00 AM 20.33 68.594 154 7.28 2.27 9.38
5/22/2021 6:15:00 AM 20.31 68.558 154 7.28 2.41 9.38
5/22/2021 6:30:00 AM 20.31 68.558 154 7.28 2.24 9.38
5/22/2021 6:45:00 AM 20.3 68.54 154 7.28 2.72 9.38
5/22/2021 7:00:00 AM 20.3 68.54 154 7.29 2.24 9.38
5/22/2021 7:15:00 AM 20.3 68.54 154 7.29 2.2 9.4
5/22/2021 7:30:00 AM 20.3 68.54 154 7.29 2.26 9.41
5/22/2021 7:45:00 AM 20.3 68.54 154 7.3 2.25 9.42
5/22/2021 8:00:00 AM 20.31 68.558 154 7.3 2.15 9.44
5/22/2021 8:15:00 AM 20.32 68.576 154 7.3 2.12 9.45
5/22/2021 8:30:00 AM 20.33 68.594 154 7.3 2.96 9.46
5/22/2021 8:45:00 AM 20.34 68.612 154 7.31 2.2 9.47
5/22/2021 9:00:00 AM 20.35 68.63 155 7.31 2.39 9.47
5/22/2021 9:15:00 AM 20.37 68.666 155 7.32 2.2 9.49
5/22/2021 9:30:00 AM 20.4 68.72 155 7.32 2.08 9.51
5/22/2021 9:45:00 AM 20.43 68.774 155 7.32 2.15 9.52
5/22/2021 10:00:00 AM 20.46 68.828 155 7.33 1.99 9.54
5/22/2021 10:15:00 AM 20.48 68.864 155 7.33 2.03 9.55
5/22/2021 10:30:00 AM 20.52 68.936 155 7.34 2.07 9.58
5/22/2021 10:45:00 AM 20.56 69.008 155 7.34 2 9.6
5/22/2021 11:00:00 AM 20.59 69.062 155 7.35 2.03 9.62
5/22/2021 11:15:00 AM 20.63 69.134 155 7.36 2.18 9.64
5/22/2021 11:30:00 AM 20.67 69.206 155 7.36 2.16 9.66
5/22/2021 11:45:00 AM 20.72 69.296 155 7.37 2.18 9.69
5/22/2021 12:00:00 PM 20.76 69.368 156 7.38 2.14 9.73
5/22/2021 12:15:00 PM 20.8 69.44 156 7.39 2.11 9.75
5/22/2021 12:30:00 PM 20.83 69.494 156 7.4 2.05 9.78
5/22/2021 12:45:00 PM 20.89 69.602 156 7.41 2.06 9.79
5/22/2021 1:00:00 PM 20.96 69.728 156 7.41 2.01 9.82
5/22/2021 1:15:00 PM 21.04 69.872 156 7.42 2.04 9.86
5/22/2021 1:30:00 PM 21.1 69.98 156 7.43 2.04 9.87
5/22/2021 1:45:00 PM 21.15 70.07 157 7.44 1.99 9.89
5/22/2021 2:00:00 PM 21.21 70.17799 157 7.45 2.08 9.92
5/22/2021 2:15:00 PM 21.26 70.268 157 7.46 2.06 9.94
5/22/2021 2:30:00 PM 21.31 70.358 157 7.47 2.21 9.96
5/22/2021 2:45:00 PM 21.36 70.448 157 7.47 1.99 9.97
5/22/2021 3:00:00 PM 21.42 70.556 157 7.48 1.91 9.99
5/22/2021 3:15:00 PM 21.47 70.646 157 7.49 1.94 10.01
5/22/2021 3:30:00 PM 21.51 70.718 157 7.5 1.96 10.01
5/22/2021 3:45:00 PM 21.55 70.79 158 7.5 2 10.03
5/22/2021 4:00:00 PM 21.59 70.862 158 7.51 2.12 10.05
5/22/2021 4:15:00 PM 21.61 70.898 158 7.51 2.11 10.05
5/22/2021 4:30:00 PM 21.63 70.934 158 7.52 2.02 10.05
5/22/2021 4:45:00 PM 21.64 70.952 158 7.52 1.97 10.05
5/22/2021 5:00:00 PM 21.64 70.952 158 7.52 1.98 10.05
5/22/2021 5:15:00 PM 21.64 70.952 158 7.52 1.96 10.06
5/22/2021 5:30:00 PM 21.65 70.97 158 7.53 2.05 10.07
5/22/2021 5:45:00 PM 21.66 70.988 158 7.53 2.01 10.07
5/22/2021 6:00:00 PM 21.67 71.006 158 7.53 2.03 10.08
5/22/2021 6:15:00 PM 21.68 71.024 158 7.54 2.03 10.07
5/22/2021 6:30:00 PM 21.68 71.024 158 7.53 2.01 10.05
5/22/2021 6:45:00 PM 21.68 71.024 159 7.53 2.07 10.05
5/22/2021 7:00:00 PM 21.66 70.988 159 7.53 2.11 10.05
5/22/2021 7:15:00 PM 21.64 70.952 159 7.53 2.08 10.02
5/22/2021 7:30:00 PM 21.35 70.43 163 7.54 3.67 9.82
5/22/2021 7:45:00 PM 21.25 70.25 163 7.41 2.42 9.74
5/22/2021 8:00:00 PM 21.5 70.7 159 7.48 2.23 9.93
5/22/2021 8:15:00 PM 21.52 70.736 159 7.49 2.42 9.94
5/22/2021 8:30:00 PM 21.5 70.7 159 7.49 2.39 9.93
5/22/2021 8:45:00 PM 21.47 70.646 159 7.48 2.43 9.91
5/22/2021 9:00:00 PM 21.44 70.592 159 7.47 2.39 9.89
5/22/2021 9:15:00 PM 21.42 70.556 159 7.46 2.1 9.86
5/22/2021 9:30:00 PM 21.39 70.502 159 7.45 2.28 9.83
5/22/2021 9:45:00 PM 21.36 70.448 159 7.44 2.28 9.81
5/22/2021 10:00:00 PM 21.32 70.376 159 7.44 2.34 9.79
5/22/2021 10:15:00 PM 21.28 70.304 159 7.43 2.17 9.77
5/22/2021 10:30:00 PM 21.24 70.232 159 7.42 2.25 9.74
5/22/2021 10:45:00 PM 21.2 70.16 159 7.41 2.29 9.72
5/22/2021 11:00:00 PM 21.17 70.106 159 7.41 2.27 9.7
5/22/2021 11:15:00 PM 21.13 70.034 159 7.4 2.34 9.67
5/22/2021 11:30:00 PM 21.1 69.98 160 7.4 2.1 9.66
5/22/2021 11:45:00 PM 21.07 69.926 160 7.39 2.19 9.63
5/23/2021 12:00:00 AM 21.05 69.89 160 7.38 2.28 9.61
5/23/2021 12:15:00 AM 21.03 69.854 160 7.38 2.15 9.59
5/23/2021 12:30:00 AM 21.02 69.836 160 7.37 2.18 9.57
5/23/2021 12:45:00 AM 21 69.8 160 7.36 2.36 9.54
5/23/2021 1:00:00 AM 20.99 69.782 160 7.36 2.29 9.52
5/23/2021 1:15:00 AM 20.97 69.746 160 7.35 2.28 9.49
5/23/2021 1:30:00 AM 20.96 69.728 160 7.34 2.23 9.48
5/23/2021 1:45:00 AM 20.95 69.71 160 7.34 2.29 9.46
5/23/2021 2:00:00 AM 20.93 69.674 161 7.34 2.23 9.44
5/23/2021 2:15:00 AM 20.91 69.638 161 7.33 1.92 9.41
5/23/2021 2:30:00 AM 20.89 69.602 161 7.33 1.99 9.4
5/23/2021 2:45:00 AM 20.88 69.584 161 7.32 1.98 9.37
5/23/2021 3:00:00 AM 20.86 69.548 161 7.32 2.02 9.36
5/23/2021 3:15:00 AM 20.84 69.512 161 7.32 2.02 9.35
5/23/2021 3:30:00 AM 20.82 69.476 161 7.32 2.13 9.33
5/23/2021 3:45:00 AM 20.81 69.458 161 7.31 2.14 9.32
5/23/2021 4:00:00 AM 20.79 69.422 161 7.31 1.99 9.3
5/23/2021 4:15:00 AM 20.78 69.404 161 7.31 2.01 9.29
5/23/2021 4:30:00 AM 20.77 69.386 161 7.31 2.09 9.29
5/23/2021 4:45:00 AM 20.75 69.35 161 7.3 2.03 9.26
5/23/2021 5:00:00 AM 20.73 69.314 161 7.3 2.04 9.25
5/23/2021 5:15:00 AM 20.72 69.296 161 7.3 2.02 9.24
5/23/2021 5:30:00 AM 20.71 69.278 161 7.3 2.02 9.24
5/23/2021 5:45:00 AM 20.7 69.26 161 7.3 2.08 9.23
5/23/2021 6:00:00 AM 20.69 69.242 161 7.3 2.22 9.24
5/23/2021 6:15:00 AM 20.67 69.206 162 7.3 2.07 9.23
5/23/2021 6:30:00 AM 20.67 69.206 162 7.31 2.3 9.23
5/23/2021 6:45:00 AM 20.66 69.188 162 7.31 2.13 9.25
5/23/2021 7:00:00 AM 20.66 69.188 162 7.31 2.05 9.26
5/23/2021 7:15:00 AM 20.66 69.188 162 7.32 2.03 9.26
5/23/2021 7:30:00 AM 20.66 69.188 162 7.32 2.02 9.27
5/23/2021 7:45:00 AM 20.67 69.206 162 7.33 2.03 9.28
5/23/2021 8:00:00 AM 20.69 69.242 162 7.33 2.09 9.3
5/23/2021 8:15:00 AM 20.73 69.314 162 7.34 2.19 9.33
5/23/2021 8:30:00 AM 20.77 69.386 162 7.34 2.2 9.35
5/23/2021 8:45:00 AM 20.81 69.458 162 7.35 2.13 9.36
5/23/2021 9:00:00 AM 21 69.8 168 7.45 4.57 9.51
5/23/2021 9:15:00 AM 21.08 69.944 167 7.36 2.44 9.44
5/23/2021 9:30:00 AM 20.99 69.782 163 7.37 2.37 9.41
5/23/2021 9:45:00 AM 21.05 69.89 163 7.38 2.16 9.44
5/23/2021 10:00:00 AM 21.13 70.034 163 7.39 2.19 9.47
5/23/2021 10:15:00 AM 21.2 70.16 163 7.39 2.27 9.49
5/23/2021 10:30:00 AM 21.27 70.286 163 7.39 2.09 9.5
5/23/2021 10:45:00 AM 21.36 70.448 163 7.4 2.1 9.54
5/23/2021 11:00:00 AM 21.45 70.61 163 7.41 2.38 9.56
5/23/2021 11:15:00 AM 21.55 70.79 163 7.42 2.19 9.6
5/23/2021 11:30:00 AM 21.63 70.934 163 7.43 2.15 9.61
5/23/2021 11:45:00 AM 21.73 71.114 163 7.44 2.09 9.64
5/23/2021 12:00:00 PM 21.8 71.24 163 7.45 2.21 9.66
5/23/2021 12:15:00 PM 21.92 71.456 164 7.46 2.41 9.7
5/23/2021 12:30:00 PM 22 71.6 164 7.47 1.98 9.71
5/23/2021 12:45:00 PM 22.03 71.654 164 7.48 2 9.72
5/23/2021 1:00:00 PM 22.09 71.762 164 7.49 1.95 9.74
5/23/2021 1:15:00 PM 22.13 71.834 164 7.5 2.15 9.76
5/23/2021 1:30:00 PM 22.2 71.96 164 7.51 2.05 9.79
5/23/2021 1:45:00 PM 22.29 72.122 164 7.52 2.08 9.81
5/23/2021 2:00:00 PM 22.38 72.284 164 7.53 2.04 9.82
5/23/2021 2:15:00 PM 22.5 72.5 164 7.54 2.01 9.85
5/23/2021 2:30:00 PM 22.63 72.734 164 7.55 2.03 9.9
5/23/2021 2:45:00 PM 22.77 72.986 164 7.56 2.02 9.91
5/23/2021 3:00:00 PM 22.85 73.13 164 7.57 1.98 9.92
5/23/2021 3:15:00 PM 22.94 73.292 165 7.58 1.95 9.93
5/23/2021 3:30:00 PM 23.02 73.436 165 7.59 1.93 9.94
5/23/2021 3:45:00 PM 23.1 73.58 165 7.59 2.2 9.95
5/23/2021 4:00:00 PM 23.15 73.67 165 7.6 1.99 9.97
5/23/2021 4:15:00 PM 23.18 73.724 165 7.61 1.97 9.97
5/23/2021 4:30:00 PM 23.19 73.742 165 7.62 1.9 9.98
5/23/2021 4:45:00 PM 23.22 73.796 165 7.62 1.92 9.98
5/23/2021 5:00:00 PM 23.25 73.85 165 7.64 1.96 9.99
5/23/2021 5:15:00 PM 23.27 73.886 165 7.64 1.8 10
5/23/2021 5:30:00 PM 23.28 73.904 166 7.64 1.98 9.99
5/23/2021 5:45:00 PM 23.28 73.904 166 7.64 2.03 9.97
5/23/2021 6:00:00 PM 23.27 73.886 166 7.63 2.3 9.96
5/23/2021 6:15:00 PM 23.26 73.868 166 7.64 2.05 9.96
5/23/2021 6:30:00 PM 23.24 73.832 166 7.63 2.4 9.95
5/23/2021 6:45:00 PM 23.19 73.742 166 7.63 2.19 9.95
5/23/2021 7:00:00 PM 23.14 73.652 166 7.63 2.11 9.94
5/23/2021 7:15:00 PM 23.09 73.562 166 7.63 2.07 9.93
5/23/2021 7:30:00 PM 23.06 73.508 166 7.63 2.13 9.91
5/23/2021 7:45:00 PM 23.02 73.436 166 7.62 2.02 9.9
5/23/2021 8:00:00 PM 22.96 73.328 167 7.61 2.6 9.88
5/23/2021 8:15:00 PM 22.9 73.22 167 7.6 2.45 9.85
5/23/2021 8:30:00 PM 22.4 72.32 172 7.45 6.22 9.51
5/23/2021 8:45:00 PM 22.42 72.356 170 7.39 3.04 9.54
5/23/2021 9:00:00 PM 22.69 72.842 167 7.54 2.87 9.7
5/23/2021 9:15:00 PM 22.65 72.77 167 7.54 2.38 9.69
5/23/2021 9:30:00 PM 22.58 72.644 167 7.54 2.1 9.66
5/23/2021 9:45:00 PM 22.51 72.518 167 7.53 2.23 9.63
5/23/2021 10:00:00 PM 22.46 72.42799 167 7.52 2.09 9.6
5/23/2021 10:15:00 PM 22.39 72.302 167 7.51 2.21 9.58
5/23/2021 10:30:00 PM 22.33 72.194 167 7.5 2.15 9.54
5/23/2021 10:45:00 PM 22.29 72.122 167 7.49 2.23 9.51
5/23/2021 11:00:00 PM 22.26 72.068 167 7.48 2.15 9.5
5/23/2021 11:15:00 PM 22.22 71.996 167 7.48 2.05 9.48
5/23/2021 11:30:00 PM 22.18 71.924 167 7.47 2.19 9.46
5/23/2021 11:45:00 PM 22.14 71.852 167 7.46 2.16 9.44
5/24/2021 12:00:00 AM 22.08 71.744 167 7.45 2.3 9.42
5/24/2021 12:15:00 AM 22.04 71.672 168 7.44 2.13 9.39
5/24/2021 12:30:00 AM 21.98 71.564 168 7.43 2.84 9.37
5/24/2021 12:45:00 AM 21.93 71.474 168 7.43 2.79 9.35
5/24/2021 1:00:00 AM 21.89 71.402 168 7.42 2.74 9.33
5/24/2021 1:15:00 AM 21.86 71.348 168 7.41 2.46 9.3
5/24/2021 1:30:00 AM 21.82 71.276 168 7.41 2.73 9.28
5/24/2021 1:45:00 AM 21.78 71.204 168 7.4 2.47 9.25
5/24/2021 2:00:00 AM 21.76 71.168 168 7.39 2.4 9.24
5/24/2021 2:15:00 AM 21.72 71.096 168 7.39 2.47 9.22
5/24/2021 2:30:00 AM 21.67 71.006 168 7.38 2.45 9.2
5/24/2021 2:45:00 AM 21.63 70.934 168 7.38 2.37 9.19
5/24/2021 3:00:00 AM 21.58 70.844 168 7.38 2.92 9.18
5/24/2021 3:15:00 AM 21.54 70.772 168 7.37 2.54 9.17
5/24/2021 3:30:00 AM 21.51 70.718 168 7.37 2.63 9.15
5/24/2021 3:45:00 AM 21.47 70.646 168 7.36 2.39 9.14
5/24/2021 4:00:00 AM 21.43 70.574 169 7.36 2.56 9.12
5/24/2021 4:15:00 AM 21.39 70.502 169 7.36 2.61 9.12
5/24/2021 4:30:00 AM 21.35 70.43 169 7.35 2.45 9.11
5/24/2021 4:45:00 AM 21.31 70.358 169 7.35 2.27 9.1
5/24/2021 5:00:00 AM 21.27 70.286 169 7.35 2.28 9.09
5/24/2021 5:15:00 AM 21.24 70.232 169 7.35 2.31 9.08
5/24/2021 5:30:00 AM 21.21 70.17799 169 7.35 2.2 9.09
5/24/2021 5:45:00 AM 21.18 70.124 169 7.35 2.25 9.1
5/24/2021 6:00:00 AM 21.15 70.07 169 7.35 2.23 9.11
5/24/2021 6:15:00 AM 21.12 70.016 169 7.36 2.37 9.12
5/24/2021 6:30:00 AM 21.09 69.962 170 7.36 2.29 9.13
5/24/2021 6:45:00 AM 21.06 69.908 170 7.36 2.43 9.15
5/24/2021 7:00:00 AM 21.03 69.854 170 7.36 2.15 9.16
5/24/2021 7:15:00 AM 21 69.8 170 7.37 2.05 9.18
5/24/2021 7:30:00 AM 20.98 69.764 170 7.37 2.23 9.2
5/24/2021 7:45:00 AM 20.96 69.728 170 7.38 2.13 9.23
5/24/2021 8:00:00 AM 20.96 69.728 170 7.39 2.2 9.27
5/24/2021 8:15:00 AM 20.96 69.728 171 7.4 2.16 9.31
5/24/2021 8:30:00 AM 20.96 69.728 171 7.41 2.33 9.34
5/24/2021 8:45:00 AM 20.97 69.746 171 7.42 2.14 9.38
5/24/2021 9:00:00 AM 20.98 69.764 171 7.43 2.02 9.41
5/24/2021 9:15:00 AM 21 69.8 171 7.44 2 9.44
5/24/2021 9:30:00 AM 21 69.8 171 7.45 2.02 9.46
5/24/2021 9:45:00 AM 21 69.8 171 7.45 1.97 9.49
5/24/2021 10:00:00 AM 21 69.8 171 7.47 1.98 9.52
5/24/2021 10:15:00 AM 20.99 69.782 171 7.47 2.03 9.55
5/24/2021 10:30:00 AM 20.98 69.764 172 7.48 2.03 9.59
5/24/2021 10:45:00 AM 20.97 69.746 172 7.49 2.01 9.61
5/24/2021 11:00:00 AM 20.94 69.692 172 7.5 2 9.63
5/24/2021 11:15:00 AM 20.92 69.656 172 7.51 2.03 9.65
5/24/2021 11:30:00 AM 20.9 69.62 172 7.51 1.97 9.65
5/24/2021 11:45:00 AM 20.88 69.584 172 7.52 1.95 9.67
5/24/2021 12:00:00 PM 20.85 69.53 172 7.53 1.95 9.68
5/24/2021 12:15:00 PM 20.83 69.494 172 7.53 1.95 9.7
5/24/2021 12:30:00 PM 20.8 69.44 172 7.54 1.99 9.72
5/24/2021 12:45:00 PM 20.78 69.404 172 7.55 2.15 9.73
5/24/2021 1:00:00 PM 20.76 69.368 172 7.56 2.1 9.77
5/24/2021 1:15:00 PM 20.74 69.332 172 7.57 1.97 9.78
5/24/2021 1:30:00 PM 20.74 69.332 172 7.58 1.99 9.82
5/24/2021 1:45:00 PM 20.73 69.314 172 7.59 2 9.83
5/24/2021 2:00:00 PM 20.72 69.296 173 7.59 1.96 9.84
5/24/2021 2:15:00 PM 20.71 69.278 172 7.6 1.92 9.87
5/24/2021 2:30:00 PM 20.7 69.26 172 7.61 1.96 9.88
5/24/2021 2:45:00 PM 20.69 69.242 172 7.62 2.02 9.89
5/24/2021 3:00:00 PM 20.67 69.206 172 7.62 2.01 9.91
5/24/2021 3:15:00 PM 20.66 69.188 172 7.63 2 9.92
5/24/2021 3:30:00 PM 20.64 69.152 172 7.63 2.01 9.91
5/24/2021 3:45:00 PM 20.62 69.116 172 7.63 1.86 9.92
5/24/2021 4:00:00 PM 20.6 69.08 172 7.63 2.04 9.91
5/24/2021 4:15:00 PM 20.57 69.026 172 7.63 2.06 9.91
5/24/2021 4:30:00 PM 20.54 68.972 172 7.63 1.89 9.9
5/24/2021 4:45:00 PM 20.5 68.9 172 7.62 2.13 9.89
5/24/2021 5:00:00 PM 20.46 68.828 172 7.62 2.03 9.88
5/24/2021 5:15:00 PM 20.43 68.774 172 7.62 2 9.87
5/24/2021 5:30:00 PM 20.4 68.72 172 7.61 1.83 9.86
5/24/2021 5:45:00 PM 20.37 68.666 172 7.6 2.01 9.83
5/24/2021 6:00:00 PM 20.33 68.594 172 7.59 2.03 9.81
5/24/2021 6:15:00 PM 20.3 68.54 172 7.59 1.84 9.81
5/24/2021 6:30:00 PM 20.27 68.486 172 7.58 1.97 9.79
5/24/2021 6:45:00 PM 20.24 68.432 173 7.57 1.86 9.77
5/24/2021 7:00:00 PM 20.21 68.378 173 7.56 2.09 9.76
5/24/2021 7:15:00 PM 20.17 68.306 173 7.55 2.09 9.71
5/24/2021 7:30:00 PM 20.12 68.216 173 7.54 2.42 9.7
5/24/2021 7:45:00 PM 20.66 69.188 178 7.51 9.26 9.59
5/24/2021 8:00:00 PM 20.6 69.08 179 7.41 7.71 9.62
5/24/2021 8:15:00 PM 20.07 68.126 174 7.51 2.44 9.62
5/24/2021 8:30:00 PM 20.01 68.018 173 7.5 2.41 9.61
5/24/2021 8:45:00 PM 19.98 67.964 174 7.49 2.27 9.59
5/24/2021 9:00:00 PM 19.95 67.91 174 7.49 2.33 9.57
5/24/2021 9:15:00 PM 19.93 67.874 174 7.48 2.28 9.55
5/24/2021 9:30:00 PM 19.91 67.838 174 7.47 2.22 9.54
5/24/2021 9:45:00 PM 19.89 67.802 174 7.47 2.26 9.52
5/24/2021 10:00:00 PM 19.87 67.766 174 7.46 2.69 9.51
5/24/2021 10:15:00 PM 19.85 67.73 174 7.45 2.44 9.5
5/24/2021 10:30:00 PM 19.83 67.694 174 7.45 2.44 9.49
5/24/2021 10:45:00 PM 19.8 67.64 174 7.44 2.42 9.48
5/24/2021 11:00:00 PM 19.77 67.586 174 7.44 2.39 9.47
5/24/2021 11:15:00 PM 19.75 67.55 174 7.43 2.46 9.47
5/24/2021 11:30:00 PM 19.72 67.496 175 7.43 2.28 9.45
5/24/2021 11:45:00 PM 19.7 67.46 175 7.42 2.53 9.44
5/25/2021 12:00:00 AM 19.67 67.406 175 7.42 2.31 9.44
5/25/2021 12:15:00 AM 19.63 67.334 175 7.42 2.31 9.42
5/25/2021 12:30:00 AM 19.61 67.298 175 7.41 2.31 9.42
5/25/2021 12:45:00 AM 19.58 67.244 175 7.41 2.11 9.41
5/25/2021 1:00:00 AM 19.55 67.19 175 7.41 2.25 9.41
5/25/2021 1:15:00 AM 19.53 67.154 175 7.4 2.21 9.4
5/25/2021 1:30:00 AM 19.51 67.118 175 7.4 2.19 9.4
5/25/2021 1:45:00 AM 19.5 67.1 175 7.4 2.22 9.39
5/25/2021 2:00:00 AM 19.48 67.064 176 7.4 2.16 9.38
5/25/2021 2:15:00 AM 19.48 67.064 176 7.4 2.24 9.39
5/25/2021 2:30:00 AM 19.46 67.028 176 7.39 2.31 9.39
5/25/2021 2:45:00 AM 19.43 66.974 176 7.39 2.4 9.38
5/25/2021 3:00:00 AM 19.42 66.956 176 7.39 2.13 9.38
5/25/2021 3:15:00 AM 19.4 66.92 176 7.39 2.26 9.37
5/25/2021 3:30:00 AM 19.82 67.676 181 7.45 2.56 9.56
5/25/2021 3:45:00 AM 19.56 67.208 178 7.4 2 9.48
5/25/2021 4:00:00 AM 19.35 66.83 176 7.39 2.19 9.36
5/25/2021 4:15:00 AM 19.33 66.794 176 7.38 2.1 9.36
5/25/2021 4:30:00 AM 19.32 66.776 176 7.38 1.97 9.35
5/25/2021 4:45:00 AM 19.31 66.758 176 7.38 2.07 9.34
5/25/2021 5:00:00 AM 19.3 66.74 176 7.38 2.16 9.34
5/25/2021 5:15:00 AM 19.28 66.704 177 7.38 2.12 9.33
5/25/2021 5:30:00 AM 19.26 66.668 177 7.38 2.16 9.32
5/25/2021 5:45:00 AM 19.24 66.632 177 7.38 2.2 9.32
5/25/2021 6:00:00 AM 19.22 66.596 177 7.38 2.1 9.32
5/25/2021 6:15:00 AM 19.22 66.596 177 7.38 2.14 9.33
5/25/2021 6:30:00 AM 19.2 66.56 177 7.38 2.01 9.34
5/25/2021 6:45:00 AM 19.19 66.542 177 7.39 2.02 9.35
5/25/2021 7:00:00 AM 19.19 66.542 177 7.39 2.06 9.36
5/25/2021 7:15:00 AM 19.19 66.542 177 7.39 2.05 9.39
5/25/2021 7:30:00 AM 19.19 66.542 177 7.4 2.08 9.4
5/25/2021 7:45:00 AM 19.18 66.524 177 7.4 2.18 9.41
5/25/2021 8:00:00 AM 19.17 66.506 177 7.41 2.05 9.43
5/25/2021 8:15:00 AM 19.17 66.506 177 7.41 2.02 9.46
5/25/2021 8:30:00 AM 19.16 66.488 177 7.42 2.04 9.5
5/25/2021 8:45:00 AM 19.16 66.488 177 7.43 2.32 9.54
5/25/2021 9:00:00 AM 19.16 66.488 177 7.44 2.09 9.56
5/25/2021 9:15:00 AM 19.16 66.488 177 7.45 2.03 9.59
5/25/2021 9:30:00 AM 19.17 66.506 177 7.46 2.03 9.61
5/25/2021 9:45:00 AM 19.17 66.506 178 7.47 3.45 9.65
5/25/2021 10:00:00 AM 19.18 66.524 178 7.47 2.12 9.68
5/25/2021 10:15:00 AM 19.19 66.542 178 7.49 2.05 9.71
5/25/2021 10:30:00 AM 19.2 66.56 178 7.49 2 9.73
5/25/2021 10:45:00 AM 19.21 66.578 178 7.5 1.96 9.77
5/25/2021 11:00:00 AM 19.22 66.596 178 7.52 2.22 9.79
5/25/2021 11:15:00 AM 19.24 66.632 178 7.52 2.07 9.81
5/25/2021 11:30:00 AM 19.26 66.668 178 7.53 2.09 9.86
5/25/2021 11:45:00 AM 19.29 66.722 178 7.55 2.07 9.9
5/25/2021 12:00:00 PM 19.31 66.758 178 7.56 2.12 9.94
5/25/2021 12:15:00 PM 19.35 66.83 178 7.57 2.06 9.97
5/25/2021 12:30:00 PM 19.38 66.884 179 7.59 2.02 10.01
5/25/2021 12:45:00 PM 19.42 66.956 179 7.6 1.89 10.04
5/25/2021 1:00:00 PM 19.47 67.046 179 7.62 1.9 10.08
5/25/2021 1:15:00 PM 19.5 67.1 179 7.63 1.97 10.11
5/25/2021 1:30:00 PM 19.57 67.226 179 7.65 1.99 10.17
5/25/2021 1:45:00 PM 19.64 67.352 179 7.66 1.97 10.18
5/25/2021 2:00:00 PM 19.72 67.496 179 7.67 1.98 10.22
5/25/2021 2:15:00 PM 19.81 67.658 179 7.69 1.92 10.25
5/25/2021 2:30:00 PM 19.88 67.784 180 7.7 1.94 10.27
5/25/2021 2:45:00 PM 19.94 67.892 180 7.71 1.87 10.29
5/25/2021 3:00:00 PM 20.02 68.036 180 7.73 1.88 10.33
5/25/2021 3:15:00 PM 20.08 68.144 180 7.74 1.87 10.36
5/25/2021 3:30:00 PM 20.14 68.252 180 7.75 2.05 10.39
5/25/2021 3:45:00 PM 20.2 68.36 180 7.77 1.9 10.41
5/25/2021 4:00:00 PM 20.25 68.45 180 7.78 1.9 10.43
5/25/2021 4:15:00 PM 20.29 68.522 180 7.79 1.9 10.44
5/25/2021 4:30:00 PM 20.34 68.612 181 7.81 1.9 10.48
5/25/2021 4:45:00 PM 20.36 68.648 181 7.82 1.82 10.49
5/25/2021 5:00:00 PM 20.4 68.72 181 7.83 1.97 10.51
5/25/2021 5:15:00 PM 20.43 68.774 181 7.84 1.94 10.52
5/25/2021 5:30:00 PM 20.44 68.792 181 7.85 2.13 10.51
5/25/2021 5:45:00 PM 20.45 68.81 181 7.85 1.91 10.53
5/25/2021 6:00:00 PM 20.45 68.81 181 7.86 1.9 10.54
5/25/2021 6:15:00 PM 20.47 68.846 181 7.86 1.81 10.54
5/25/2021 6:30:00 PM 20.46 68.828 181 7.86 1.87 10.52
5/25/2021 6:45:00 PM 20.46 68.828 182 7.86 2.06 10.52
5/25/2021 7:00:00 PM 20.41 68.738 186 7.71 2.85 10.15
5/25/2021 7:15:00 PM 20.33 68.594 184 7.68 1.89 10.21
5/25/2021 7:30:00 PM 20.45 68.81 182 7.82 2.25 10.44
5/25/2021 7:45:00 PM 20.45 68.81 182 7.82 2.04 10.44
5/25/2021 8:00:00 PM 20.44 68.792 182 7.81 1.99 10.41
5/25/2021 8:15:00 PM 20.43 68.774 182 7.8 2.21 10.39
5/25/2021 8:30:00 PM 20.42 68.756 182 7.79 2.14 10.37
5/25/2021 8:45:00 PM 20.41 68.738 182 7.77 2.27 10.33
5/25/2021 9:00:00 PM 20.4 68.72 182 7.76 2.24 10.31
5/25/2021 9:15:00 PM 20.39 68.702 182 7.74 2.3 10.28
5/25/2021 9:30:00 PM 20.39 68.702 182 7.72 2.02 10.24
5/25/2021 9:45:00 PM 20.38 68.684 182 7.71 2.13 10.2
5/25/2021 10:00:00 PM 20.37 68.666 182 7.7 2.07 10.17
5/25/2021 10:15:00 PM 20.36 68.648 182 7.68 2.15 10.15
5/25/2021 10:30:00 PM 20.34 68.612 182 7.67 2.23 10.11
5/25/2021 10:45:00 PM 20.32 68.576 182 7.66 2.12 10.08
5/25/2021 11:00:00 PM 20.31 68.558 182 7.64 2.17 10.05
5/25/2021 11:15:00 PM 20.28 68.504 182 7.63 2.15 10.02
5/25/2021 11:30:00 PM 20.26 68.468 182 7.62 2.18 10
5/25/2021 11:45:00 PM 20.24 68.432 182 7.61 2.18 9.98
5/26/2021 12:00:00 AM 20.22 68.396 182 7.59 2 9.94
5/26/2021 12:15:00 AM 20.2 68.36 182 7.58 1.92 9.9
5/26/2021 12:30:00 AM 20.18 68.324 182 7.57 2.03 9.87
5/26/2021 12:45:00 AM 20.1 68.18 187 7.6 2.73 9.85
5/26/2021 1:00:00 AM 20.1 68.18 186 7.46 2.69 9.77
5/26/2021 1:15:00 AM 20.1 68.18 182 7.52 2.04 9.76
5/26/2021 1:30:00 AM 20.08 68.144 182 7.52 2.01 9.75
5/26/2021 1:45:00 AM 20.06 68.108 182 7.51 2.02 9.72
5/26/2021 2:00:00 AM 20.04 68.07201 182 7.5 2.03 9.7
5/26/2021 2:15:00 AM 20.01 68.018 182 7.5 2.04 9.68
5/26/2021 2:30:00 AM 19.98 67.964 182 7.49 2.08 9.66
5/26/2021 2:45:00 AM 19.97 67.946 182 7.49 2.17 9.65
5/26/2021 3:00:00 AM 19.94 67.892 182 7.48 1.96 9.63
5/26/2021 3:15:00 AM 19.92 67.856 182 7.47 1.94 9.62
5/26/2021 3:30:00 AM 19.9 67.82 182 7.47 2.16 9.61
5/26/2021 3:45:00 AM 19.88 67.784 182 7.46 2.26 9.59
5/26/2021 4:00:00 AM 19.86 67.748 182 7.46 2.1 9.59
5/26/2021 4:15:00 AM 19.85 67.73 182 7.45 2.26 9.58
5/26/2021 4:30:00 AM 19.82 67.676 183 7.45 2.12 9.56
5/26/2021 4:45:00 AM 19.81 67.658 183 7.45 2.07 9.55
5/26/2021 5:00:00 AM 19.79 67.622 183 7.44 2.01 9.54
5/26/2021 5:15:00 AM 19.78 67.604 183 7.44 2.25 9.53
5/26/2021 5:30:00 AM 19.78 67.604 183 7.44 1.96 9.53
5/26/2021 5:45:00 AM 19.77 67.586 183 7.44 2.12 9.53
5/26/2021 6:00:00 AM 19.77 67.586 183 7.44 2.04 9.55
5/26/2021 6:15:00 AM 19.78 67.604 183 7.45 2.09 9.58
5/26/2021 6:30:00 AM 19.78 67.604 183 7.46 1.97 9.6
5/26/2021 6:45:00 AM 19.79 67.622 183 7.46 1.96 9.62
5/26/2021 7:00:00 AM 19.8 67.64 183 7.47 2.02 9.64
5/26/2021 7:15:00 AM 19.83 67.694 183 7.48 2 9.68
5/26/2021 7:30:00 AM 19.86 67.748 183 7.49 1.96 9.71
5/26/2021 7:45:00 AM 19.89 67.802 183 7.5 1.93 9.73
5/26/2021 8:00:00 AM 19.92 67.856 183 7.51 1.92 9.75
5/26/2021 8:15:00 AM 19.96 67.92799 183 7.52 1.99 9.79
5/26/2021 8:30:00 AM 20 68 183 7.53 2.1 9.82
5/26/2021 8:45:00 AM 20.05 68.09 183 7.54 1.86 9.86
5/26/2021 9:00:00 AM 20.09 68.162 183 7.56 2.2 9.89
5/26/2021 9:15:00 AM 20.13 68.234 183 7.57 1.95 9.91
5/26/2021 9:30:00 AM 20.17 68.306 183 7.58 1.83 9.94
5/26/2021 9:45:00 AM 20.22 68.396 183 7.6 2.04 9.97
5/26/2021 10:00:00 AM 20.27 68.486 183 7.61 1.99 10
5/26/2021 10:15:00 AM 20.31 68.558 183 7.62 1.87 10.02
5/26/2021 10:30:00 AM 20.39 68.702 183 7.63 1.79 10.03
5/26/2021 10:45:00 AM 20.49 68.882 183 7.64 1.75 10.07
5/26/2021 11:00:00 AM 20.6 69.08 183 7.66 1.79 10.11
5/26/2021 11:15:00 AM 20.71 69.278 183 7.66 1.84 10.11
5/26/2021 11:30:00 AM 20.82 69.476 183 7.68 1.87 10.14
5/26/2021 11:45:00 AM 20.93 69.674 183 7.69 1.82 10.17
5/26/2021 12:00:00 PM 21.04 69.872 183 7.71 1.92 10.21
5/26/2021 12:15:00 PM 21.16 70.088 183 7.73 1.72 10.24
5/26/2021 12:30:00 PM 21.28 70.304 183 7.75 1.78 10.25
5/26/2021 12:45:00 PM 21.39 70.502 184 7.77 1.71 10.27
5/26/2021 1:00:00 PM 21.51 70.718 184 7.8 1.72 10.29
5/26/2021 1:15:00 PM 21.6 70.88 184 7.82 1.95 10.31
5/26/2021 1:30:00 PM 21.69 71.042 184 7.83 1.81 10.33
5/26/2021 1:45:00 PM 21.77 71.186 184 7.83 1.78 10.35
5/26/2021 2:00:00 PM 21.83 71.294 184 7.84 1.85 10.35
5/26/2021 2:15:00 PM 21.89 71.402 184 7.84 1.66 10.35
5/26/2021 2:30:00 PM 21.91 71.438 184 7.85 1.84 10.34
5/26/2021 2:45:00 PM 21.91 71.438 184 7.85 1.76 10.33
5/26/2021 3:00:00 PM 21.92 71.456 184 7.85 1.77 10.34
5/26/2021 3:15:00 PM 21.94 71.492 184 7.86 1.8 10.34
5/26/2021 3:30:00 PM 22.02 71.636 184 7.86 2 10.36
5/26/2021 3:45:00 PM 22.09 71.762 184 7.88 1.95 10.36
5/26/2021 4:00:00 PM 22.16 71.888 184 7.88 1.92 10.34
5/26/2021 4:15:00 PM 22.23 72.014 185 7.89 1.86 10.35
5/26/2021 4:30:00 PM 22.27 72.086 185 7.9 1.8 10.35
5/26/2021 4:45:00 PM 22.29 72.122 184 7.91 1.89 10.35
5/26/2021 5:00:00 PM 22.33 72.194 184 7.91 2 10.35
5/26/2021 5:15:00 PM 22.36 72.248 184 7.92 2 10.32
5/26/2021 5:30:00 PM 22.36 72.248 184 7.92 1.9 10.31
5/26/2021 5:45:00 PM 22.35 72.23 184 7.91 1.92 10.31
5/26/2021 6:00:00 PM 21.9 71.42 188 7.79 2.75 10.01
5/26/2021 6:15:00 PM 21.87 71.366 187 7.68 1.68 9.92
5/26/2021 6:30:00 PM 22.25 72.05 185 7.85 2.24 10.2
5/26/2021 6:45:00 PM 22.29 72.122 185 7.86 2.31 10.23
5/26/2021 7:00:00 PM 22.28 72.104 185 7.85 2.15 10.2
5/26/2021 7:15:00 PM 22.22 71.996 185 7.84 2.56 10.18
5/26/2021 7:30:00 PM 22.15 71.87 185 7.83 2.42 10.14
5/26/2021 7:45:00 PM 22.1 71.78 185 7.8 2.29 10.11
5/26/2021 8:00:00 PM 22.05 71.69 185 7.79 2.39 10.05
5/26/2021 8:15:00 PM 22.02 71.636 186 7.77 2.27 10
5/26/2021 8:30:00 PM 21.99 71.582 186 7.75 2.53 9.96
5/26/2021 8:45:00 PM 21.96 71.528 186 7.74 2.32 9.92
5/26/2021 9:00:00 PM 21.93 71.474 186 7.72 2.16 9.88
5/26/2021 9:15:00 PM 21.9 71.42 186 7.71 2.21 9.86
5/26/2021 9:30:00 PM 21.87 71.366 186 7.69 2.24 9.81
5/26/2021 9:45:00 PM 21.85 71.33 187 7.68 2.14 9.78
5/26/2021 10:00:00 PM 21.81 71.258 187 7.66 2.03 9.75
5/26/2021 10:15:00 PM 21.77 71.186 187 7.65 2.14 9.72
5/26/2021 10:30:00 PM 21.73 71.114 187 7.64 2.09 9.7
5/26/2021 10:45:00 PM 21.69 71.042 187 7.62 2.05 9.65
5/26/2021 11:00:00 PM 21.64 70.952 187 7.61 2.13 9.62
5/26/2021 11:15:00 PM 21.59 70.862 187 7.6 2 9.59
5/26/2021 11:30:00 PM 21.54 70.772 187 7.58 2.05 9.56
5/26/2021 11:45:00 PM 21.49 70.682 187 7.57 1.94 9.54
5/27/2021 12:00:00 AM 21.44 70.592 187 7.56 2.04 9.51
5/27/2021 12:15:00 AM 21.4 70.52 187 7.55 2.11 9.48
5/27/2021 12:30:00 AM 21.35 70.43 187 7.54 2 9.46
5/27/2021 12:45:00 AM 21.31 70.358 187 7.53 2.03 9.45
5/27/2021 1:00:00 AM 21.28 70.304 187 7.52 1.92 9.42
5/27/2021 1:15:00 AM 21.24 70.232 187 7.51 2.22 9.4
5/27/2021 1:30:00 AM 21.21 70.17799 187 7.5 2.17 9.38
5/27/2021 1:45:00 AM 21.18 70.124 187 7.5 2.01 9.37
5/27/2021 2:00:00 AM 21.15 70.07 187 7.49 1.98 9.35
5/27/2021 2:15:00 AM 21.12 70.016 186 7.49 2.05 9.36
5/27/2021 2:30:00 AM 21.09 69.962 186 7.48 1.98 9.34
5/27/2021 2:45:00 AM 21.06 69.908 187 7.47 2.12 9.32
5/27/2021 3:00:00 AM 21.03 69.854 190 7.53 4.03 9.42
5/27/2021 3:15:00 AM 21.16 70.088 190 7.45 2.01 9.41
5/27/2021 3:30:00 AM 21.01 69.818 187 7.45 1.95 9.29
5/27/2021 3:45:00 AM 20.96 69.728 187 7.45 2.13 9.26
5/27/2021 4:00:00 AM 20.94 69.692 187 7.44 2.03 9.25
5/27/2021 4:15:00 AM 20.92 69.656 187 7.44 2.16 9.23
5/27/2021 4:30:00 AM 20.9 69.62 187 7.44 2.05 9.22
5/27/2021 4:45:00 AM 20.88 69.584 187 7.44 2.03 9.21
5/27/2021 5:00:00 AM 20.86 69.548 187 7.43 2.18 9.2
5/27/2021 5:15:00 AM 20.85 69.53 187 7.43 2.04 9.19
5/27/2021 5:30:00 AM 20.83 69.494 187 7.43 2.08 9.19
5/27/2021 5:45:00 AM 20.81 69.458 187 7.43 2.11 9.19
5/27/2021 6:00:00 AM 20.8 69.44 187 7.43 2.04 9.18
5/27/2021 6:15:00 AM 20.79 69.422 187 7.44 2.02 9.2
5/27/2021 6:30:00 AM 20.79 69.422 187 7.44 2.06 9.21
5/27/2021 6:45:00 AM 20.79 69.422 187 7.44 2.09 9.23
5/27/2021 7:00:00 AM 20.79 69.422 187 7.45 2.05 9.25
5/27/2021 7:15:00 AM 20.8 69.44 187 7.45 2.07 9.27
5/27/2021 7:30:00 AM 20.81 69.458 187 7.46 2.11 9.28
5/27/2021 7:45:00 AM 20.83 69.494 187 7.47 2.17 9.31
5/27/2021 8:00:00 AM 20.84 69.512 187 7.47 1.88 9.31
5/27/2021 8:15:00 AM 20.84 69.512 188 7.47 1.79 9.3
5/27/2021 8:30:00 AM 20.88 69.584 188 7.48 1.97 9.32
5/27/2021 8:45:00 AM 20.9 69.62 188 7.48 1.74 9.31
5/27/2021 9:00:00 AM 20.93 69.674 188 7.48 1.75 9.33
5/27/2021 9:15:00 AM 20.95 69.71 188 7.49 1.85 9.37
5/27/2021 9:30:00 AM 20.98 69.764 188 7.49 1.66 9.35
5/27/2021 9:45:00 AM 21.05 69.89 188 7.5 1.73 9.4
5/27/2021 10:00:00 AM 21.15 70.07 188 7.52 1.84 9.47
5/27/2021 10:15:00 AM 21.34 70.412 194 7.59 2.19 9.55
5/27/2021 10:30:00 AM 21.6 70.88 193 7.5 1.3 9.45
5/27/2021 10:45:00 AM 21.33 70.394 190 7.52 1.53 9.43
5/27/2021 11:00:00 AM 21.3 70.34 189 7.51 1.66 9.44
5/27/2021 11:15:00 AM 21.52 70.736 189 7.57 2.6 9.65
5/27/2021 11:30:00 AM 21.73 71.114 189 7.63 2.25 9.79
5/27/2021 11:45:00 AM 21.82 71.276 189 7.64 2.15 9.81
5/27/2021 12:00:00 PM 21.9 71.42 189 7.65 1.85 9.84
5/27/2021 12:15:00 PM 22.01 71.618 189 7.68 1.91 9.9
5/27/2021 12:30:00 PM 22.1 71.78 190 7.69 1.93 9.94
5/27/2021 12:45:00 PM 22.21 71.978 189 7.71 1.98 9.97
5/27/2021 1:00:00 PM 22.3 72.14 189 7.72 2.04 10.01
5/27/2021 1:15:00 PM 22.39 72.302 190 7.74 1.97 10.02
5/27/2021 1:30:00 PM 22.49 72.482 190 7.76 2.02 10.06
5/27/2021 1:45:00 PM 22.59 72.662 190 7.78 2.08 10.11
5/27/2021 2:00:00 PM 22.68 72.824 190 7.79 1.94 10.12
5/27/2021 2:15:00 PM 22.76 72.968 190 7.81 1.99 10.15
5/27/2021 2:30:00 PM 22.84 73.112 190 7.82 2.1 10.17
5/27/2021 2:45:00 PM 22.93 73.274 190 7.84 1.88 10.22
5/27/2021 3:00:00 PM 22.99 73.382 190 7.86 2 10.25
5/27/2021 3:15:00 PM 23.04 73.472 190 7.88 2.07 10.26
5/27/2021 3:30:00 PM 23.1 73.58 191 7.9 1.88 10.3
5/27/2021 3:45:00 PM 23.16 73.688 191 7.9 1.89 10.31
5/27/2021 4:00:00 PM 23.2 73.76 190 7.92 1.83 10.33
5/27/2021 4:15:00 PM 23.23 73.814 191 7.93 1.84 10.34
5/27/2021 4:30:00 PM 23.26 73.868 191 7.94 1.82 10.35
5/27/2021 4:45:00 PM 23.29 73.922 191 7.96 2.03 10.36
5/27/2021 5:00:00 PM 23.34 74.012 191 7.97 1.92 10.38
5/27/2021 5:15:00 PM 23.35 74.03 191 7.97 2.11 10.38
5/27/2021 5:30:00 PM 23.37 74.066 191 7.98 2.18 10.39
5/27/2021 5:45:00 PM 23.34 74.012 191 7.99 2.04 10.4
5/27/2021 6:00:00 PM 23.33 73.994 191 7.99 2.05 10.38
5/27/2021 6:15:00 PM 23.3 73.94 190 7.99 1.95 10.38
5/27/2021 6:30:00 PM 23.28 73.904 190 7.98 2.14 10.34
5/27/2021 6:45:00 PM 23.26 73.868 191 7.97 2.19 10.33
5/27/2021 7:00:00 PM 23.23 73.814 191 7.96 2.25 10.3
5/27/2021 7:15:00 PM 23.19 73.742 191 7.96 2.51 10.31
5/27/2021 7:30:00 PM 23.13 73.634 191 7.94 2.05 10.3
5/27/2021 7:45:00 PM 23.09 73.562 191 7.93 1.97 10.29
5/27/2021 8:00:00 PM 23.04 73.472 191 7.91 1.99 10.24
5/27/2021 8:15:00 PM 22.98 73.364 191 7.9 1.97 10.22
5/27/2021 8:30:00 PM 22.91 73.238 191 7.88 2.1 10.18
5/27/2021 8:45:00 PM 22.83 73.094 191 7.86 2.05 10.13
5/27/2021 9:00:00 PM 22.75 72.95 191 7.84 1.92 10.1
5/27/2021 9:15:00 PM 22.67 72.806 191 7.83 2.1 10.06
5/27/2021 9:30:00 PM 22.59 72.662 191 7.81 2.01 10.01
5/27/2021 9:45:00 PM 22.51 72.518 191 7.79 1.99 9.97
5/27/2021 10:00:00 PM 22.43 72.374 191 7.77 2.01 9.93
5/27/2021 10:15:00 PM 22.36 72.248 191 7.75 2.08 9.9
5/27/2021 10:30:00 PM 22.28 72.104 191 7.73 1.99 9.86
5/27/2021 10:45:00 PM 22.2 71.96 191 7.72 2.15 9.82
5/27/2021 11:00:00 PM 22.12 71.816 191 7.7 1.96 9.78
5/27/2021 11:15:00 PM 22.05 71.69 192 7.69 2 9.75
5/27/2021 11:30:00 PM 21.98 71.564 192 7.67 1.98 9.72
5/27/2021 11:45:00 PM 21.9 71.42 192 7.66 1.97 9.7
5/28/2021 12:00:00 AM 21.83 71.294 191 7.66 2 9.68
5/28/2021 12:15:00 AM 21.76 71.168 192 7.64 1.94 9.65
5/28/2021 12:30:00 AM 21.7 71.06 192 7.63 2.1 9.63
5/28/2021 12:45:00 AM 21.63 70.934 192 7.62 1.92 9.6
5/28/2021 1:00:00 AM 21.57 70.826 192 7.6 2.05 9.57
5/28/2021 1:15:00 AM 21.5 70.7 192 7.59 2.07 9.55
5/28/2021 1:30:00 AM 21.44 70.592 192 7.58 2.13 9.52
5/28/2021 1:45:00 AM 21.39 70.502 192 7.58 2.18 9.5
5/28/2021 2:00:00 AM 21.34 70.412 192 7.57 2 9.49
5/28/2021 2:15:00 AM 21.29 70.32201 192 7.56 2.08 9.46
5/28/2021 2:30:00 AM 21.25 70.25 192 7.55 2.02 9.45
5/28/2021 2:45:00 AM 21.21 70.17799 192 7.55 1.97 9.44
5/28/2021 3:00:00 AM 21.17 70.106 192 7.54 2.06 9.42
5/28/2021 3:15:00 AM 21.12 70.016 192 7.53 2.16 9.4
5/28/2021 3:30:00 AM 21.43 70.574 196 7.53 2.65 9.45
5/28/2021 3:45:00 AM 21.47 70.646 195 7.48 2.68 9.41
5/28/2021 4:00:00 AM 21.03 69.854 192 7.51 2.09 9.37
5/28/2021 4:15:00 AM 20.98 69.764 192 7.51 1.88 9.37
5/28/2021 4:30:00 AM 20.93 69.674 192 7.51 2.13 9.37
5/28/2021 4:45:00 AM 20.89 69.602 192 7.51 2.11 9.36
5/28/2021 5:00:00 AM 20.85 69.53 192 7.51 2.05 9.36
5/28/2021 5:15:00 AM 20.82 69.476 192 7.5 1.95 9.35
5/28/2021 5:30:00 AM 20.79 69.422 192 7.5 2.2 9.35
5/28/2021 5:45:00 AM 20.77 69.386 192 7.51 1.99 9.36
5/28/2021 6:00:00 AM 20.75 69.35 192 7.51 2.01 9.36
5/28/2021 6:15:00 AM 20.73 69.314 192 7.51 2.07 9.37
5/28/2021 6:30:00 AM 20.72 69.296 192 7.51 2.32 9.37
5/28/2021 6:45:00 AM 20.71 69.278 192 7.52 2.27 9.39
5/28/2021 7:00:00 AM 20.7 69.26 192 7.52 2.37 9.41
5/28/2021 7:15:00 AM 20.68 69.224 192 7.52 2.2 9.41
5/28/2021 7:30:00 AM 20.67 69.206 192 7.53 2.15 9.43
5/28/2021 7:45:00 AM 20.66 69.188 192 7.53 2.4 9.44
5/28/2021 8:00:00 AM 20.66 69.188 192 7.54 2.19 9.46
5/28/2021 8:15:00 AM 20.65 69.17 192 7.55 2.23 9.49
5/28/2021 8:30:00 AM 20.65 69.17 192 7.56 2.2 9.53
5/28/2021 8:45:00 AM 20.65 69.17 192 7.58 2.13 9.57
5/28/2021 9:00:00 AM 20.67 69.206 192 7.59 2.18 9.61
5/28/2021 9:15:00 AM 20.7 69.26 192 7.6 2.29 9.63
5/28/2021 9:30:00 AM 20.72 69.296 192 7.61 2.13 9.65
5/28/2021 9:45:00 AM 20.73 69.314 192 7.62 2.12 9.67
5/28/2021 10:00:00 AM 20.76 69.368 192 7.64 2.08 9.7
5/28/2021 10:15:00 AM 20.99 69.782 196 7.66 2.37 9.68
5/28/2021 10:30:00 AM 21 69.8 195 7.6 1.74 9.65
5/28/2021 10:45:00 AM 20.83 69.494 192 7.67 2.11 9.79
5/28/2021 11:00:00 AM 20.81 69.458 192 7.69 1.95 9.83
5/28/2021 11:15:00 AM 20.81 69.458 192 7.69 2.07 9.84
5/28/2021 11:30:00 AM 20.81 69.458 193 7.71 2.08 9.87
5/28/2021 11:45:00 AM 20.81 69.458 192 7.72 2.17 9.9
5/28/2021 12:00:00 PM 20.8 69.44 192 7.72 2.09 9.89
5/28/2021 12:15:00 PM 20.8 69.44 192 7.73 2 9.88
5/28/2021 12:30:00 PM